<?xml version="1.0" encoding="UTF-8" standalone="no" ?>
<gpx xmlns="http://www.topografix.com/GPX/1/1" xmlns:xsi="http://www.w3.org/2001/XMLSchema-instance" xsi:schemaLocation="http://www.topografix.com/GPX/1/1 http://www.topografix.com/GPX/1/1/gpx.xsd" version="1.1" creator="VisuGPX - https://www.visugpx.com">
  <metadata>
    <name>solidarité</name>
  </metadata>
  <trk>
    <name><![CDATA[COURSE_130401201]]></name>
    <trkseg>
      <trkpt lat="48.44926" lon="-4.25457">
        <ele>5.941315490635</ele>
        <time>2022-09-18T16:06:51.464Z</time>
        <extensions>
          <visugpx:TrkExtension xmlns:visugpx="https://www.visugpx.com/editgpx/">
            <visugpx:node>2</visugpx:node>
            </visugpx:TrkExtension>
        </extensions>
      </trkpt>
      <trkpt lat="48.44924" lon="-4.25462">
        <ele>5.7843957417867</ele>
        <time>2022-09-18T16:06:58.513Z</time>
      </trkpt>
      <trkpt lat="48.44916" lon="-4.25466">
        <ele>5.6132424898252</ele>
        <time>2022-09-18T16:07:05.564Z</time>
      </trkpt>
      <trkpt lat="48.44918" lon="-4.25523">
        <ele>5.5052767961977</ele>
        <time>2022-09-18T16:07:12.621Z</time>
      </trkpt>
      <trkpt lat="48.4492" lon="-4.25541">
        <ele>5.4277318090699</ele>
        <time>2022-09-18T16:07:19.680Z</time>
      </trkpt>
      <trkpt lat="48.44933" lon="-4.25602">
        <ele>5.3746945181615</ele>
        <time>2022-09-18T16:07:26.746Z</time>
      </trkpt>
      <trkpt lat="48.44941" lon="-4.25647">
        <ele>5.3277070438535</ele>
        <time>2022-09-18T16:07:33.817Z</time>
      </trkpt>
      <trkpt lat="48.44942" lon="-4.2566">
        <ele>5.3390627548109</ele>
        <time>2022-09-18T16:07:40.889Z</time>
      </trkpt>
      <trkpt lat="48.4493" lon="-4.25709">
        <ele>5.435020241634</ele>
        <time>2022-09-18T16:07:47.967Z</time>
      </trkpt>
      <trkpt lat="48.44917" lon="-4.2575">
        <ele>5.6390693553832</ele>
        <time>2022-09-18T16:07:55.049Z</time>
      </trkpt>
      <trkpt lat="48.44901" lon="-4.2581">
        <ele>5.7701224093298</ele>
        <time>2022-09-18T16:08:02.138Z</time>
      </trkpt>
      <trkpt lat="48.44848" lon="-4.26015">
        <ele>6.1456071066361</ele>
        <time>2022-09-18T16:08:09.251Z</time>
      </trkpt>
      <trkpt lat="48.44832" lon="-4.26067">
        <ele>6.5273312652966</ele>
        <time>2022-09-18T16:08:16.370Z</time>
      </trkpt>
      <trkpt lat="48.44821" lon="-4.26091">
        <ele>6.9749737497491</ele>
        <time>2022-09-18T16:08:23.492Z</time>
      </trkpt>
      <trkpt lat="48.44821" lon="-4.26099">
        <ele>7.4307109608977</ele>
        <time>2022-09-18T16:08:30.615Z</time>
      </trkpt>
      <trkpt lat="48.44834" lon="-4.26113">
        <ele>7.9304498110843</ele>
        <time>2022-09-18T16:08:37.740Z</time>
      </trkpt>
      <trkpt lat="48.44855" lon="-4.2613">
        <ele>8.4330040352092</ele>
        <time>2022-09-18T16:08:44.869Z</time>
      </trkpt>
      <trkpt lat="48.44908" lon="-4.26183">
        <ele>9.1731594225015</ele>
        <time>2022-09-18T16:08:52.008Z</time>
      </trkpt>
      <trkpt lat="48.44917" lon="-4.2619">
        <ele>9.8731165236528</ele>
        <time>2022-09-18T16:08:59.149Z</time>
      </trkpt>
      <trkpt lat="48.44941" lon="-4.26215">
        <ele>10.611754711075</ele>
        <time>2022-09-18T16:09:06.295Z</time>
      </trkpt>
      <trkpt lat="48.44948" lon="-4.26225">
        <ele>11.347212181301</ele>
        <time>2022-09-18T16:09:13.442Z</time>
      </trkpt>
      <trkpt lat="48.44978" lon="-4.26252">
        <ele>12.173508409253</ele>
        <time>2022-09-18T16:09:20.595Z</time>
      </trkpt>
      <trkpt lat="48.45017" lon="-4.26296">
        <ele>12.95408124212</ele>
        <time>2022-09-18T16:09:27.756Z</time>
      </trkpt>
      <trkpt lat="48.45027" lon="-4.26305">
        <ele>13.699920764381</ele>
        <time>2022-09-18T16:09:34.918Z</time>
      </trkpt>
      <trkpt lat="48.45037" lon="-4.2631">
        <ele>14.423814963754</ele>
        <time>2022-09-18T16:09:42.082Z</time>
      </trkpt>
      <trkpt lat="48.4504" lon="-4.26317">
        <ele>15.082757331601</ele>
        <time>2022-09-18T16:09:49.247Z</time>
      </trkpt>
      <trkpt lat="48.45041" lon="-4.2633">
        <ele>15.692363478708</ele>
        <time>2022-09-18T16:09:56.413Z</time>
      </trkpt>
      <trkpt lat="48.45034" lon="-4.26403">
        <ele>16.217726838124</ele>
        <time>2022-09-18T16:10:03.587Z</time>
      </trkpt>
      <trkpt lat="48.4503" lon="-4.26466">
        <ele>16.786646141882</ele>
        <time>2022-09-18T16:10:10.768Z</time>
      </trkpt>
      <trkpt lat="48.45027" lon="-4.26473">
        <ele>17.234168740651</ele>
        <time>2022-09-18T16:10:17.950Z</time>
      </trkpt>
      <trkpt lat="48.45024" lon="-4.26516">
        <ele>17.797160192045</ele>
        <time>2022-09-18T16:10:25.137Z</time>
      </trkpt>
      <trkpt lat="48.45012" lon="-4.26581">
        <ele>18.271434452758</ele>
        <time>2022-09-18T16:10:32.331Z</time>
      </trkpt>
      <trkpt lat="48.44964" lon="-4.26674">
        <ele>18.31113739077</ele>
        <time>2022-09-18T16:10:39.537Z</time>
      </trkpt>
      <trkpt lat="48.44901" lon="-4.26789">
        <ele>18.34030692845</ele>
        <time>2022-09-18T16:10:46.759Z</time>
      </trkpt>
      <trkpt lat="48.44877" lon="-4.26837">
        <ele>18.429566299529</ele>
        <time>2022-09-18T16:10:53.988Z</time>
      </trkpt>
      <trkpt lat="48.44851" lon="-4.26885">
        <ele>18.325464947206</ele>
        <time>2022-09-18T16:11:01.223Z</time>
      </trkpt>
      <trkpt lat="48.44824" lon="-4.26929">
        <ele>18.26907073871</ele>
        <time>2022-09-18T16:11:08.465Z</time>
      </trkpt>
      <trkpt lat="48.44767" lon="-4.26991">
        <ele>18.092254450584</ele>
        <time>2022-09-18T16:11:15.718Z</time>
      </trkpt>
      <trkpt lat="48.44717" lon="-4.2704">
        <ele>17.817924519459</ele>
        <time>2022-09-18T16:11:22.980Z</time>
      </trkpt>
      <trkpt lat="48.44685" lon="-4.27075">
        <ele>17.39683151845</ele>
        <time>2022-09-18T16:11:30.249Z</time>
      </trkpt>
      <trkpt lat="48.44652" lon="-4.27108">
        <ele>17.015243907446</ele>
        <time>2022-09-18T16:11:37.524Z</time>
      </trkpt>
      <trkpt lat="48.44623" lon="-4.27141">
        <ele>16.560447424176</ele>
        <time>2022-09-18T16:11:44.805Z</time>
      </trkpt>
      <trkpt lat="48.44585" lon="-4.27176">
        <ele>16.016066160577</ele>
        <time>2022-09-18T16:11:52.093Z</time>
      </trkpt>
      <trkpt lat="48.44577" lon="-4.27186">
        <ele>15.460135111473</ele>
        <time>2022-09-18T16:11:59.383Z</time>
      </trkpt>
      <trkpt lat="48.44546" lon="-4.27289">
        <ele>14.958590552603</ele>
        <time>2022-09-18T16:12:06.685Z</time>
      </trkpt>
      <trkpt lat="48.44534" lon="-4.27343">
        <ele>14.266896459039</ele>
        <time>2022-09-18T16:12:13.993Z</time>
      </trkpt>
      <trkpt lat="48.44518" lon="-4.27396">
        <ele>13.678029914619</ele>
        <time>2022-09-18T16:12:21.307Z</time>
      </trkpt>
      <trkpt lat="48.4451" lon="-4.27411">
        <ele>13.068324791785</ele>
        <time>2022-09-18T16:12:28.623Z</time>
      </trkpt>
      <trkpt lat="48.44483" lon="-4.27452">
        <ele>12.457224870547</ele>
        <time>2022-09-18T16:12:35.945Z</time>
      </trkpt>
      <trkpt lat="48.44398" lon="-4.27569">
        <ele>11.674140446667</ele>
        <time>2022-09-18T16:12:43.286Z</time>
      </trkpt>
      <trkpt lat="48.44383" lon="-4.27593">
        <ele>11.074281759737</ele>
        <time>2022-09-18T16:12:50.630Z</time>
      </trkpt>
      <trkpt lat="48.44224" lon="-4.27812">
        <ele>10.258922314974</ele>
        <time>2022-09-18T16:12:58.009Z</time>
      </trkpt>
      <trkpt lat="48.44166" lon="-4.27897">
        <ele>9.8840029220204</ele>
        <time>2022-09-18T16:13:05.401Z</time>
      </trkpt>
      <trkpt lat="48.44144" lon="-4.27936">
        <ele>9.4246020956082</ele>
        <time>2022-09-18T16:13:12.798Z</time>
      </trkpt>
      <trkpt lat="48.4414" lon="-4.27945">
        <ele>9.1184672476867</ele>
        <time>2022-09-18T16:13:20.196Z</time>
      </trkpt>
      <trkpt lat="48.44133" lon="-4.27982">
        <ele>8.8893729422929</ele>
        <time>2022-09-18T16:13:27.598Z</time>
      </trkpt>
      <trkpt lat="48.44132" lon="-4.28019">
        <ele>8.7543868298841</ele>
        <time>2022-09-18T16:13:35.004Z</time>
      </trkpt>
      <trkpt lat="48.44139" lon="-4.28081">
        <ele>8.9558044498698</ele>
        <time>2022-09-18T16:13:42.417Z</time>
      </trkpt>
      <trkpt lat="48.44144" lon="-4.28108">
        <ele>9.3388399792048</ele>
        <time>2022-09-18T16:13:49.833Z</time>
      </trkpt>
      <trkpt lat="48.44154" lon="-4.28142">
        <ele>9.8811388217177</ele>
        <time>2022-09-18T16:13:57.253Z</time>
      </trkpt>
      <trkpt lat="48.44163" lon="-4.28164">
        <ele>10.533646413509</ele>
        <time>2022-09-18T16:14:04.676Z</time>
      </trkpt>
      <trkpt lat="48.44164" lon="-4.28179">
        <ele>11.274298564145</ele>
        <time>2022-09-18T16:14:12.100Z</time>
      </trkpt>
      <trkpt lat="48.44157" lon="-4.28195">
        <ele>12.169795841404</ele>
        <time>2022-09-18T16:14:19.526Z</time>
      </trkpt>
      <trkpt lat="48.4412" lon="-4.28242">
        <ele>13.255711440403</ele>
        <time>2022-09-18T16:14:26.960Z</time>
      </trkpt>
      <trkpt lat="48.44105" lon="-4.28264">
        <ele>14.591768592874</ele>
        <time>2022-09-18T16:14:34.397Z</time>
      </trkpt>
      <trkpt lat="48.44079" lon="-4.28328">
        <ele>16.30874637241</ele>
        <time>2022-09-18T16:14:41.842Z</time>
      </trkpt>
      <trkpt lat="48.44072" lon="-4.2835">
        <ele>17.955629554739</ele>
        <time>2022-09-18T16:14:49.290Z</time>
      </trkpt>
      <trkpt lat="48.4407" lon="-4.28366">
        <ele>19.660625377299</ele>
        <time>2022-09-18T16:14:56.740Z</time>
      </trkpt>
      <trkpt lat="48.44071" lon="-4.28383">
        <ele>21.449380821087</ele>
        <time>2022-09-18T16:15:04.192Z</time>
      </trkpt>
      <trkpt lat="48.44073" lon="-4.28392">
        <ele>23.218426215993</ele>
        <time>2022-09-18T16:15:11.645Z</time>
      </trkpt>
      <trkpt lat="48.44078" lon="-4.28403">
        <ele>25.109242664154</ele>
        <time>2022-09-18T16:15:19.099Z</time>
      </trkpt>
      <trkpt lat="48.44122" lon="-4.28445">
        <ele>27.305316780013</ele>
        <time>2022-09-18T16:15:26.561Z</time>
      </trkpt>
      <trkpt lat="48.44132" lon="-4.28462">
        <ele>29.179476070879</ele>
        <time>2022-09-18T16:15:34.026Z</time>
      </trkpt>
      <trkpt lat="48.44134" lon="-4.28468">
        <ele>30.949908671603</ele>
        <time>2022-09-18T16:15:41.491Z</time>
      </trkpt>
      <trkpt lat="48.44133" lon="-4.28473">
        <ele>32.664476077643</ele>
        <time>2022-09-18T16:15:48.957Z</time>
      </trkpt>
      <trkpt lat="48.44135" lon="-4.28496">
        <ele>34.433565869585</ele>
        <time>2022-09-18T16:15:56.425Z</time>
      </trkpt>
      <trkpt lat="48.4413" lon="-4.28512">
        <ele>36.154060101673</ele>
        <time>2022-09-18T16:16:03.895Z</time>
      </trkpt>
      <trkpt lat="48.44124" lon="-4.28525">
        <ele>37.745747832687</ele>
        <time>2022-09-18T16:16:11.367Z</time>
      </trkpt>
      <trkpt lat="48.44104" lon="-4.28553">
        <ele>39.238726233581</ele>
        <time>2022-09-18T16:16:18.843Z</time>
      </trkpt>
      <trkpt lat="48.44096" lon="-4.28569">
        <ele>40.65595286815</ele>
        <time>2022-09-18T16:16:26.322Z</time>
      </trkpt>
      <trkpt lat="48.44058" lon="-4.28623">
        <ele>42.104297215351</ele>
        <time>2022-09-18T16:16:33.809Z</time>
      </trkpt>
      <trkpt lat="48.44052" lon="-4.28629">
        <ele>43.227241489028</ele>
        <time>2022-09-18T16:16:41.297Z</time>
      </trkpt>
      <trkpt lat="48.44032" lon="-4.28657">
        <ele>44.30608881155</ele>
        <time>2022-09-18T16:16:48.789Z</time>
      </trkpt>
      <trkpt lat="48.44025" lon="-4.28663">
        <ele>45.23607884279</ele>
        <time>2022-09-18T16:16:56.283Z</time>
      </trkpt>
      <trkpt lat="48.44017" lon="-4.28677">
        <ele>46.174621485882</ele>
        <time>2022-09-18T16:17:03.779Z</time>
      </trkpt>
      <trkpt lat="48.44007" lon="-4.2869">
        <ele>47.012193542119</ele>
        <time>2022-09-18T16:17:11.277Z</time>
      </trkpt>
      <trkpt lat="48.43988" lon="-4.28708">
        <ele>47.713645435947</ele>
        <time>2022-09-18T16:17:18.778Z</time>
      </trkpt>
      <trkpt lat="48.43982" lon="-4.28717">
        <ele>48.427168298131</ele>
        <time>2022-09-18T16:17:26.281Z</time>
      </trkpt>
      <trkpt lat="48.4396" lon="-4.28742">
        <ele>49.009759792908</ele>
        <time>2022-09-18T16:17:33.788Z</time>
      </trkpt>
      <trkpt lat="48.43932" lon="-4.28786">
        <ele>49.811443968345</ele>
        <time>2022-09-18T16:17:41.302Z</time>
      </trkpt>
      <trkpt lat="48.43909" lon="-4.28816">
        <ele>50.490495277102</ele>
        <time>2022-09-18T16:17:48.821Z</time>
      </trkpt>
      <trkpt lat="48.43898" lon="-4.28834">
        <ele>51.140220845595</ele>
        <time>2022-09-18T16:17:56.342Z</time>
      </trkpt>
      <trkpt lat="48.4388" lon="-4.28874">
        <ele>51.815502827399</ele>
        <time>2022-09-18T16:18:03.868Z</time>
      </trkpt>
      <trkpt lat="48.43872" lon="-4.28898">
        <ele>52.564829468354</ele>
        <time>2022-09-18T16:18:11.397Z</time>
      </trkpt>
      <trkpt lat="48.4387" lon="-4.2891">
        <ele>53.30032134716</ele>
        <time>2022-09-18T16:18:18.928Z</time>
      </trkpt>
      <trkpt lat="48.43863" lon="-4.28932">
        <ele>54.033250183374</ele>
        <time>2022-09-18T16:18:26.461Z</time>
      </trkpt>
      <trkpt lat="48.4385" lon="-4.29011">
        <ele>54.747641309322</ele>
        <time>2022-09-18T16:18:34.003Z</time>
      </trkpt>
      <trkpt lat="48.43839" lon="-4.2904">
        <ele>55.296495837446</ele>
        <time>2022-09-18T16:18:41.548Z</time>
      </trkpt>
      <trkpt lat="48.43837" lon="-4.29051">
        <ele>55.92568824228</ele>
        <time>2022-09-18T16:18:49.095Z</time>
      </trkpt>
      <trkpt lat="48.43818" lon="-4.29091">
        <ele>56.535517898741</ele>
        <time>2022-09-18T16:18:56.647Z</time>
      </trkpt>
      <trkpt lat="48.43809" lon="-4.29116">
        <ele>57.924138789285</ele>
        <time>2022-09-18T16:19:04.202Z</time>
      </trkpt>
      <trkpt lat="48.438" lon="-4.29131">
        <ele>58.638175506494</ele>
        <time>2022-09-18T16:19:11.759Z</time>
      </trkpt>
      <trkpt lat="48.43789" lon="-4.29141">
        <ele>59.260671884487</ele>
        <time>2022-09-18T16:19:19.318Z</time>
      </trkpt>
      <trkpt lat="48.43767" lon="-4.29185">
        <ele>59.864492639227</ele>
        <time>2022-09-18T16:19:26.883Z</time>
      </trkpt>
      <trkpt lat="48.43753" lon="-4.2922">
        <ele>60.416307503011</ele>
        <time>2022-09-18T16:19:34.452Z</time>
      </trkpt>
      <trkpt lat="48.43727" lon="-4.29298">
        <ele>61.197586069664</ele>
        <time>2022-09-18T16:19:42.031Z</time>
      </trkpt>
      <trkpt lat="48.43709" lon="-4.2933">
        <ele>61.712638500074</ele>
        <time>2022-09-18T16:19:49.614Z</time>
      </trkpt>
      <trkpt lat="48.43674" lon="-4.29386">
        <ele>62.132137372851</ele>
        <time>2022-09-18T16:19:57.205Z</time>
      </trkpt>
      <trkpt lat="48.43646" lon="-4.29425">
        <ele>62.724880671506</ele>
        <time>2022-09-18T16:20:04.802Z</time>
      </trkpt>
      <trkpt lat="48.43618" lon="-4.29469">
        <ele>63.199054650459</ele>
        <time>2022-09-18T16:20:12.406Z</time>
      </trkpt>
      <trkpt lat="48.43608" lon="-4.29481">
        <ele>63.494473640297</ele>
        <time>2022-09-18T16:20:20.012Z</time>
      </trkpt>
      <trkpt lat="48.43592" lon="-4.29518">
        <ele>63.845874356541</ele>
        <time>2022-09-18T16:20:27.623Z</time>
      </trkpt>
      <trkpt lat="48.43559" lon="-4.29565">
        <ele>64.06849911046</ele>
        <time>2022-09-18T16:20:35.241Z</time>
      </trkpt>
      <trkpt lat="48.43512" lon="-4.29642">
        <ele>64.053581629801</ele>
        <time>2022-09-18T16:20:42.870Z</time>
      </trkpt>
      <trkpt lat="48.43456" lon="-4.29757">
        <ele>64.33332822686</ele>
        <time>2022-09-18T16:20:50.514Z</time>
      </trkpt>
      <trkpt lat="48.43437" lon="-4.29782">
        <ele>64.184463543577</ele>
        <time>2022-09-18T16:20:58.162Z</time>
      </trkpt>
      <trkpt lat="48.43404" lon="-4.29847">
        <ele>63.748881821421</ele>
        <time>2022-09-18T16:21:05.819Z</time>
      </trkpt>
      <trkpt lat="48.43373" lon="-4.29899">
        <ele>63.088097817395</ele>
        <time>2022-09-18T16:21:13.483Z</time>
      </trkpt>
      <trkpt lat="48.43323" lon="-4.3001">
        <ele>62.529672372179</ele>
        <time>2022-09-18T16:21:21.162Z</time>
      </trkpt>
      <trkpt lat="48.43314" lon="-4.30034">
        <ele>61.705416763388</ele>
        <time>2022-09-18T16:21:28.844Z</time>
      </trkpt>
      <trkpt lat="48.43302" lon="-4.30056">
        <ele>60.694457620869</ele>
        <time>2022-09-18T16:21:36.529Z</time>
      </trkpt>
      <trkpt lat="48.43288" lon="-4.30077">
        <ele>59.580670924075</ele>
        <time>2022-09-18T16:21:44.217Z</time>
      </trkpt>
      <trkpt lat="48.4327" lon="-4.30098">
        <ele>58.344454511284</ele>
        <time>2022-09-18T16:21:51.908Z</time>
      </trkpt>
      <trkpt lat="48.43236" lon="-4.30147">
        <ele>56.92919453932</ele>
        <time>2022-09-18T16:21:59.607Z</time>
      </trkpt>
      <trkpt lat="48.43202" lon="-4.30207">
        <ele>55.304007347521</ele>
        <time>2022-09-18T16:22:07.314Z</time>
      </trkpt>
      <trkpt lat="48.43191" lon="-4.3023">
        <ele>53.81641742313</ele>
        <time>2022-09-18T16:22:15.024Z</time>
      </trkpt>
      <trkpt lat="48.4317" lon="-4.30283">
        <ele>52.348640652332</ele>
        <time>2022-09-18T16:22:22.741Z</time>
      </trkpt>
      <trkpt lat="48.43158" lon="-4.30325">
        <ele>50.933899819843</ele>
        <time>2022-09-18T16:22:30.463Z</time>
      </trkpt>
      <trkpt lat="48.43139" lon="-4.30364">
        <ele>49.345859871235</ele>
        <time>2022-09-18T16:22:38.190Z</time>
      </trkpt>
      <trkpt lat="48.43116" lon="-4.30401">
        <ele>47.731318643174</ele>
        <time>2022-09-18T16:22:45.922Z</time>
      </trkpt>
      <trkpt lat="48.43109" lon="-4.30415">
        <ele>46.408479968144</ele>
        <time>2022-09-18T16:22:53.656Z</time>
      </trkpt>
      <trkpt lat="48.431" lon="-4.30446">
        <ele>45.256812343537</ele>
        <time>2022-09-18T16:23:01.394Z</time>
      </trkpt>
      <trkpt lat="48.43093" lon="-4.30498">
        <ele>44.268758205596</ele>
        <time>2022-09-18T16:23:09.137Z</time>
      </trkpt>
      <trkpt lat="48.43094" lon="-4.30535">
        <ele>43.325312411918</ele>
        <time>2022-09-18T16:23:16.884Z</time>
      </trkpt>
      <trkpt lat="48.43101" lon="-4.30571">
        <ele>42.386025781249</ele>
        <time>2022-09-18T16:23:24.635Z</time>
      </trkpt>
      <trkpt lat="48.43117" lon="-4.30619">
        <ele>41.440784981828</ele>
        <time>2022-09-18T16:23:32.392Z</time>
      </trkpt>
      <trkpt lat="48.43122" lon="-4.30646">
        <ele>40.712449860634</ele>
        <time>2022-09-18T16:23:40.152Z</time>
      </trkpt>
      <trkpt lat="48.43118" lon="-4.30672">
        <ele>40.10406712058</ele>
        <time>2022-09-18T16:23:47.915Z</time>
      </trkpt>
      <trkpt lat="48.43113" lon="-4.30682">
        <ele>39.592550897785</ele>
        <time>2022-09-18T16:23:55.679Z</time>
      </trkpt>
      <trkpt lat="48.43105" lon="-4.30692">
        <ele>39.191068449117</ele>
        <time>2022-09-18T16:24:03.445Z</time>
      </trkpt>
      <trkpt lat="48.43094" lon="-4.30701">
        <ele>38.928460769104</ele>
        <time>2022-09-18T16:24:11.213Z</time>
      </trkpt>
      <trkpt lat="48.43083" lon="-4.30704">
        <ele>38.606489042186</ele>
        <time>2022-09-18T16:24:18.983Z</time>
      </trkpt>
      <trkpt lat="48.43073" lon="-4.30705">
        <ele>38.223002995963</ele>
        <time>2022-09-18T16:24:26.754Z</time>
      </trkpt>
      <trkpt lat="48.43022" lon="-4.30698">
        <ele>37.724159677901</ele>
        <time>2022-09-18T16:24:34.534Z</time>
      </trkpt>
      <trkpt lat="48.4301" lon="-4.30695">
        <ele>37.277434020392</ele>
        <time>2022-09-18T16:24:42.316Z</time>
      </trkpt>
      <trkpt lat="48.43005" lon="-4.30692">
        <ele>36.84667948696</ele>
        <time>2022-09-18T16:24:50.098Z</time>
      </trkpt>
      <trkpt lat="48.42994" lon="-4.30684">
        <ele>36.335685467682</ele>
        <time>2022-09-18T16:24:57.882Z</time>
      </trkpt>
      <trkpt lat="48.42968" lon="-4.30659">
        <ele>35.678377149347</ele>
        <time>2022-09-18T16:25:05.671Z</time>
      </trkpt>
      <trkpt lat="48.42939" lon="-4.30638">
        <ele>35.130841961519</ele>
        <time>2022-09-18T16:25:13.465Z</time>
      </trkpt>
      <trkpt lat="48.42932" lon="-4.30638">
        <ele>34.679824555947</ele>
        <time>2022-09-18T16:25:21.261Z</time>
      </trkpt>
      <trkpt lat="48.42914" lon="-4.30645">
        <ele>34.213549608202</ele>
        <time>2022-09-18T16:25:29.060Z</time>
      </trkpt>
      <trkpt lat="48.42899" lon="-4.3066">
        <ele>33.767975010397</ele>
        <time>2022-09-18T16:25:36.861Z</time>
      </trkpt>
      <trkpt lat="48.42873" lon="-4.30699">
        <ele>33.380923437992</ele>
        <time>2022-09-18T16:25:44.668Z</time>
      </trkpt>
      <trkpt lat="48.42858" lon="-4.30726">
        <ele>32.954617879115</ele>
        <time>2022-09-18T16:25:52.479Z</time>
      </trkpt>
      <trkpt lat="48.42817" lon="-4.3079">
        <ele>32.479337463996</ele>
        <time>2022-09-18T16:26:00.300Z</time>
      </trkpt>
      <trkpt lat="48.42792" lon="-4.30839">
        <ele>32.237629007899</ele>
        <time>2022-09-18T16:26:08.127Z</time>
      </trkpt>
      <trkpt lat="48.42781" lon="-4.30864">
        <ele>31.963568985073</ele>
        <time>2022-09-18T16:26:15.957Z</time>
      </trkpt>
      <trkpt lat="48.42775" lon="-4.30882">
        <ele>31.75766723674</ele>
        <time>2022-09-18T16:26:23.789Z</time>
      </trkpt>
      <trkpt lat="48.42723" lon="-4.31064">
        <ele>31.222927088803</ele>
        <time>2022-09-18T16:26:31.643Z</time>
      </trkpt>
      <trkpt lat="48.42716" lon="-4.31099">
        <ele>31.142924370416</ele>
        <time>2022-09-18T16:26:39.500Z</time>
      </trkpt>
      <trkpt lat="48.42718" lon="-4.31117">
        <ele>31.128949276605</ele>
        <time>2022-09-18T16:26:47.359Z</time>
      </trkpt>
      <trkpt lat="48.42717" lon="-4.31123">
        <ele>31.107645068493</ele>
        <time>2022-09-18T16:26:55.219Z</time>
      </trkpt>
      <trkpt lat="48.42712" lon="-4.31133">
        <ele>31.117395421017</ele>
        <time>2022-09-18T16:27:03.080Z</time>
      </trkpt>
      <trkpt lat="48.42703" lon="-4.31143">
        <ele>31.133626559638</ele>
        <time>2022-09-18T16:27:10.943Z</time>
      </trkpt>
      <trkpt lat="48.42695" lon="-4.31155">
        <ele>31.195688580336</ele>
        <time>2022-09-18T16:27:18.808Z</time>
      </trkpt>
      <trkpt lat="48.42605" lon="-4.31305">
        <ele>31.141055175094</ele>
        <time>2022-09-18T16:27:26.694Z</time>
      </trkpt>
      <trkpt lat="48.42587" lon="-4.31343">
        <ele>31.238114035189</ele>
        <time>2022-09-18T16:27:34.585Z</time>
      </trkpt>
      <trkpt lat="48.42557" lon="-4.31413">
        <ele>31.636756319044</ele>
        <time>2022-09-18T16:27:42.485Z</time>
      </trkpt>
      <trkpt lat="48.42529" lon="-4.31488">
        <ele>31.988201205084</ele>
        <time>2022-09-18T16:27:50.394Z</time>
      </trkpt>
      <trkpt lat="48.42507" lon="-4.31523">
        <ele>32.118089316409</ele>
        <time>2022-09-18T16:27:58.309Z</time>
      </trkpt>
      <trkpt lat="48.42487" lon="-4.31551">
        <ele>32.077607528609</ele>
        <time>2022-09-18T16:28:06.228Z</time>
      </trkpt>
      <trkpt lat="48.42469" lon="-4.31582">
        <ele>32.061768713539</ele>
        <time>2022-09-18T16:28:14.151Z</time>
      </trkpt>
      <trkpt lat="48.42425" lon="-4.3165">
        <ele>31.802597814024</ele>
        <time>2022-09-18T16:28:22.084Z</time>
      </trkpt>
      <trkpt lat="48.42414" lon="-4.31663">
        <ele>31.609785969484</ele>
        <time>2022-09-18T16:28:30.020Z</time>
      </trkpt>
      <trkpt lat="48.42402" lon="-4.31673">
        <ele>31.452154731812</ele>
        <time>2022-09-18T16:28:37.958Z</time>
      </trkpt>
      <trkpt lat="48.42395" lon="-4.31686">
        <ele>31.243756278792</ele>
        <time>2022-09-18T16:28:45.898Z</time>
      </trkpt>
      <trkpt lat="48.42377" lon="-4.31745">
        <ele>30.949233409604</ele>
        <time>2022-09-18T16:28:53.845Z</time>
      </trkpt>
      <trkpt lat="48.42371" lon="-4.31775">
        <ele>30.630681424588</ele>
        <time>2022-09-18T16:29:01.795Z</time>
      </trkpt>
      <trkpt lat="48.4235" lon="-4.31949">
        <ele>30.299073751561</ele>
        <time>2022-09-18T16:29:09.764Z</time>
      </trkpt>
      <trkpt lat="48.42338" lon="-4.32028">
        <ele>29.805410049562</ele>
        <time>2022-09-18T16:29:17.741Z</time>
      </trkpt>
      <trkpt lat="48.42319" lon="-4.32106">
        <ele>29.356639772908</ele>
        <time>2022-09-18T16:29:25.727Z</time>
      </trkpt>
      <trkpt lat="48.42303" lon="-4.32162">
        <ele>28.981866862984</ele>
        <time>2022-09-18T16:29:33.720Z</time>
      </trkpt>
      <trkpt lat="48.42295" lon="-4.32183">
        <ele>28.635529674306</ele>
        <time>2022-09-18T16:29:41.715Z</time>
      </trkpt>
      <trkpt lat="48.42286" lon="-4.32201">
        <ele>28.241830298184</ele>
        <time>2022-09-18T16:29:49.713Z</time>
      </trkpt>
      <trkpt lat="48.42249" lon="-4.32261">
        <ele>27.730430891508</ele>
        <time>2022-09-18T16:29:57.720Z</time>
      </trkpt>
      <trkpt lat="48.42226" lon="-4.32294">
        <ele>27.346152423478</ele>
        <time>2022-09-18T16:30:05.732Z</time>
      </trkpt>
      <trkpt lat="48.42212" lon="-4.32323">
        <ele>27.019980802709</ele>
        <time>2022-09-18T16:30:13.747Z</time>
      </trkpt>
      <trkpt lat="48.42196" lon="-4.32339">
        <ele>26.578079792864</ele>
        <time>2022-09-18T16:30:21.765Z</time>
      </trkpt>
      <trkpt lat="48.42187" lon="-4.32354">
        <ele>26.110372586245</ele>
        <time>2022-09-18T16:30:29.786Z</time>
      </trkpt>
      <trkpt lat="48.42169" lon="-4.32394">
        <ele>25.692625823976</ele>
        <time>2022-09-18T16:30:37.812Z</time>
      </trkpt>
      <trkpt lat="48.42164" lon="-4.3241">
        <ele>25.231800868785</ele>
        <time>2022-09-18T16:30:45.840Z</time>
      </trkpt>
      <trkpt lat="48.4212" lon="-4.32516">
        <ele>24.951263533006</ele>
        <time>2022-09-18T16:30:53.881Z</time>
      </trkpt>
      <trkpt lat="48.42112" lon="-4.32545">
        <ele>24.391436919609</ele>
        <time>2022-09-18T16:31:01.925Z</time>
      </trkpt>
      <trkpt lat="48.42109" lon="-4.32562">
        <ele>23.844239642663</ele>
        <time>2022-09-18T16:31:09.971Z</time>
      </trkpt>
      <trkpt lat="48.42105" lon="-4.32602">
        <ele>23.332852749554</ele>
        <time>2022-09-18T16:31:18.022Z</time>
      </trkpt>
      <trkpt lat="48.42096" lon="-4.32628">
        <ele>22.667933010826</ele>
        <time>2022-09-18T16:31:26.076Z</time>
      </trkpt>
      <trkpt lat="48.42088" lon="-4.32665">
        <ele>22.017983573296</ele>
        <time>2022-09-18T16:31:34.134Z</time>
      </trkpt>
      <trkpt lat="48.42048" lon="-4.32769">
        <ele>21.221999604482</ele>
        <time>2022-09-18T16:31:42.205Z</time>
      </trkpt>
      <trkpt lat="48.4199" lon="-4.32979">
        <ele>20.237927362927</ele>
        <time>2022-09-18T16:31:50.300Z</time>
      </trkpt>
      <trkpt lat="48.4198" lon="-4.33023">
        <ele>19.61355698354</ele>
        <time>2022-09-18T16:31:58.400Z</time>
      </trkpt>
      <trkpt lat="48.41966" lon="-4.33121">
        <ele>19.083747962676</ele>
        <time>2022-09-18T16:32:06.510Z</time>
      </trkpt>
      <trkpt lat="48.41965" lon="-4.33187">
        <ele>18.884461086083</ele>
        <time>2022-09-18T16:32:14.627Z</time>
      </trkpt>
      <trkpt lat="48.41969" lon="-4.33252">
        <ele>18.781929835432</ele>
        <time>2022-09-18T16:32:22.751Z</time>
      </trkpt>
      <trkpt lat="48.41967" lon="-4.33295">
        <ele>18.713520062599</ele>
        <time>2022-09-18T16:32:30.880Z</time>
      </trkpt>
      <trkpt lat="48.41965" lon="-4.33308">
        <ele>18.87247984356</ele>
        <time>2022-09-18T16:32:39.010Z</time>
      </trkpt>
      <trkpt lat="48.41939" lon="-4.33366">
        <ele>19.29493040554</ele>
        <time>2022-09-18T16:32:47.148Z</time>
      </trkpt>
      <trkpt lat="48.41933" lon="-4.33396">
        <ele>19.847085248196</ele>
        <time>2022-09-18T16:32:55.289Z</time>
      </trkpt>
      <trkpt lat="48.41936" lon="-4.33472">
        <ele>20.627487347162</ele>
        <time>2022-09-18T16:33:03.438Z</time>
      </trkpt>
      <trkpt lat="48.41945" lon="-4.33526">
        <ele>21.384165944895</ele>
        <time>2022-09-18T16:33:11.593Z</time>
      </trkpt>
      <trkpt lat="48.41948" lon="-4.33573">
        <ele>22.422176501768</ele>
        <time>2022-09-18T16:33:19.753Z</time>
      </trkpt>
      <trkpt lat="48.41956" lon="-4.33622">
        <ele>23.558062465088</ele>
        <time>2022-09-18T16:33:27.919Z</time>
      </trkpt>
      <trkpt lat="48.41962" lon="-4.33644">
        <ele>24.591812686006</ele>
        <time>2022-09-18T16:33:36.087Z</time>
      </trkpt>
      <trkpt lat="48.41965" lon="-4.33662">
        <ele>25.807441082286</ele>
        <time>2022-09-18T16:33:44.257Z</time>
      </trkpt>
      <trkpt lat="48.41966" lon="-4.33691">
        <ele>27.136372580219</ele>
        <time>2022-09-18T16:33:52.430Z</time>
      </trkpt>
      <trkpt lat="48.41965" lon="-4.33709">
        <ele>28.334938934116</ele>
        <time>2022-09-18T16:34:00.605Z</time>
      </trkpt>
      <trkpt lat="48.41967" lon="-4.33718">
        <ele>29.459411146072</ele>
        <time>2022-09-18T16:34:08.781Z</time>
      </trkpt>
      <trkpt lat="48.41967" lon="-4.33736">
        <ele>30.592935140832</ele>
        <time>2022-09-18T16:34:16.959Z</time>
      </trkpt>
      <trkpt lat="48.41963" lon="-4.33769">
        <ele>31.651361358589</ele>
        <time>2022-09-18T16:34:25.141Z</time>
      </trkpt>
      <trkpt lat="48.41955" lon="-4.33788">
        <ele>32.536531796407</ele>
        <time>2022-09-18T16:34:33.325Z</time>
      </trkpt>
      <trkpt lat="48.41954" lon="-4.33799">
        <ele>33.381319698203</ele>
        <time>2022-09-18T16:34:41.510Z</time>
      </trkpt>
      <trkpt lat="48.41947" lon="-4.33819">
        <ele>34.087250710771</ele>
        <time>2022-09-18T16:34:49.698Z</time>
      </trkpt>
      <trkpt lat="48.41946" lon="-4.33829">
        <ele>34.757683077352</ele>
        <time>2022-09-18T16:34:57.887Z</time>
      </trkpt>
      <trkpt lat="48.41939" lon="-4.33845">
        <ele>35.292247655807</ele>
        <time>2022-09-18T16:35:06.078Z</time>
      </trkpt>
      <trkpt lat="48.41928" lon="-4.33863">
        <ele>35.766475015571</ele>
        <time>2022-09-18T16:35:14.271Z</time>
      </trkpt>
      <trkpt lat="48.41905" lon="-4.33928">
        <ele>36.124434447221</ele>
        <time>2022-09-18T16:35:22.472Z</time>
      </trkpt>
      <trkpt lat="48.41892" lon="-4.33957">
        <ele>36.541160020058</ele>
        <time>2022-09-18T16:35:30.677Z</time>
      </trkpt>
      <trkpt lat="48.41884" lon="-4.33971">
        <ele>36.925133894793</ele>
        <time>2022-09-18T16:35:38.884Z</time>
      </trkpt>
      <trkpt lat="48.41871" lon="-4.34007">
        <ele>37.273686673025</ele>
        <time>2022-09-18T16:35:47.095Z</time>
      </trkpt>
      <trkpt lat="48.41859" lon="-4.34058">
        <ele>37.561588169405</ele>
        <time>2022-09-18T16:35:55.312Z</time>
      </trkpt>
      <trkpt lat="48.41853" lon="-4.341">
        <ele>37.878185365409</ele>
        <time>2022-09-18T16:36:03.534Z</time>
      </trkpt>
      <trkpt lat="48.41843" lon="-4.34136">
        <ele>38.124500084184</ele>
        <time>2022-09-18T16:36:11.760Z</time>
      </trkpt>
      <trkpt lat="48.41775" lon="-4.34339">
        <ele>38.418783682625</ele>
        <time>2022-09-18T16:36:20.010Z</time>
      </trkpt>
      <trkpt lat="48.41676" lon="-4.34617">
        <ele>38.868579903521</ele>
        <time>2022-09-18T16:36:28.294Z</time>
      </trkpt>
      <trkpt lat="48.41653" lon="-4.3467">
        <ele>39.124273677809</ele>
        <time>2022-09-18T16:36:36.584Z</time>
      </trkpt>
      <trkpt lat="48.41638" lon="-4.34698">
        <ele>39.221483767278</ele>
        <time>2022-09-18T16:36:44.878Z</time>
      </trkpt>
      <trkpt lat="48.41587" lon="-4.34785">
        <ele>39.113948973468</ele>
        <time>2022-09-18T16:36:53.185Z</time>
      </trkpt>
      <trkpt lat="48.41578" lon="-4.34797">
        <ele>38.925828760116</ele>
        <time>2022-09-18T16:37:01.494Z</time>
      </trkpt>
      <trkpt lat="48.41546" lon="-4.34851">
        <ele>38.563053180818</ele>
        <time>2022-09-18T16:37:09.810Z</time>
      </trkpt>
      <trkpt lat="48.4154" lon="-4.34864">
        <ele>38.199404370702</ele>
        <time>2022-09-18T16:37:18.128Z</time>
      </trkpt>
      <trkpt lat="48.41534" lon="-4.34887">
        <ele>37.770313953595</ele>
        <time>2022-09-18T16:37:26.449Z</time>
      </trkpt>
      <trkpt lat="48.41514" lon="-4.34906">
        <ele>37.223507502483</ele>
        <time>2022-09-18T16:37:34.773Z</time>
      </trkpt>
      <trkpt lat="48.41504" lon="-4.34921">
        <ele>36.642249631849</ele>
        <time>2022-09-18T16:37:43.100Z</time>
      </trkpt>
      <trkpt lat="48.41487" lon="-4.34957">
        <ele>35.998605922467</ele>
        <time>2022-09-18T16:37:51.431Z</time>
      </trkpt>
      <trkpt lat="48.4148" lon="-4.34977">
        <ele>35.348360100602</ele>
        <time>2022-09-18T16:37:59.765Z</time>
      </trkpt>
      <trkpt lat="48.41454" lon="-4.35123">
        <ele>34.496605239119</ele>
        <time>2022-09-18T16:38:08.115Z</time>
      </trkpt>
      <trkpt lat="48.41407" lon="-4.35342">
        <ele>33.309406481943</ele>
        <time>2022-09-18T16:38:16.489Z</time>
      </trkpt>
      <trkpt lat="48.41401" lon="-4.35396">
        <ele>32.606962916497</ele>
        <time>2022-09-18T16:38:24.869Z</time>
      </trkpt>
      <trkpt lat="48.41401" lon="-4.35473">
        <ele>31.981180969285</ele>
        <time>2022-09-18T16:38:33.257Z</time>
      </trkpt>
      <trkpt lat="48.41399" lon="-4.3552">
        <ele>31.662297398536</ele>
        <time>2022-09-18T16:38:41.650Z</time>
      </trkpt>
      <trkpt lat="48.41383" lon="-4.35609">
        <ele>31.60965508908</ele>
        <time>2022-09-18T16:38:50.053Z</time>
      </trkpt>
      <trkpt lat="48.4137" lon="-4.3569">
        <ele>31.408690723532</ele>
        <time>2022-09-18T16:38:58.465Z</time>
      </trkpt>
      <trkpt lat="48.41364" lon="-4.35738">
        <ele>31.111128872458</ele>
        <time>2022-09-18T16:39:06.882Z</time>
      </trkpt>
      <trkpt lat="48.41357" lon="-4.35769">
        <ele>30.892224668384</ele>
        <time>2022-09-18T16:39:15.303Z</time>
      </trkpt>
      <trkpt lat="48.41353" lon="-4.35799">
        <ele>30.714934641986</ele>
        <time>2022-09-18T16:39:23.727Z</time>
      </trkpt>
      <trkpt lat="48.41348" lon="-4.35822">
        <ele>30.608346147186</ele>
        <time>2022-09-18T16:39:32.154Z</time>
      </trkpt>
      <trkpt lat="48.41322" lon="-4.35889">
        <ele>30.476135184134</ele>
        <time>2022-09-18T16:39:40.589Z</time>
      </trkpt>
      <trkpt lat="48.4131" lon="-4.35928">
        <ele>30.415582190347</ele>
        <time>2022-09-18T16:39:49.029Z</time>
      </trkpt>
      <trkpt lat="48.41303" lon="-4.35972">
        <ele>30.410857400977</ele>
        <time>2022-09-18T16:39:57.473Z</time>
      </trkpt>
      <trkpt lat="48.41299" lon="-4.36036">
        <ele>30.523943965629</ele>
        <time>2022-09-18T16:40:05.924Z</time>
      </trkpt>
      <trkpt lat="48.41291" lon="-4.36108">
        <ele>30.578703795599</ele>
        <time>2022-09-18T16:40:14.383Z</time>
      </trkpt>
      <trkpt lat="48.4127" lon="-4.36198">
        <ele>30.917949522584</ele>
        <time>2022-09-18T16:40:22.852Z</time>
      </trkpt>
      <trkpt lat="48.41237" lon="-4.36315">
        <ele>31.7715408085</ele>
        <time>2022-09-18T16:40:31.335Z</time>
      </trkpt>
      <trkpt lat="48.41233" lon="-4.36347">
        <ele>32.4330831434</ele>
        <time>2022-09-18T16:40:39.821Z</time>
      </trkpt>
      <trkpt lat="48.41229" lon="-4.36435">
        <ele>33.251041499581</ele>
        <time>2022-09-18T16:40:48.317Z</time>
      </trkpt>
      <trkpt lat="48.41229" lon="-4.3649">
        <ele>34.004667307667</ele>
        <time>2022-09-18T16:40:56.818Z</time>
      </trkpt>
      <trkpt lat="48.41226" lon="-4.36584">
        <ele>34.645049205982</ele>
        <time>2022-09-18T16:41:05.329Z</time>
      </trkpt>
      <trkpt lat="48.41223" lon="-4.36622">
        <ele>35.29975806629</ele>
        <time>2022-09-18T16:41:13.845Z</time>
      </trkpt>
      <trkpt lat="48.41217" lon="-4.36767">
        <ele>35.789883355373</ele>
        <time>2022-09-18T16:41:22.376Z</time>
      </trkpt>
      <trkpt lat="48.41208" lon="-4.36855">
        <ele>36.495052896393</ele>
        <time>2022-09-18T16:41:30.917Z</time>
      </trkpt>
      <trkpt lat="48.4119" lon="-4.36938">
        <ele>37.520497676022</ele>
        <time>2022-09-18T16:41:39.467Z</time>
      </trkpt>
      <trkpt lat="48.41186" lon="-4.36964">
        <ele>38.088859782382</ele>
        <time>2022-09-18T16:41:48.020Z</time>
      </trkpt>
      <trkpt lat="48.41172" lon="-4.37106">
        <ele>38.86615194491</ele>
        <time>2022-09-18T16:41:56.588Z</time>
      </trkpt>
      <trkpt lat="48.41172" lon="-4.37123">
        <ele>39.235634660541</ele>
        <time>2022-09-18T16:42:05.158Z</time>
      </trkpt>
      <trkpt lat="48.41169" lon="-4.37149">
        <ele>39.451035336446</ele>
        <time>2022-09-18T16:42:13.731Z</time>
      </trkpt>
      <trkpt lat="48.41165" lon="-4.37217">
        <ele>39.523696869352</ele>
        <time>2022-09-18T16:42:22.311Z</time>
      </trkpt>
      <trkpt lat="48.41156" lon="-4.3732">
        <ele>39.520129110766</ele>
        <time>2022-09-18T16:42:30.902Z</time>
      </trkpt>
      <trkpt lat="48.41151" lon="-4.37413">
        <ele>39.459260915655</ele>
        <time>2022-09-18T16:42:39.503Z</time>
      </trkpt>
      <trkpt lat="48.41151" lon="-4.37487">
        <ele>39.218979911928</ele>
        <time>2022-09-18T16:42:48.112Z</time>
      </trkpt>
      <trkpt lat="48.41143" lon="-4.37625">
        <ele>38.461707359312</ele>
        <time>2022-09-18T16:42:56.736Z</time>
      </trkpt>
      <trkpt lat="48.41133" lon="-4.37691">
        <ele>37.724105724062</ele>
        <time>2022-09-18T16:43:05.367Z</time>
      </trkpt>
      <trkpt lat="48.41114" lon="-4.37764">
        <ele>36.805524748064</ele>
        <time>2022-09-18T16:43:14.006Z</time>
      </trkpt>
      <trkpt lat="48.41107" lon="-4.37807">
        <ele>35.881984469692</ele>
        <time>2022-09-18T16:43:22.650Z</time>
      </trkpt>
      <trkpt lat="48.41106" lon="-4.37855">
        <ele>34.828959364653</ele>
        <time>2022-09-18T16:43:31.299Z</time>
      </trkpt>
      <trkpt lat="48.41113" lon="-4.37974">
        <ele>33.837301161489</ele>
        <time>2022-09-18T16:43:39.961Z</time>
      </trkpt>
      <trkpt lat="48.41109" lon="-4.38022">
        <ele>32.847409844632</ele>
        <time>2022-09-18T16:43:48.628Z</time>
      </trkpt>
      <trkpt lat="48.41092" lon="-4.38141">
        <ele>31.827168192182</ele>
        <time>2022-09-18T16:43:57.308Z</time>
      </trkpt>
      <trkpt lat="48.41079" lon="-4.38256">
        <ele>30.810717873174</ele>
        <time>2022-09-18T16:44:06.000Z</time>
      </trkpt>
      <trkpt lat="48.41077" lon="-4.38289">
        <ele>29.677153211717</ele>
        <time>2022-09-18T16:44:14.696Z</time>
      </trkpt>
      <trkpt lat="48.41082" lon="-4.38322">
        <ele>28.443606603754</ele>
        <time>2022-09-18T16:44:23.395Z</time>
      </trkpt>
      <trkpt lat="48.41092" lon="-4.38354">
        <ele>27.244607119171</ele>
        <time>2022-09-18T16:44:32.098Z</time>
      </trkpt>
      <trkpt lat="48.41102" lon="-4.38372">
        <ele>26.052596058266</ele>
        <time>2022-09-18T16:44:40.804Z</time>
      </trkpt>
      <trkpt lat="48.41119" lon="-4.38396">
        <ele>24.828371488324</ele>
        <time>2022-09-18T16:44:49.513Z</time>
      </trkpt>
      <trkpt lat="48.41125" lon="-4.38402">
        <ele>23.738835516028</ele>
        <time>2022-09-18T16:44:58.224Z</time>
      </trkpt>
      <trkpt lat="48.41139" lon="-4.3841">
        <ele>22.724914392785</ele>
        <time>2022-09-18T16:45:06.937Z</time>
      </trkpt>
      <trkpt lat="48.41207" lon="-4.38441">
        <ele>21.982019893978</ele>
        <time>2022-09-18T16:45:15.661Z</time>
      </trkpt>
      <trkpt lat="48.41237" lon="-4.3846">
        <ele>21.148917013358</ele>
        <time>2022-09-18T16:45:24.391Z</time>
      </trkpt>
      <trkpt lat="48.41278" lon="-4.38494">
        <ele>20.297401000692</ele>
        <time>2022-09-18T16:45:33.128Z</time>
      </trkpt>
      <trkpt lat="48.41313" lon="-4.38529">
        <ele>19.234077721922</ele>
        <time>2022-09-18T16:45:41.872Z</time>
      </trkpt>
      <trkpt lat="48.41367" lon="-4.38591">
        <ele>17.851533613669</ele>
        <time>2022-09-18T16:45:50.627Z</time>
      </trkpt>
      <trkpt lat="48.41407" lon="-4.38643">
        <ele>17.096921275056</ele>
        <time>2022-09-18T16:45:59.390Z</time>
      </trkpt>
      <trkpt lat="48.41422" lon="-4.3866">
        <ele>16.51858505261</ele>
        <time>2022-09-18T16:46:08.156Z</time>
      </trkpt>
      <trkpt lat="48.41439" lon="-4.38676">
        <ele>16.196531460353</ele>
        <time>2022-09-18T16:46:16.925Z</time>
      </trkpt>
      <trkpt lat="48.41477" lon="-4.38721">
        <ele>15.68246024835</ele>
        <time>2022-09-18T16:46:25.702Z</time>
      </trkpt>
      <trkpt lat="48.41486" lon="-4.38744">
        <ele>15.544622824106</ele>
        <time>2022-09-18T16:46:34.482Z</time>
      </trkpt>
      <trkpt lat="48.41488" lon="-4.38756">
        <ele>15.699880347729</ele>
        <time>2022-09-18T16:46:43.263Z</time>
      </trkpt>
      <trkpt lat="48.41486" lon="-4.38786">
        <ele>16.166136060931</ele>
        <time>2022-09-18T16:46:52.048Z</time>
      </trkpt>
      <trkpt lat="48.41485" lon="-4.38788">
        <ele>16.641431390567</ele>
        <time>2022-09-18T16:47:00.833Z</time>
      </trkpt>
      <trkpt lat="48.41482" lon="-4.38789">
        <ele>17.277274060645</ele>
        <time>2022-09-18T16:47:09.618Z</time>
      </trkpt>
      <trkpt lat="48.4147" lon="-4.38789">
        <ele>18.082988411824</ele>
        <time>2022-09-18T16:47:18.405Z</time>
      </trkpt>
      <trkpt lat="48.4146" lon="-4.38787">
        <ele>19.143468730541</ele>
        <time>2022-09-18T16:47:27.194Z</time>
      </trkpt>
      <trkpt lat="48.41441" lon="-4.3878">
        <ele>20.276761187934</ele>
        <time>2022-09-18T16:47:35.986Z</time>
      </trkpt>
      <trkpt lat="48.41415" lon="-4.38767">
        <ele>21.648455045988</ele>
        <time>2022-09-18T16:47:44.782Z</time>
      </trkpt>
      <trkpt lat="48.41411" lon="-4.38763">
        <ele>22.644710453043</ele>
        <time>2022-09-18T16:47:53.579Z</time>
      </trkpt>
      <trkpt lat="48.4139" lon="-4.3875">
        <ele>23.736339916502</ele>
        <time>2022-09-18T16:48:02.380Z</time>
      </trkpt>
      <trkpt lat="48.41378" lon="-4.38746">
        <ele>24.868731570191</ele>
        <time>2022-09-18T16:48:11.183Z</time>
      </trkpt>
      <trkpt lat="48.41361" lon="-4.38732">
        <ele>25.842205854254</ele>
        <time>2022-09-18T16:48:19.989Z</time>
      </trkpt>
      <trkpt lat="48.41339" lon="-4.38708">
        <ele>26.645663765529</ele>
        <time>2022-09-18T16:48:28.799Z</time>
      </trkpt>
      <trkpt lat="48.41322" lon="-4.38696">
        <ele>27.473487817477</ele>
        <time>2022-09-18T16:48:37.612Z</time>
      </trkpt>
      <trkpt lat="48.41284" lon="-4.38677">
        <ele>28.441358418246</ele>
        <time>2022-09-18T16:48:46.432Z</time>
      </trkpt>
      <trkpt lat="48.41265" lon="-4.38672">
        <ele>29.333863317302</ele>
        <time>2022-09-18T16:48:55.255Z</time>
      </trkpt>
      <trkpt lat="48.41251" lon="-4.38666">
        <ele>30.219666253722</ele>
        <time>2022-09-18T16:49:04.080Z</time>
      </trkpt>
      <trkpt lat="48.41219" lon="-4.38656">
        <ele>30.974407077533</ele>
        <time>2022-09-18T16:49:12.910Z</time>
      </trkpt>
      <trkpt lat="48.41203" lon="-4.38654">
        <ele>31.578281946406</ele>
        <time>2022-09-18T16:49:21.743Z</time>
      </trkpt>
      <trkpt lat="48.41189" lon="-4.38655">
        <ele>32.051221762935</ele>
        <time>2022-09-18T16:49:30.578Z</time>
      </trkpt>
      <trkpt lat="48.41167" lon="-4.38652">
        <ele>32.273296847438</ele>
        <time>2022-09-18T16:49:39.417Z</time>
      </trkpt>
      <trkpt lat="48.41154" lon="-4.38658">
        <ele>32.548465512687</ele>
        <time>2022-09-18T16:49:48.258Z</time>
      </trkpt>
      <trkpt lat="48.4111" lon="-4.38667">
        <ele>32.697526607925</ele>
        <time>2022-09-18T16:49:57.106Z</time>
      </trkpt>
      <trkpt lat="48.41089" lon="-4.38673">
        <ele>32.750926094232</ele>
        <time>2022-09-18T16:50:05.957Z</time>
      </trkpt>
      <trkpt lat="48.4105" lon="-4.38674">
        <ele>32.694495830499</ele>
        <time>2022-09-18T16:50:14.815Z</time>
      </trkpt>
      <trkpt lat="48.41037" lon="-4.38673">
        <ele>32.416216025459</ele>
        <time>2022-09-18T16:50:23.675Z</time>
      </trkpt>
      <trkpt lat="48.41025" lon="-4.3867">
        <ele>31.983030146187</ele>
        <time>2022-09-18T16:50:32.537Z</time>
      </trkpt>
      <trkpt lat="48.41015" lon="-4.38665">
        <ele>31.427735215614</ele>
        <time>2022-09-18T16:50:41.400Z</time>
      </trkpt>
      <trkpt lat="48.41005" lon="-4.38665">
        <ele>30.873179037326</ele>
        <time>2022-09-18T16:50:50.265Z</time>
      </trkpt>
      <trkpt lat="48.40999" lon="-4.38663">
        <ele>30.18025889073</ele>
        <time>2022-09-18T16:50:59.131Z</time>
      </trkpt>
      <trkpt lat="48.40987" lon="-4.38658">
        <ele>29.304901319868</ele>
        <time>2022-09-18T16:51:07.999Z</time>
      </trkpt>
      <trkpt lat="48.40974" lon="-4.38649">
        <ele>28.36227601678</ele>
        <time>2022-09-18T16:51:16.869Z</time>
      </trkpt>
      <trkpt lat="48.40967" lon="-4.38646">
        <ele>27.499846196605</ele>
        <time>2022-09-18T16:51:25.740Z</time>
      </trkpt>
      <trkpt lat="48.40952" lon="-4.38646">
        <ele>26.58099544421</ele>
        <time>2022-09-18T16:51:34.614Z</time>
      </trkpt>
      <trkpt lat="48.4093" lon="-4.38656">
        <ele>25.710985228668</ele>
        <time>2022-09-18T16:51:43.491Z</time>
      </trkpt>
      <trkpt lat="48.4092" lon="-4.38665">
        <ele>24.939497812784</ele>
        <time>2022-09-18T16:51:52.370Z</time>
      </trkpt>
      <trkpt lat="48.40866" lon="-4.38742">
        <ele>24.082467457127</ele>
        <time>2022-09-18T16:52:01.261Z</time>
      </trkpt>
      <trkpt lat="48.40748" lon="-4.38889">
        <ele>23.35464386236</ele>
        <time>2022-09-18T16:52:10.177Z</time>
      </trkpt>
      <trkpt lat="48.40731" lon="-4.38904">
        <ele>22.918418585612</ele>
        <time>2022-09-18T16:52:19.096Z</time>
      </trkpt>
      <trkpt lat="48.40715" lon="-4.38908">
        <ele>22.527728467902</ele>
        <time>2022-09-18T16:52:28.017Z</time>
      </trkpt>
      <trkpt lat="48.40702" lon="-4.38905">
        <ele>22.233948016079</ele>
        <time>2022-09-18T16:52:36.941Z</time>
      </trkpt>
      <trkpt lat="48.40696" lon="-4.38902">
        <ele>22.07626812576</ele>
        <time>2022-09-18T16:52:45.866Z</time>
      </trkpt>
      <trkpt lat="48.40631" lon="-4.38858">
        <ele>22.076746316151</ele>
        <time>2022-09-18T16:52:54.802Z</time>
      </trkpt>
      <trkpt lat="48.40565" lon="-4.38805">
        <ele>22.134316604296</ele>
        <time>2022-09-18T16:53:03.750Z</time>
      </trkpt>
      <trkpt lat="48.40518" lon="-4.38778">
        <ele>22.364674108296</ele>
        <time>2022-09-18T16:53:12.706Z</time>
      </trkpt>
      <trkpt lat="48.40502" lon="-4.38766">
        <ele>22.540805362427</ele>
        <time>2022-09-18T16:53:21.665Z</time>
      </trkpt>
      <trkpt lat="48.40491" lon="-4.38762">
        <ele>22.750457621473</ele>
        <time>2022-09-18T16:53:30.626Z</time>
      </trkpt>
      <trkpt lat="48.40446" lon="-4.38733">
        <ele>23.047202112319</ele>
        <time>2022-09-18T16:53:39.595Z</time>
      </trkpt>
      <trkpt lat="48.40416" lon="-4.38721">
        <ele>23.302927160126</ele>
        <time>2022-09-18T16:53:48.569Z</time>
      </trkpt>
      <trkpt lat="48.40402" lon="-4.38719">
        <ele>23.511807487547</ele>
        <time>2022-09-18T16:53:57.545Z</time>
      </trkpt>
      <trkpt lat="48.40385" lon="-4.38714">
        <ele>23.724971838264</ele>
        <time>2022-09-18T16:54:06.524Z</time>
      </trkpt>
      <trkpt lat="48.40381" lon="-4.38715">
        <ele>23.975958542289</ele>
        <time>2022-09-18T16:54:15.503Z</time>
      </trkpt>
      <trkpt lat="48.40375" lon="-4.38717">
        <ele>24.247588477818</ele>
        <time>2022-09-18T16:54:24.483Z</time>
      </trkpt>
      <trkpt lat="48.4037" lon="-4.38722">
        <ele>24.553382889522</ele>
        <time>2022-09-18T16:54:33.464Z</time>
      </trkpt>
      <trkpt lat="48.40367" lon="-4.38729">
        <ele>24.882029826807</ele>
        <time>2022-09-18T16:54:42.446Z</time>
      </trkpt>
      <trkpt lat="48.40335" lon="-4.38862">
        <ele>25.174384681692</ele>
        <time>2022-09-18T16:54:51.443Z</time>
      </trkpt>
      <trkpt lat="48.40316" lon="-4.38934">
        <ele>25.580375265617</ele>
        <time>2022-09-18T16:55:00.448Z</time>
      </trkpt>
      <trkpt lat="48.40311" lon="-4.38949">
        <ele>25.839404596456</ele>
        <time>2022-09-18T16:55:09.455Z</time>
      </trkpt>
      <trkpt lat="48.40265" lon="-4.39055">
        <ele>26.137258924528</ele>
        <time>2022-09-18T16:55:18.476Z</time>
      </trkpt>
      <trkpt lat="48.40246" lon="-4.39105">
        <ele>26.201792960229</ele>
        <time>2022-09-18T16:55:27.503Z</time>
      </trkpt>
      <trkpt lat="48.40224" lon="-4.39185">
        <ele>25.702807583726</ele>
        <time>2022-09-18T16:55:36.539Z</time>
      </trkpt>
      <trkpt lat="48.40217" lon="-4.3919">
        <ele>25.799069412559</ele>
        <time>2022-09-18T16:55:45.576Z</time>
      </trkpt>
      <trkpt lat="48.40211" lon="-4.39189">
        <ele>26.019023786271</ele>
        <time>2022-09-18T16:55:54.614Z</time>
      </trkpt>
      <trkpt lat="48.40146" lon="-4.39171">
        <ele>26.460916948949</ele>
        <time>2022-09-18T16:56:03.663Z</time>
        <extensions>
          <visugpx:TrkExtension xmlns:visugpx="https://www.visugpx.com/editgpx/">
            <visugpx:node>1</visugpx:node>
            </visugpx:TrkExtension>
        </extensions>
      </trkpt>
      <trkpt lat="48.40096" lon="-4.3915">
        <ele>26.455294948631</ele>
        <time>2022-09-18T15:11:24.008Z</time>
      </trkpt>
      <trkpt lat="48.40085" lon="-4.39147">
        <ele>26.198827906277</ele>
        <time>2022-09-18T15:11:24.018Z</time>
      </trkpt>
      <trkpt lat="48.4004" lon="-4.39126">
        <ele>25.813168450522</ele>
        <time>2022-09-18T15:11:24.036Z</time>
      </trkpt>
      <trkpt lat="48.40027" lon="-4.39115">
        <ele>25.163182211742</ele>
        <time>2022-09-18T15:11:24.056Z</time>
      </trkpt>
      <trkpt lat="48.40014" lon="-4.39107">
        <ele>24.260016424677</ele>
        <time>2022-09-18T15:11:24.078Z</time>
      </trkpt>
      <trkpt lat="48.39965" lon="-4.3907">
        <ele>23.038350617211</ele>
        <time>2022-09-18T15:11:24.109Z</time>
      </trkpt>
      <trkpt lat="48.3994" lon="-4.39058">
        <ele>21.885624812136</ele>
        <time>2022-09-18T15:11:24.144Z</time>
      </trkpt>
      <trkpt lat="48.39899" lon="-4.39044">
        <ele>20.367597719498</ele>
        <time>2022-09-18T15:11:24.186Z</time>
      </trkpt>
      <trkpt lat="48.39877" lon="-4.3904">
        <ele>19.087777237549</ele>
        <time>2022-09-18T15:11:24.232Z</time>
      </trkpt>
      <trkpt lat="48.39862" lon="-4.3904">
        <ele>17.907632107899</ele>
        <time>2022-09-18T15:11:24.280Z</time>
      </trkpt>
      <trkpt lat="48.39849" lon="-4.39046">
        <ele>16.869665252747</ele>
        <time>2022-09-18T15:11:24.330Z</time>
      </trkpt>
      <trkpt lat="48.39833" lon="-4.39059">
        <ele>15.952492748269</ele>
        <time>2022-09-18T15:11:24.383Z</time>
      </trkpt>
      <trkpt lat="48.3982" lon="-4.39075">
        <ele>15.043762266258</ele>
        <time>2022-09-18T15:11:24.439Z</time>
      </trkpt>
      <trkpt lat="48.39803" lon="-4.39107">
        <ele>14.354582860348</ele>
        <time>2022-09-18T15:11:24.499Z</time>
      </trkpt>
      <trkpt lat="48.39793" lon="-4.39121">
        <ele>13.782218259895</ele>
        <time>2022-09-18T15:11:24.561Z</time>
      </trkpt>
      <trkpt lat="48.39782" lon="-4.39197">
        <ele>13.472691334615</ele>
        <time>2022-09-18T15:11:24.632Z</time>
      </trkpt>
      <trkpt lat="48.39753" lon="-4.39291">
        <ele>13.073515753578</ele>
        <time>2022-09-18T15:11:24.714Z</time>
      </trkpt>
      <trkpt lat="48.39734" lon="-4.39337">
        <ele>12.838611940419</ele>
        <time>2022-09-18T15:11:24.801Z</time>
      </trkpt>
      <trkpt lat="48.39717" lon="-4.39362">
        <ele>13.065245254033</ele>
        <time>2022-09-18T15:11:24.892Z</time>
      </trkpt>
      <trkpt lat="48.39693" lon="-4.39392">
        <ele>13.820612926693</ele>
        <time>2022-09-18T15:11:24.988Z</time>
      </trkpt>
      <trkpt lat="48.39637" lon="-4.39468">
        <ele>15.559865641986</ele>
        <time>2022-09-18T15:11:25.096Z</time>
      </trkpt>
      <trkpt lat="48.39621" lon="-4.39493">
        <ele>16.817727590401</ele>
        <time>2022-09-18T15:11:25.208Z</time>
      </trkpt>
      <trkpt lat="48.3961" lon="-4.39516">
        <ele>18.09061367295</ele>
        <time>2022-09-18T15:11:25.323Z</time>
      </trkpt>
      <trkpt lat="48.39604" lon="-4.39533">
        <ele>19.380120450549</ele>
        <time>2022-09-18T15:11:25.440Z</time>
      </trkpt>
      <trkpt lat="48.39596" lon="-4.39568">
        <ele>20.773853642608</ele>
        <time>2022-09-18T15:11:25.561Z</time>
      </trkpt>
      <trkpt lat="48.39589" lon="-4.3961">
        <ele>22.282589504541</ele>
        <time>2022-09-18T15:11:25.687Z</time>
      </trkpt>
      <trkpt lat="48.39572" lon="-4.39681">
        <ele>23.5248220281</ele>
        <time>2022-09-18T15:11:25.821Z</time>
      </trkpt>
      <trkpt lat="48.39565" lon="-4.39722">
        <ele>24.784661356287</ele>
        <time>2022-09-18T15:11:25.959Z</time>
      </trkpt>
      <trkpt lat="48.39557" lon="-4.39752">
        <ele>26.007399316094</ele>
        <time>2022-09-18T15:11:26.101Z</time>
      </trkpt>
      <trkpt lat="48.39549" lon="-4.39796">
        <ele>27.152806237848</ele>
        <time>2022-09-18T15:11:26.248Z</time>
      </trkpt>
      <trkpt lat="48.39536" lon="-4.39881">
        <ele>28.2075936806</ele>
        <time>2022-09-18T15:11:26.404Z</time>
      </trkpt>
      <trkpt lat="48.39534" lon="-4.39905">
        <ele>29.110450265477</ele>
        <time>2022-09-18T15:11:26.562Z</time>
      </trkpt>
      <trkpt lat="48.39534" lon="-4.39942">
        <ele>29.877729060075</ele>
        <time>2022-09-18T15:11:26.724Z</time>
      </trkpt>
      <trkpt lat="48.39544" lon="-4.39997">
        <ele>30.63588046684</ele>
        <time>2022-09-18T15:11:26.892Z</time>
      </trkpt>
      <trkpt lat="48.39583" lon="-4.401">
        <ele>31.368609747674</ele>
        <time>2022-09-18T15:11:27.073Z</time>
      </trkpt>
      <trkpt lat="48.39594" lon="-4.40139">
        <ele>31.951713834286</ele>
        <time>2022-09-18T15:11:27.259Z</time>
      </trkpt>
      <trkpt lat="48.39601" lon="-4.40186">
        <ele>32.448965316846</ele>
        <time>2022-09-18T15:11:27.450Z</time>
      </trkpt>
      <trkpt lat="48.39606" lon="-4.40256">
        <ele>32.953513941679</ele>
        <time>2022-09-18T15:11:27.648Z</time>
      </trkpt>
      <trkpt lat="48.39626" lon="-4.40357">
        <ele>33.418714549265</ele>
        <time>2022-09-18T15:11:27.857Z</time>
      </trkpt>
      <trkpt lat="48.39636" lon="-4.40392">
        <ele>33.824431290677</ele>
        <time>2022-09-18T15:11:28.070Z</time>
      </trkpt>
      <trkpt lat="48.39635" lon="-4.4041">
        <ele>34.240684423228</ele>
        <time>2022-09-18T15:11:28.285Z</time>
      </trkpt>
      <trkpt lat="48.39617" lon="-4.40484">
        <ele>34.515924355103</ele>
        <time>2022-09-18T15:11:28.509Z</time>
      </trkpt>
      <trkpt lat="48.39582" lon="-4.40593">
        <ele>34.773603448147</ele>
        <time>2022-09-18T15:11:28.746Z</time>
      </trkpt>
      <trkpt lat="48.39551" lon="-4.40704">
        <ele>34.842469814886</ele>
        <time>2022-09-18T15:11:28.996Z</time>
      </trkpt>
      <trkpt lat="48.39546" lon="-4.40731">
        <ele>34.834250784819</ele>
        <time>2022-09-18T15:11:29.249Z</time>
      </trkpt>
      <trkpt lat="48.39516" lon="-4.40843">
        <ele>34.925638259499</ele>
        <time>2022-09-18T15:11:29.514Z</time>
      </trkpt>
      <trkpt lat="48.39508" lon="-4.40864">
        <ele>34.71835842871</ele>
        <time>2022-09-18T15:11:29.782Z</time>
      </trkpt>
      <trkpt lat="48.395" lon="-4.40872">
        <ele>34.43135444189</ele>
        <time>2022-09-18T15:11:30.052Z</time>
      </trkpt>
      <trkpt lat="48.39495" lon="-4.40872">
        <ele>34.025093627528</ele>
        <time>2022-09-18T15:11:30.322Z</time>
      </trkpt>
      <trkpt lat="48.39486" lon="-4.40862">
        <ele>33.520466241171</ele>
        <time>2022-09-18T15:11:30.594Z</time>
      </trkpt>
      <trkpt lat="48.39477" lon="-4.4084">
        <ele>32.877629110541</ele>
        <time>2022-09-18T15:11:30.869Z</time>
      </trkpt>
      <trkpt lat="48.39464" lon="-4.40799">
        <ele>32.110696983163</ele>
        <time>2022-09-18T15:11:31.149Z</time>
      </trkpt>
      <trkpt lat="48.3945" lon="-4.40728">
        <ele>31.128526565036</ele>
        <time>2022-09-18T15:11:31.437Z</time>
      </trkpt>
      <trkpt lat="48.39415" lon="-4.40627">
        <ele>29.879039937895</ele>
        <time>2022-09-18T15:11:31.737Z</time>
      </trkpt>
      <trkpt lat="48.39392" lon="-4.40575">
        <ele>28.665362540241</ele>
        <time>2022-09-18T15:11:32.043Z</time>
      </trkpt>
      <trkpt lat="48.3937" lon="-4.40533">
        <ele>27.246830961865</ele>
        <time>2022-09-18T15:11:32.355Z</time>
      </trkpt>
      <trkpt lat="48.39353" lon="-4.40506">
        <ele>25.824506175044</ele>
        <time>2022-09-18T15:11:32.671Z</time>
      </trkpt>
      <trkpt lat="48.39312" lon="-4.4045">
        <ele>24.297859355846</ele>
        <time>2022-09-18T15:11:32.996Z</time>
      </trkpt>
      <trkpt lat="48.39281" lon="-4.40417">
        <ele>22.86703120971</ele>
        <time>2022-09-18T15:11:33.327Z</time>
      </trkpt>
      <trkpt lat="48.39258" lon="-4.40397">
        <ele>21.452203925731</ele>
        <time>2022-09-18T15:11:33.662Z</time>
      </trkpt>
      <trkpt lat="48.392" lon="-4.40353">
        <ele>20.163498587164</ele>
        <time>2022-09-18T15:11:34.008Z</time>
      </trkpt>
      <trkpt lat="48.39174" lon="-4.40332">
        <ele>19.040630486155</ele>
        <time>2022-09-18T15:11:34.358Z</time>
      </trkpt>
      <trkpt lat="48.39165" lon="-4.40322">
        <ele>17.955192964218</ele>
        <time>2022-09-18T15:11:34.710Z</time>
      </trkpt>
      <trkpt lat="48.39091" lon="-4.40265">
        <ele>16.936557868481</ele>
        <time>2022-09-18T15:11:35.076Z</time>
      </trkpt>
      <trkpt lat="48.39075" lon="-4.40248">
        <ele>15.949651392517</ele>
        <time>2022-09-18T15:11:35.445Z</time>
      </trkpt>
      <trkpt lat="48.3907" lon="-4.40245">
        <ele>15.197174003886</ele>
        <time>2022-09-18T15:11:35.815Z</time>
      </trkpt>
      <trkpt lat="48.39042" lon="-4.40219">
        <ele>14.431820733459</ele>
        <time>2022-09-18T15:11:36.190Z</time>
      </trkpt>
      <trkpt lat="48.38976" lon="-4.4017">
        <ele>13.168464185074</ele>
        <time>2022-09-18T15:11:36.577Z</time>
      </trkpt>
      <trkpt lat="48.38944" lon="-4.40141">
        <ele>12.798276192556</ele>
        <time>2022-09-18T15:11:36.970Z</time>
      </trkpt>
      <trkpt lat="48.38865" lon="-4.4008">
        <ele>13.097864327668</ele>
        <time>2022-09-18T15:11:37.377Z</time>
      </trkpt>
      <trkpt lat="48.38816" lon="-4.40037">
        <ele>13.778784094666</ele>
        <time>2022-09-18T15:11:37.793Z</time>
      </trkpt>
      <trkpt lat="48.38621" lon="-4.39881">
        <ele>14.814860210046</ele>
        <time>2022-09-18T15:11:38.244Z</time>
      </trkpt>
      <trkpt lat="48.38517" lon="-4.39796">
        <ele>16.191933739387</ele>
        <time>2022-09-18T15:11:38.714Z</time>
      </trkpt>
      <trkpt lat="48.38491" lon="-4.39773">
        <ele>18.516991983221</ele>
        <time>2022-09-18T15:11:39.189Z</time>
      </trkpt>
      <trkpt lat="48.38448" lon="-4.39741">
        <ele>21.319529063039</ele>
        <time>2022-09-18T15:11:39.672Z</time>
      </trkpt>
      <trkpt lat="48.38407" lon="-4.397">
        <ele>24.174724373737</ele>
        <time>2022-09-18T15:11:40.163Z</time>
      </trkpt>
      <trkpt lat="48.38381" lon="-4.39661">
        <ele>26.966492934942</ele>
        <time>2022-09-18T15:11:40.660Z</time>
      </trkpt>
      <trkpt lat="48.38359" lon="-4.39609">
        <ele>30.001313276134</ele>
        <time>2022-09-18T15:11:41.163Z</time>
      </trkpt>
      <trkpt lat="48.38352" lon="-4.39586">
        <ele>32.579418816625</ele>
        <time>2022-09-18T15:11:41.669Z</time>
      </trkpt>
      <trkpt lat="48.38348" lon="-4.39564">
        <ele>35.14485607338</ele>
        <time>2022-09-18T15:11:42.177Z</time>
      </trkpt>
      <trkpt lat="48.38347" lon="-4.39539">
        <ele>37.502947939303</ele>
        <time>2022-09-18T15:11:42.688Z</time>
      </trkpt>
      <trkpt lat="48.3835" lon="-4.39527">
        <ele>39.69042749132</ele>
        <time>2022-09-18T15:11:43.200Z</time>
      </trkpt>
      <trkpt lat="48.38362" lon="-4.39505">
        <ele>41.647348893273</ele>
        <time>2022-09-18T15:11:43.715Z</time>
      </trkpt>
      <trkpt lat="48.38363" lon="-4.39494">
        <ele>43.530190766853</ele>
        <time>2022-09-18T15:11:44.231Z</time>
      </trkpt>
      <trkpt lat="48.38361" lon="-4.3949">
        <ele>45.304687843048</ele>
        <time>2022-09-18T15:11:44.748Z</time>
      </trkpt>
      <trkpt lat="48.38349" lon="-4.39482">
        <ele>46.968792811851</ele>
        <time>2022-09-18T15:11:45.267Z</time>
      </trkpt>
      <trkpt lat="48.38343" lon="-4.39474">
        <ele>48.529442936489</ele>
        <time>2022-09-18T15:11:45.787Z</time>
      </trkpt>
      <trkpt lat="48.3834" lon="-4.39462">
        <ele>49.985380687506</ele>
        <time>2022-09-18T15:11:46.309Z</time>
      </trkpt>
      <trkpt lat="48.38339" lon="-4.39449">
        <ele>51.3764668856</ele>
        <time>2022-09-18T15:11:46.832Z</time>
      </trkpt>
      <trkpt lat="48.3834" lon="-4.39429">
        <ele>52.766394246711</ele>
        <time>2022-09-18T15:11:47.357Z</time>
      </trkpt>
      <trkpt lat="48.38349" lon="-4.39367">
        <ele>54.065943247177</ele>
        <time>2022-09-18T15:11:47.889Z</time>
      </trkpt>
      <trkpt lat="48.38352" lon="-4.39323">
        <ele>55.19017049218</ele>
        <time>2022-09-18T15:11:48.426Z</time>
      </trkpt>
      <trkpt lat="48.38353" lon="-4.39264">
        <ele>56.307543082498</ele>
        <time>2022-09-18T15:11:48.969Z</time>
      </trkpt>
      <trkpt lat="48.38362" lon="-4.39181">
        <ele>57.625358563358</ele>
        <time>2022-09-18T15:11:49.521Z</time>
      </trkpt>
      <trkpt lat="48.38364" lon="-4.39147">
        <ele>58.928920873421</ele>
        <time>2022-09-18T15:11:50.077Z</time>
      </trkpt>
      <trkpt lat="48.38365" lon="-4.39089">
        <ele>60.477929599933</ele>
        <time>2022-09-18T15:11:50.639Z</time>
      </trkpt>
      <trkpt lat="48.38363" lon="-4.39051">
        <ele>61.967287952341</ele>
        <time>2022-09-18T15:11:51.205Z</time>
      </trkpt>
      <trkpt lat="48.38361" lon="-4.39039">
        <ele>63.372835298348</ele>
        <time>2022-09-18T15:11:51.772Z</time>
      </trkpt>
      <trkpt lat="48.38359" lon="-4.38962">
        <ele>65.030688567649</ele>
        <time>2022-09-18T15:11:52.348Z</time>
      </trkpt>
      <trkpt lat="48.3836" lon="-4.38934">
        <ele>66.517668736943</ele>
        <time>2022-09-18T15:11:52.926Z</time>
      </trkpt>
      <trkpt lat="48.38362" lon="-4.38929">
        <ele>67.971103511343</ele>
        <time>2022-09-18T15:11:53.505Z</time>
      </trkpt>
      <trkpt lat="48.38364" lon="-4.38906">
        <ele>69.497664788429</ele>
        <time>2022-09-18T15:11:54.087Z</time>
      </trkpt>
      <trkpt lat="48.38366" lon="-4.38857">
        <ele>71.095876221014</ele>
        <time>2022-09-18T15:11:54.674Z</time>
      </trkpt>
      <trkpt lat="48.38375" lon="-4.38775">
        <ele>72.718856305261</ele>
        <time>2022-09-18T15:11:55.270Z</time>
      </trkpt>
      <trkpt lat="48.38378" lon="-4.38643">
        <ele>74.661890672587</ele>
        <time>2022-09-18T15:11:55.880Z</time>
      </trkpt>
      <trkpt lat="48.38382" lon="-4.38592">
        <ele>76.501640533264</ele>
        <time>2022-09-18T15:11:56.495Z</time>
      </trkpt>
      <trkpt lat="48.38382" lon="-4.38547">
        <ele>78.410357506046</ele>
        <time>2022-09-18T15:11:57.115Z</time>
      </trkpt>
      <trkpt lat="48.38385" lon="-4.38519">
        <ele>79.89199359233</ele>
        <time>2022-09-18T15:11:57.738Z</time>
      </trkpt>
      <trkpt lat="48.38384" lon="-4.38507">
        <ele>81.359343978293</ele>
        <time>2022-09-18T15:11:58.362Z</time>
      </trkpt>
      <trkpt lat="48.38386" lon="-4.38472">
        <ele>82.703650895786</ele>
        <time>2022-09-18T15:11:58.990Z</time>
      </trkpt>
      <trkpt lat="48.38381" lon="-4.38404">
        <ele>83.906959206903</ele>
        <time>2022-09-18T15:11:59.625Z</time>
      </trkpt>
      <trkpt lat="48.38371" lon="-4.38335">
        <ele>85.232813070975</ele>
        <time>2022-09-18T15:12:00.268Z</time>
      </trkpt>
      <trkpt lat="48.38367" lon="-4.38285">
        <ele>86.444817904388</ele>
        <time>2022-09-18T15:12:00.916Z</time>
      </trkpt>
      <trkpt lat="48.3836" lon="-4.3823">
        <ele>87.6934498716</ele>
        <time>2022-09-18T15:12:01.570Z</time>
      </trkpt>
      <trkpt lat="48.38357" lon="-4.38169">
        <ele>88.932760919426</ele>
        <time>2022-09-18T15:12:02.231Z</time>
      </trkpt>
      <trkpt lat="48.3835" lon="-4.38095">
        <ele>90.021378604903</ele>
        <time>2022-09-18T15:12:02.900Z</time>
      </trkpt>
      <trkpt lat="48.3835" lon="-4.38078">
        <ele>91.060801443972</ele>
        <time>2022-09-18T15:12:03.571Z</time>
      </trkpt>
      <trkpt lat="48.38346" lon="-4.38028">
        <ele>92.176049085519</ele>
        <time>2022-09-18T15:12:04.247Z</time>
      </trkpt>
      <trkpt lat="48.38347" lon="-4.37977">
        <ele>93.244813251656</ele>
        <time>2022-09-18T15:12:04.928Z</time>
      </trkpt>
      <trkpt lat="48.38346" lon="-4.37926">
        <ele>94.21206222261</ele>
        <time>2022-09-18T15:12:05.615Z</time>
      </trkpt>
      <trkpt lat="48.38339" lon="-4.37898">
        <ele>95.106477978568</ele>
        <time>2022-09-18T15:12:06.305Z</time>
      </trkpt>
      <trkpt lat="48.3832" lon="-4.37862">
        <ele>95.909675964168</ele>
        <time>2022-09-18T15:12:07.000Z</time>
      </trkpt>
      <trkpt lat="48.38307" lon="-4.37845">
        <ele>96.78061686007</ele>
        <time>2022-09-18T15:12:07.698Z</time>
      </trkpt>
      <trkpt lat="48.38302" lon="-4.37835">
        <ele>97.619858110052</ele>
        <time>2022-09-18T15:12:08.397Z</time>
      </trkpt>
      <trkpt lat="48.38291" lon="-4.378">
        <ele>98.465133673635</ele>
        <time>2022-09-18T15:12:09.100Z</time>
      </trkpt>
      <trkpt lat="48.3828" lon="-4.37784">
        <ele>99.311400048905</ele>
        <time>2022-09-18T15:12:09.806Z</time>
      </trkpt>
      <trkpt lat="48.38272" lon="-4.37763">
        <ele>100.16700424874</ele>
        <time>2022-09-18T15:12:10.514Z</time>
      </trkpt>
      <trkpt lat="48.38271" lon="-4.37754">
        <ele>101.04117817387</ele>
        <time>2022-09-18T15:12:11.223Z</time>
      </trkpt>
      <trkpt lat="48.38273" lon="-4.37729">
        <ele>101.90951070151</ele>
        <time>2022-09-18T15:12:11.935Z</time>
      </trkpt>
      <trkpt lat="48.38273" lon="-4.37675">
        <ele>102.78739250119</ele>
        <time>2022-09-18T15:12:12.653Z</time>
      </trkpt>
      <trkpt lat="48.38268" lon="-4.37613">
        <ele>103.7604514992</ele>
        <time>2022-09-18T15:12:13.377Z</time>
      </trkpt>
      <trkpt lat="48.38259" lon="-4.37575">
        <ele>104.82747747149</ele>
        <time>2022-09-18T15:12:14.106Z</time>
      </trkpt>
      <trkpt lat="48.38195" lon="-4.37355">
        <ele>106.17156522329</ele>
        <time>2022-09-18T15:12:14.860Z</time>
      </trkpt>
      <trkpt lat="48.38155" lon="-4.37208">
        <ele>107.49340552671</ele>
        <time>2022-09-18T15:12:15.631Z</time>
      </trkpt>
      <trkpt lat="48.38135" lon="-4.37097">
        <ele>109.03179601727</ele>
        <time>2022-09-18T15:12:16.414Z</time>
      </trkpt>
      <trkpt lat="48.38124" lon="-4.37023">
        <ele>110.28411495083</ele>
        <time>2022-09-18T15:12:17.205Z</time>
      </trkpt>
      <trkpt lat="48.38119" lon="-4.36971">
        <ele>111.49436946895</ele>
        <time>2022-09-18T15:12:18.002Z</time>
      </trkpt>
      <trkpt lat="48.38116" lon="-4.36911">
        <ele>112.68427718724</ele>
        <time>2022-09-18T15:12:18.805Z</time>
      </trkpt>
      <trkpt lat="48.38118" lon="-4.36748">
        <ele>114.2474899017</ele>
        <time>2022-09-18T15:12:19.626Z</time>
      </trkpt>
      <trkpt lat="48.38121" lon="-4.36672">
        <ele>115.42580140035</ele>
        <time>2022-09-18T15:12:20.455Z</time>
      </trkpt>
      <trkpt lat="48.38133" lon="-4.36553">
        <ele>116.2948545897</ele>
        <time>2022-09-18T15:12:21.297Z</time>
      </trkpt>
      <trkpt lat="48.38147" lon="-4.36378">
        <ele>117.10217132033</ele>
        <time>2022-09-18T15:12:22.158Z</time>
      </trkpt>
      <trkpt lat="48.38151" lon="-4.36352">
        <ele>117.80143650735</ele>
        <time>2022-09-18T15:12:23.021Z</time>
      </trkpt>
      <trkpt lat="48.38153" lon="-4.36317">
        <ele>118.36836306649</ele>
        <time>2022-09-18T15:12:23.888Z</time>
      </trkpt>
      <trkpt lat="48.38167" lon="-4.36195">
        <ele>118.93264048748</ele>
        <time>2022-09-18T15:12:24.768Z</time>
      </trkpt>
      <trkpt lat="48.38182" lon="-4.36012">
        <ele>118.96920653168</ele>
        <time>2022-09-18T15:12:25.668Z</time>
      </trkpt>
      <trkpt lat="48.38186" lon="-4.35878">
        <ele>119.17171458515</ele>
        <time>2022-09-18T15:12:26.582Z</time>
      </trkpt>
      <trkpt lat="48.38185" lon="-4.35835">
        <ele>119.24524448656</ele>
        <time>2022-09-18T15:12:27.501Z</time>
      </trkpt>
      <trkpt lat="48.38178" lon="-4.35735">
        <ele>119.15670481821</ele>
        <time>2022-09-18T15:12:28.431Z</time>
      </trkpt>
      <trkpt lat="48.3817" lon="-4.35715">
        <ele>119.00526365076</ele>
        <time>2022-09-18T15:12:29.363Z</time>
      </trkpt>
      <trkpt lat="48.38178" lon="-4.35693">
        <ele>118.70775020592</ele>
        <time>2022-09-18T15:12:30.298Z</time>
      </trkpt>
      <trkpt lat="48.3818" lon="-4.35678">
        <ele>118.36207826402</ele>
        <time>2022-09-18T15:12:31.235Z</time>
      </trkpt>
      <trkpt lat="48.38181" lon="-4.35608">
        <ele>117.95561405215</ele>
        <time>2022-09-18T15:12:32.179Z</time>
      </trkpt>
      <trkpt lat="48.38189" lon="-4.35454">
        <ele>117.2436154491</ele>
        <time>2022-09-18T15:12:33.139Z</time>
      </trkpt>
      <trkpt lat="48.382" lon="-4.35165">
        <ele>116.47993194372</ele>
        <time>2022-09-18T15:12:34.130Z</time>
      </trkpt>
      <trkpt lat="48.38199" lon="-4.35087">
        <ele>115.73260868498</ele>
        <time>2022-09-18T15:12:35.130Z</time>
      </trkpt>
      <trkpt lat="48.38187" lon="-4.34961">
        <ele>115.03710985106</ele>
        <time>2022-09-18T15:12:36.143Z</time>
      </trkpt>
      <trkpt lat="48.38184" lon="-4.34942">
        <ele>114.21875271376</ele>
        <time>2022-09-18T15:12:37.158Z</time>
      </trkpt>
      <trkpt lat="48.38182" lon="-4.34904">
        <ele>113.4412969085</ele>
        <time>2022-09-18T15:12:38.177Z</time>
      </trkpt>
      <trkpt lat="48.38181" lon="-4.34895">
        <ele>112.54989819065</ele>
        <time>2022-09-18T15:12:39.197Z</time>
      </trkpt>
      <trkpt lat="48.3817" lon="-4.3486">
        <ele>111.65071518668</ele>
        <time>2022-09-18T15:12:40.221Z</time>
      </trkpt>
      <trkpt lat="48.38172" lon="-4.34841">
        <ele>110.61750925733</ele>
        <time>2022-09-18T15:12:41.248Z</time>
      </trkpt>
      <trkpt lat="48.3818" lon="-4.34817">
        <ele>109.44002457853</ele>
        <time>2022-09-18T15:12:42.277Z</time>
      </trkpt>
      <trkpt lat="48.38178" lon="-4.348">
        <ele>108.19562532538</ele>
        <time>2022-09-18T15:12:43.308Z</time>
      </trkpt>
      <trkpt lat="48.38166" lon="-4.34745">
        <ele>106.65663826184</ele>
        <time>2022-09-18T15:12:44.345Z</time>
      </trkpt>
      <trkpt lat="48.38131" lon="-4.34616">
        <ele>104.88826338663</ele>
        <time>2022-09-18T15:12:45.397Z</time>
      </trkpt>
      <trkpt lat="48.38123" lon="-4.34579">
        <ele>103.40091328613</ele>
        <time>2022-09-18T15:12:46.453Z</time>
      </trkpt>
      <trkpt lat="48.38117" lon="-4.34527">
        <ele>101.7512738425</ele>
        <time>2022-09-18T15:12:47.515Z</time>
      </trkpt>
      <trkpt lat="48.38115" lon="-4.34488">
        <ele>100.09918718565</ele>
        <time>2022-09-18T15:12:48.581Z</time>
      </trkpt>
      <trkpt lat="48.38116" lon="-4.34448">
        <ele>98.507867159901</ele>
        <time>2022-09-18T15:12:49.652Z</time>
      </trkpt>
      <trkpt lat="48.38123" lon="-4.34342">
        <ele>96.696550638509</ele>
        <time>2022-09-18T15:12:50.734Z</time>
      </trkpt>
      <trkpt lat="48.38137" lon="-4.342">
        <ele>94.562736562877</ele>
        <time>2022-09-18T15:12:51.831Z</time>
      </trkpt>
      <trkpt lat="48.38139" lon="-4.3411">
        <ele>92.542185676916</ele>
        <time>2022-09-18T15:12:52.938Z</time>
      </trkpt>
      <trkpt lat="48.38137" lon="-4.34064">
        <ele>90.624777308758</ele>
        <time>2022-09-18T15:12:54.050Z</time>
      </trkpt>
      <trkpt lat="48.38137" lon="-4.33972">
        <ele>88.643700941392</ele>
        <time>2022-09-18T15:12:55.172Z</time>
      </trkpt>
      <trkpt lat="48.38139" lon="-4.33927">
        <ele>86.82369408364</ele>
        <time>2022-09-18T15:12:56.298Z</time>
      </trkpt>
      <trkpt lat="48.38146" lon="-4.33867">
        <ele>84.885364004714</ele>
        <time>2022-09-18T15:12:57.431Z</time>
      </trkpt>
      <trkpt lat="48.38156" lon="-4.33823">
        <ele>82.961517025673</ele>
        <time>2022-09-18T15:12:58.569Z</time>
      </trkpt>
      <trkpt lat="48.38171" lon="-4.33781">
        <ele>81.049366336345</ele>
        <time>2022-09-18T15:12:59.712Z</time>
      </trkpt>
      <trkpt lat="48.38195" lon="-4.33728">
        <ele>79.111383965893</ele>
        <time>2022-09-18T15:13:00.862Z</time>
      </trkpt>
      <trkpt lat="48.38215" lon="-4.33689">
        <ele>77.114306683434</ele>
        <time>2022-09-18T15:13:02.017Z</time>
      </trkpt>
      <trkpt lat="48.38239" lon="-4.33632">
        <ele>75.080737756981</ele>
        <time>2022-09-18T15:13:03.179Z</time>
      </trkpt>
      <trkpt lat="48.38244" lon="-4.33616">
        <ele>73.276292408634</ele>
        <time>2022-09-18T15:13:04.343Z</time>
      </trkpt>
      <trkpt lat="48.38255" lon="-4.33566">
        <ele>71.529481809851</ele>
        <time>2022-09-18T15:13:05.513Z</time>
      </trkpt>
      <trkpt lat="48.38259" lon="-4.33532">
        <ele>69.842486001876</ele>
        <time>2022-09-18T15:13:06.686Z</time>
      </trkpt>
      <trkpt lat="48.38259" lon="-4.33483">
        <ele>68.062445481413</ele>
        <time>2022-09-18T15:13:07.865Z</time>
      </trkpt>
      <trkpt lat="48.38252" lon="-4.33438">
        <ele>66.163467105277</ele>
        <time>2022-09-18T15:13:09.048Z</time>
      </trkpt>
      <trkpt lat="48.38239" lon="-4.33387">
        <ele>64.383401339844</ele>
        <time>2022-09-18T15:13:10.237Z</time>
      </trkpt>
      <trkpt lat="48.38199" lon="-4.33269">
        <ele>62.807104326038</ele>
        <time>2022-09-18T15:13:11.440Z</time>
      </trkpt>
      <trkpt lat="48.38181" lon="-4.3322">
        <ele>61.027855121335</ele>
        <time>2022-09-18T15:13:12.649Z</time>
      </trkpt>
      <trkpt lat="48.38169" lon="-4.33192">
        <ele>59.251323642546</ele>
        <time>2022-09-18T15:13:13.862Z</time>
      </trkpt>
      <trkpt lat="48.38163" lon="-4.33172">
        <ele>57.491834295406</ele>
        <time>2022-09-18T15:13:15.077Z</time>
      </trkpt>
      <trkpt lat="48.38127" lon="-4.33102">
        <ele>55.531287423436</ele>
        <time>2022-09-18T15:13:16.302Z</time>
      </trkpt>
      <trkpt lat="48.38041" lon="-4.32971">
        <ele>53.086451468861</ele>
        <time>2022-09-18T15:13:17.546Z</time>
      </trkpt>
      <trkpt lat="48.38006" lon="-4.32913">
        <ele>51.254810148624</ele>
        <time>2022-09-18T15:13:18.799Z</time>
      </trkpt>
      <trkpt lat="48.37967" lon="-4.32838">
        <ele>49.626850999258</ele>
        <time>2022-09-18T15:13:20.062Z</time>
      </trkpt>
      <trkpt lat="48.37941" lon="-4.32779">
        <ele>48.219252068909</ele>
        <time>2022-09-18T15:13:21.332Z</time>
      </trkpt>
      <trkpt lat="48.37926" lon="-4.32729">
        <ele>46.744113667106</ele>
        <time>2022-09-18T15:13:22.608Z</time>
      </trkpt>
      <trkpt lat="48.37912" lon="-4.3265">
        <ele>45.186909511894</ele>
        <time>2022-09-18T15:13:23.893Z</time>
      </trkpt>
      <trkpt lat="48.37911" lon="-4.32637">
        <ele>43.922485691063</ele>
        <time>2022-09-18T15:13:25.179Z</time>
      </trkpt>
      <trkpt lat="48.3791" lon="-4.32534">
        <ele>42.620441745833</ele>
        <time>2022-09-18T15:13:26.476Z</time>
      </trkpt>
      <trkpt lat="48.37912" lon="-4.32486">
        <ele>41.540890008077</ele>
        <time>2022-09-18T15:13:27.778Z</time>
      </trkpt>
      <trkpt lat="48.37911" lon="-4.32418">
        <ele>40.645330066179</ele>
        <time>2022-09-18T15:13:29.088Z</time>
      </trkpt>
      <trkpt lat="48.37913" lon="-4.32343">
        <ele>40.081238914238</ele>
        <time>2022-09-18T15:13:30.406Z</time>
      </trkpt>
      <trkpt lat="48.37911" lon="-4.32287">
        <ele>39.719300948412</ele>
        <time>2022-09-18T15:13:31.730Z</time>
      </trkpt>
      <trkpt lat="48.37904" lon="-4.32234">
        <ele>39.580204061749</ele>
        <time>2022-09-18T15:13:33.059Z</time>
      </trkpt>
      <trkpt lat="48.37894" lon="-4.32186">
        <ele>39.727857246072</ele>
        <time>2022-09-18T15:13:34.394Z</time>
      </trkpt>
      <trkpt lat="48.37883" lon="-4.3215">
        <ele>40.013372461885</ele>
        <time>2022-09-18T15:13:35.733Z</time>
      </trkpt>
      <trkpt lat="48.37854" lon="-4.32084">
        <ele>40.514468452977</ele>
        <time>2022-09-18T15:13:37.080Z</time>
      </trkpt>
      <trkpt lat="48.3783" lon="-4.32035">
        <ele>41.360578915905</ele>
        <time>2022-09-18T15:13:38.434Z</time>
      </trkpt>
      <trkpt lat="48.37812" lon="-4.31985">
        <ele>42.40459966459</ele>
        <time>2022-09-18T15:13:39.794Z</time>
      </trkpt>
      <trkpt lat="48.37801" lon="-4.31936">
        <ele>43.735029886934</ele>
        <time>2022-09-18T15:13:41.160Z</time>
      </trkpt>
      <trkpt lat="48.37792" lon="-4.31864">
        <ele>45.352206022314</ele>
        <time>2022-09-18T15:13:42.533Z</time>
      </trkpt>
      <trkpt lat="48.37791" lon="-4.31814">
        <ele>47.063004504961</ele>
        <time>2022-09-18T15:13:43.912Z</time>
      </trkpt>
      <trkpt lat="48.3778" lon="-4.317">
        <ele>48.971751356</ele>
        <time>2022-09-18T15:13:45.303Z</time>
      </trkpt>
      <trkpt lat="48.37775" lon="-4.31613">
        <ele>50.842545555845</ele>
        <time>2022-09-18T15:13:46.703Z</time>
      </trkpt>
      <trkpt lat="48.37776" lon="-4.31548">
        <ele>52.932009225313</ele>
        <time>2022-09-18T15:13:48.110Z</time>
      </trkpt>
      <trkpt lat="48.3779" lon="-4.31448">
        <ele>55.008634714741</ele>
        <time>2022-09-18T15:13:49.528Z</time>
      </trkpt>
      <trkpt lat="48.37791" lon="-4.31383">
        <ele>56.89719960271</ele>
        <time>2022-09-18T15:13:50.953Z</time>
      </trkpt>
      <trkpt lat="48.37787" lon="-4.31325">
        <ele>58.687931890162</ele>
        <time>2022-09-18T15:13:52.384Z</time>
      </trkpt>
      <trkpt lat="48.37787" lon="-4.31292">
        <ele>60.298366871712</ele>
        <time>2022-09-18T15:13:53.819Z</time>
      </trkpt>
      <trkpt lat="48.37782" lon="-4.31199">
        <ele>61.944933243845</ele>
        <time>2022-09-18T15:13:55.264Z</time>
      </trkpt>
      <trkpt lat="48.37771" lon="-4.31093">
        <ele>63.46647214852</ele>
        <time>2022-09-18T15:13:56.720Z</time>
      </trkpt>
      <trkpt lat="48.37763" lon="-4.31057">
        <ele>64.668557957539</ele>
        <time>2022-09-18T15:13:58.180Z</time>
      </trkpt>
      <trkpt lat="48.37748" lon="-4.31008">
        <ele>65.695609477698</ele>
        <time>2022-09-18T15:13:59.646Z</time>
      </trkpt>
      <trkpt lat="48.37711" lon="-4.30926">
        <ele>66.557654269586</ele>
        <time>2022-09-18T15:14:01.123Z</time>
      </trkpt>
      <trkpt lat="48.376" lon="-4.3074">
        <ele>67.154933598401</ele>
        <time>2022-09-18T15:14:02.626Z</time>
      </trkpt>
      <trkpt lat="48.37585" lon="-4.30713">
        <ele>67.617459299776</ele>
        <time>2022-09-18T15:14:04.133Z</time>
      </trkpt>
      <trkpt lat="48.37561" lon="-4.30663">
        <ele>67.783000971953</ele>
        <time>2022-09-18T15:14:05.647Z</time>
      </trkpt>
      <trkpt lat="48.37546" lon="-4.30615">
        <ele>67.562933375681</ele>
        <time>2022-09-18T15:14:07.166Z</time>
      </trkpt>
      <trkpt lat="48.37539" lon="-4.30587">
        <ele>67.20272890195</ele>
        <time>2022-09-18T15:14:08.688Z</time>
      </trkpt>
      <trkpt lat="48.37532" lon="-4.30549">
        <ele>66.67906382358</ele>
        <time>2022-09-18T15:14:10.215Z</time>
      </trkpt>
      <trkpt lat="48.37527" lon="-4.30488">
        <ele>65.938165387501</ele>
        <time>2022-09-18T15:14:11.748Z</time>
      </trkpt>
      <trkpt lat="48.37527" lon="-4.30427">
        <ele>65.060631879352</ele>
        <time>2022-09-18T15:14:13.288Z</time>
      </trkpt>
      <trkpt lat="48.3753" lon="-4.30352">
        <ele>63.971318209879</ele>
        <time>2022-09-18T15:14:14.836Z</time>
      </trkpt>
      <trkpt lat="48.37535" lon="-4.3031">
        <ele>62.676085110463</ele>
        <time>2022-09-18T15:14:16.388Z</time>
      </trkpt>
      <trkpt lat="48.37541" lon="-4.30276">
        <ele>61.321168138783</ele>
        <time>2022-09-18T15:14:17.944Z</time>
      </trkpt>
      <trkpt lat="48.37557" lon="-4.30223">
        <ele>59.917330591506</ele>
        <time>2022-09-18T15:14:19.506Z</time>
      </trkpt>
      <trkpt lat="48.37568" lon="-4.30194">
        <ele>58.514634807297</ele>
        <time>2022-09-18T15:14:21.072Z</time>
      </trkpt>
      <trkpt lat="48.37609" lon="-4.30093">
        <ele>56.777615877806</ele>
        <time>2022-09-18T15:14:22.650Z</time>
      </trkpt>
      <trkpt lat="48.37614" lon="-4.30085">
        <ele>55.249739071211</ele>
        <time>2022-09-18T15:14:24.230Z</time>
      </trkpt>
      <trkpt lat="48.37645" lon="-4.30017">
        <ele>53.476008310459</ele>
        <time>2022-09-18T15:14:25.818Z</time>
      </trkpt>
      <trkpt lat="48.37707" lon="-4.29873">
        <ele>51.869845633634</ele>
        <time>2022-09-18T15:14:27.425Z</time>
      </trkpt>
      <trkpt lat="48.37731" lon="-4.29811">
        <ele>50.223088943194</ele>
        <time>2022-09-18T15:14:29.039Z</time>
      </trkpt>
      <trkpt lat="48.37763" lon="-4.29737">
        <ele>48.789124647622</ele>
        <time>2022-09-18T15:14:30.663Z</time>
      </trkpt>
      <trkpt lat="48.37799" lon="-4.29671">
        <ele>47.416070597923</ele>
        <time>2022-09-18T15:14:32.296Z</time>
      </trkpt>
      <trkpt lat="48.37889" lon="-4.29527">
        <ele>46.170340525374</ele>
        <time>2022-09-18T15:14:33.950Z</time>
      </trkpt>
      <trkpt lat="48.37919" lon="-4.29468">
        <ele>45.305105703504</ele>
        <time>2022-09-18T15:14:35.612Z</time>
      </trkpt>
      <trkpt lat="48.37939" lon="-4.29422">
        <ele>44.630798419187</ele>
        <time>2022-09-18T15:14:37.280Z</time>
      </trkpt>
      <trkpt lat="48.37941" lon="-4.2941">
        <ele>43.976468701603</ele>
        <time>2022-09-18T15:14:38.949Z</time>
      </trkpt>
      <trkpt lat="48.37949" lon="-4.29385">
        <ele>43.426654941575</ele>
        <time>2022-09-18T15:14:40.621Z</time>
      </trkpt>
      <trkpt lat="48.37953" lon="-4.2933">
        <ele>43.107581009486</ele>
        <time>2022-09-18T15:14:42.299Z</time>
      </trkpt>
      <trkpt lat="48.3795" lon="-4.29274">
        <ele>43.020026877297</ele>
        <time>2022-09-18T15:14:43.983Z</time>
      </trkpt>
      <trkpt lat="48.37943" lon="-4.29229">
        <ele>42.988934730868</ele>
        <time>2022-09-18T15:14:45.672Z</time>
      </trkpt>
      <trkpt lat="48.37926" lon="-4.29144">
        <ele>43.087525806832</ele>
        <time>2022-09-18T15:14:47.370Z</time>
      </trkpt>
      <trkpt lat="48.37919" lon="-4.29119">
        <ele>43.615382211367</ele>
        <time>2022-09-18T15:14:49.071Z</time>
      </trkpt>
      <trkpt lat="48.3791" lon="-4.29098">
        <ele>44.319494360576</ele>
        <time>2022-09-18T15:14:50.775Z</time>
      </trkpt>
      <trkpt lat="48.379" lon="-4.2908">
        <ele>45.248894571844</ele>
        <time>2022-09-18T15:14:52.481Z</time>
      </trkpt>
      <trkpt lat="48.3788" lon="-4.29063">
        <ele>46.393305125163</ele>
        <time>2022-09-18T15:14:54.191Z</time>
      </trkpt>
      <trkpt lat="48.3786" lon="-4.29057">
        <ele>47.679579033503</ele>
        <time>2022-09-18T15:14:55.904Z</time>
      </trkpt>
      <trkpt lat="48.37847" lon="-4.29058">
        <ele>49.11246322099</ele>
        <time>2022-09-18T15:14:57.619Z</time>
      </trkpt>
      <trkpt lat="48.37802" lon="-4.29071">
        <ele>50.924474748045</ele>
        <time>2022-09-18T15:14:59.342Z</time>
      </trkpt>
      <trkpt lat="48.37779" lon="-4.29081">
        <ele>52.702593687929</ele>
        <time>2022-09-18T15:15:01.068Z</time>
      </trkpt>
      <trkpt lat="48.3774" lon="-4.29094">
        <ele>54.593259535814</ele>
        <time>2022-09-18T15:15:02.801Z</time>
      </trkpt>
      <trkpt lat="48.37719" lon="-4.29099">
        <ele>56.494148373189</ele>
        <time>2022-09-18T15:15:04.537Z</time>
      </trkpt>
      <trkpt lat="48.37707" lon="-4.29099">
        <ele>58.358572497067</ele>
        <time>2022-09-18T15:15:06.275Z</time>
      </trkpt>
      <trkpt lat="48.37695" lon="-4.29095">
        <ele>60.270599952173</ele>
        <time>2022-09-18T15:15:08.015Z</time>
      </trkpt>
      <trkpt lat="48.37681" lon="-4.29084">
        <ele>62.363594652944</ele>
        <time>2022-09-18T15:15:09.758Z</time>
      </trkpt>
      <trkpt lat="48.37665" lon="-4.29053">
        <ele>64.557065612312</ele>
        <time>2022-09-18T15:15:11.505Z</time>
      </trkpt>
      <trkpt lat="48.37656" lon="-4.29016">
        <ele>66.537774918407</ele>
        <time>2022-09-18T15:15:13.256Z</time>
      </trkpt>
      <trkpt lat="48.37646" lon="-4.28984">
        <ele>68.419338804378</ele>
        <time>2022-09-18T15:15:15.011Z</time>
      </trkpt>
      <trkpt lat="48.37642" lon="-4.28952">
        <ele>70.148159004121</ele>
        <time>2022-09-18T15:15:16.769Z</time>
      </trkpt>
      <trkpt lat="48.37634" lon="-4.2891">
        <ele>71.857291366953</ele>
        <time>2022-09-18T15:15:18.532Z</time>
      </trkpt>
      <trkpt lat="48.37635" lon="-4.28905">
        <ele>73.357953877911</ele>
        <time>2022-09-18T15:15:20.296Z</time>
      </trkpt>
      <trkpt lat="48.37634" lon="-4.28894">
        <ele>74.809808569602</ele>
        <time>2022-09-18T15:15:22.061Z</time>
      </trkpt>
      <trkpt lat="48.37631" lon="-4.28883">
        <ele>76.217786877738</ele>
        <time>2022-09-18T15:15:23.827Z</time>
      </trkpt>
      <trkpt lat="48.37629" lon="-4.28856">
        <ele>77.490533769927</ele>
        <time>2022-09-18T15:15:25.596Z</time>
      </trkpt>
      <trkpt lat="48.37625" lon="-4.28832">
        <ele>78.724251662216</ele>
        <time>2022-09-18T15:15:27.368Z</time>
      </trkpt>
      <trkpt lat="48.37614" lon="-4.28794">
        <ele>79.957748222717</ele>
        <time>2022-09-18T15:15:29.144Z</time>
      </trkpt>
      <trkpt lat="48.376" lon="-4.28754">
        <ele>81.02399224731</ele>
        <time>2022-09-18T15:15:30.925Z</time>
      </trkpt>
      <trkpt lat="48.37573" lon="-4.28693">
        <ele>82.190678118687</ele>
        <time>2022-09-18T15:15:32.714Z</time>
      </trkpt>
      <trkpt lat="48.37568" lon="-4.28685">
        <ele>83.167323954981</ele>
        <time>2022-09-18T15:15:34.504Z</time>
      </trkpt>
      <trkpt lat="48.37552" lon="-4.28663">
        <ele>84.167330341968</ele>
        <time>2022-09-18T15:15:36.297Z</time>
      </trkpt>
      <trkpt lat="48.37539" lon="-4.28651">
        <ele>85.018907853625</ele>
        <time>2022-09-18T15:15:38.093Z</time>
      </trkpt>
      <trkpt lat="48.37533" lon="-4.28646">
        <ele>85.794262856665</ele>
        <time>2022-09-18T15:15:39.890Z</time>
      </trkpt>
      <trkpt lat="48.37508" lon="-4.28632">
        <ele>86.574886028904</ele>
        <time>2022-09-18T15:15:41.691Z</time>
      </trkpt>
      <trkpt lat="48.37498" lon="-4.28624">
        <ele>87.181266116548</ele>
        <time>2022-09-18T15:15:43.494Z</time>
      </trkpt>
      <trkpt lat="48.3749" lon="-4.28615">
        <ele>87.695853185877</ele>
        <time>2022-09-18T15:15:45.298Z</time>
      </trkpt>
      <trkpt lat="48.37479" lon="-4.28601">
        <ele>88.163583797305</ele>
        <time>2022-09-18T15:15:47.105Z</time>
      </trkpt>
      <trkpt lat="48.37443" lon="-4.2854">
        <ele>88.862055475197</ele>
        <time>2022-09-18T15:15:48.920Z</time>
      </trkpt>
      <trkpt lat="48.37421" lon="-4.28509">
        <ele>89.175781924801</ele>
        <time>2022-09-18T15:15:50.740Z</time>
      </trkpt>
      <trkpt lat="48.37397" lon="-4.28487">
        <ele>89.416079233553</ele>
        <time>2022-09-18T15:15:52.565Z</time>
      </trkpt>
      <trkpt lat="48.37371" lon="-4.28473">
        <ele>89.543204797689</ele>
        <time>2022-09-18T15:15:54.394Z</time>
      </trkpt>
      <trkpt lat="48.37254" lon="-4.28427">
        <ele>89.429302129664</ele>
        <time>2022-09-18T15:15:56.243Z</time>
      </trkpt>
      <trkpt lat="48.3724" lon="-4.28423">
        <ele>89.408482382211</ele>
        <time>2022-09-18T15:15:58.094Z</time>
      </trkpt>
      <trkpt lat="48.37203" lon="-4.28402">
        <ele>89.360039868643</ele>
        <time>2022-09-18T15:15:59.951Z</time>
      </trkpt>
      <trkpt lat="48.37175" lon="-4.28376">
        <ele>89.251012927819</ele>
        <time>2022-09-18T15:16:01.813Z</time>
      </trkpt>
      <trkpt lat="48.37101" lon="-4.28301">
        <ele>88.882247878166</ele>
        <time>2022-09-18T15:16:03.690Z</time>
      </trkpt>
      <trkpt lat="48.37094" lon="-4.28292">
        <ele>88.563644980761</ele>
        <time>2022-09-18T15:16:05.568Z</time>
      </trkpt>
      <trkpt lat="48.37078" lon="-4.28265">
        <ele>88.203388718891</ele>
        <time>2022-09-18T15:16:07.450Z</time>
      </trkpt>
      <trkpt lat="48.37062" lon="-4.28225">
        <ele>87.860380025672</ele>
        <time>2022-09-18T15:16:09.337Z</time>
      </trkpt>
      <trkpt lat="48.37053" lon="-4.28191">
        <ele>87.477483715255</ele>
        <time>2022-09-18T15:16:11.228Z</time>
      </trkpt>
      <trkpt lat="48.37034" lon="-4.28131">
        <ele>87.050145536784</ele>
        <time>2022-09-18T15:16:13.126Z</time>
      </trkpt>
      <trkpt lat="48.37025" lon="-4.28093">
        <ele>86.423384177965</ele>
        <time>2022-09-18T15:16:15.028Z</time>
      </trkpt>
      <trkpt lat="48.37005" lon="-4.28039">
        <ele>85.76843775398</ele>
        <time>2022-09-18T15:16:16.937Z</time>
      </trkpt>
      <trkpt lat="48.3698" lon="-4.27978">
        <ele>85.060808641059</ele>
        <time>2022-09-18T15:16:18.854Z</time>
      </trkpt>
      <trkpt lat="48.36938" lon="-4.27886">
        <ele>84.148304339648</ele>
        <time>2022-09-18T15:16:20.782Z</time>
      </trkpt>
      <trkpt lat="48.36929" lon="-4.27871">
        <ele>83.268359109311</ele>
        <time>2022-09-18T15:16:22.713Z</time>
      </trkpt>
      <trkpt lat="48.36911" lon="-4.27852">
        <ele>82.269832549013</ele>
        <time>2022-09-18T15:16:24.647Z</time>
      </trkpt>
      <trkpt lat="48.36891" lon="-4.27836">
        <ele>81.208075986697</ele>
        <time>2022-09-18T15:16:26.585Z</time>
      </trkpt>
      <trkpt lat="48.36884" lon="-4.27832">
        <ele>80.037953890149</ele>
        <time>2022-09-18T15:16:28.524Z</time>
      </trkpt>
      <trkpt lat="48.36869" lon="-4.27828">
        <ele>78.753062612428</ele>
        <time>2022-09-18T15:16:30.465Z</time>
      </trkpt>
      <trkpt lat="48.36745" lon="-4.2781">
        <ele>77.275848275314</ele>
        <time>2022-09-18T15:16:32.426Z</time>
      </trkpt>
      <trkpt lat="48.36718" lon="-4.27802">
        <ele>75.622545566719</ele>
        <time>2022-09-18T15:16:34.392Z</time>
      </trkpt>
      <trkpt lat="48.36691" lon="-4.27786">
        <ele>73.815078627858</ele>
        <time>2022-09-18T15:16:36.362Z</time>
      </trkpt>
      <trkpt lat="48.36674" lon="-4.27773">
        <ele>71.984555662846</ele>
        <time>2022-09-18T15:16:38.335Z</time>
      </trkpt>
      <trkpt lat="48.36641" lon="-4.27739">
        <ele>69.931080844818</ele>
        <time>2022-09-18T15:16:40.315Z</time>
      </trkpt>
      <trkpt lat="48.36622" lon="-4.27723">
        <ele>67.855008365805</ele>
        <time>2022-09-18T15:16:42.298Z</time>
      </trkpt>
      <trkpt lat="48.36612" lon="-4.27716">
        <ele>65.738621077107</ele>
        <time>2022-09-18T15:16:44.283Z</time>
      </trkpt>
      <trkpt lat="48.36589" lon="-4.27707">
        <ele>63.391306915507</ele>
        <time>2022-09-18T15:16:46.272Z</time>
      </trkpt>
      <trkpt lat="48.36567" lon="-4.27704">
        <ele>61.063421580656</ele>
        <time>2022-09-18T15:16:48.264Z</time>
      </trkpt>
      <trkpt lat="48.36462" lon="-4.27706">
        <ele>58.354577331954</ele>
        <time>2022-09-18T15:16:50.273Z</time>
      </trkpt>
      <trkpt lat="48.36427" lon="-4.27705">
        <ele>55.948835364729</ele>
        <time>2022-09-18T15:16:52.288Z</time>
      </trkpt>
      <trkpt lat="48.36391" lon="-4.27696">
        <ele>53.435676127043</ele>
        <time>2022-09-18T15:16:54.309Z</time>
      </trkpt>
      <trkpt lat="48.36357" lon="-4.27682">
        <ele>51.055848261158</ele>
        <time>2022-09-18T15:16:56.335Z</time>
      </trkpt>
      <trkpt lat="48.363" lon="-4.27653">
        <ele>48.667668095517</ele>
        <time>2022-09-18T15:16:58.371Z</time>
      </trkpt>
      <trkpt lat="48.36255" lon="-4.27633">
        <ele>46.25116295414</ele>
        <time>2022-09-18T15:17:00.415Z</time>
      </trkpt>
      <trkpt lat="48.36232" lon="-4.27626">
        <ele>43.95632951767</ele>
        <time>2022-09-18T15:17:02.462Z</time>
      </trkpt>
      <trkpt lat="48.36196" lon="-4.2762">
        <ele>41.73090113634</ele>
        <time>2022-09-18T15:17:04.515Z</time>
      </trkpt>
      <trkpt lat="48.36173" lon="-4.2761">
        <ele>39.539391279542</ele>
        <time>2022-09-18T15:17:06.572Z</time>
      </trkpt>
      <trkpt lat="48.36153" lon="-4.27592">
        <ele>37.384086508733</ele>
        <time>2022-09-18T15:17:08.633Z</time>
      </trkpt>
      <trkpt lat="48.36138" lon="-4.27565">
        <ele>35.260189731077</ele>
        <time>2022-09-18T15:17:10.697Z</time>
      </trkpt>
      <trkpt lat="48.36115" lon="-4.275">
        <ele>33.061563089901</ele>
        <time>2022-09-18T15:17:12.769Z</time>
      </trkpt>
      <trkpt lat="48.36094" lon="-4.27432">
        <ele>30.86581123731</ele>
        <time>2022-09-18T15:17:14.849Z</time>
      </trkpt>
      <trkpt lat="48.3609" lon="-4.27415">
        <ele>29.103440459096</ele>
        <time>2022-09-18T15:17:16.931Z</time>
      </trkpt>
      <trkpt lat="48.36087" lon="-4.27378">
        <ele>27.410281154757</ele>
        <time>2022-09-18T15:17:19.017Z</time>
      </trkpt>
      <trkpt lat="48.36092" lon="-4.27341">
        <ele>25.858756745765</ele>
        <time>2022-09-18T15:17:21.107Z</time>
      </trkpt>
      <trkpt lat="48.36109" lon="-4.27269">
        <ele>24.238202306441</ele>
        <time>2022-09-18T15:17:23.205Z</time>
      </trkpt>
      <trkpt lat="48.36114" lon="-4.27232">
        <ele>22.941226827011</ele>
        <time>2022-09-18T15:17:25.307Z</time>
      </trkpt>
      <trkpt lat="48.36115" lon="-4.27175">
        <ele>21.74688872328</ele>
        <time>2022-09-18T15:17:27.415Z</time>
      </trkpt>
      <trkpt lat="48.36108" lon="-4.27102">
        <ele>20.700069892269</ele>
        <time>2022-09-18T15:17:29.531Z</time>
      </trkpt>
      <trkpt lat="48.36103" lon="-4.2702">
        <ele>19.799561483563</ele>
        <time>2022-09-18T15:17:31.656Z</time>
      </trkpt>
      <trkpt lat="48.36105" lon="-4.26993">
        <ele>19.009614977981</ele>
        <time>2022-09-18T15:17:33.784Z</time>
      </trkpt>
      <trkpt lat="48.36107" lon="-4.26981">
        <ele>18.29851294879</ele>
        <time>2022-09-18T15:17:35.913Z</time>
      </trkpt>
      <trkpt lat="48.36116" lon="-4.2695">
        <ele>17.704340038692</ele>
        <time>2022-09-18T15:17:38.046Z</time>
      </trkpt>
      <trkpt lat="48.36129" lon="-4.2688">
        <ele>17.221057003242</ele>
        <time>2022-09-18T15:17:40.187Z</time>
      </trkpt>
      <trkpt lat="48.36149" lon="-4.26713">
        <ele>16.744048986787</ele>
        <time>2022-09-18T15:17:42.346Z</time>
      </trkpt>
      <trkpt lat="48.36147" lon="-4.26678">
        <ele>16.112797115704</ele>
        <time>2022-09-18T15:17:44.509Z</time>
      </trkpt>
      <trkpt lat="48.3614" lon="-4.26658">
        <ele>15.495568921876</ele>
        <time>2022-09-18T15:17:46.674Z</time>
      </trkpt>
      <trkpt lat="48.36128" lon="-4.26636">
        <ele>14.855517372231</ele>
        <time>2022-09-18T15:17:48.842Z</time>
      </trkpt>
      <trkpt lat="48.3608" lon="-4.2659">
        <ele>14.068322157344</ele>
        <time>2022-09-18T15:17:51.019Z</time>
      </trkpt>
      <trkpt lat="48.3606" lon="-4.2657">
        <ele>13.415593253312</ele>
        <time>2022-09-18T15:17:53.200Z</time>
      </trkpt>
      <trkpt lat="48.36056" lon="-4.26564">
        <ele>12.76729316802</ele>
        <time>2022-09-18T15:17:55.382Z</time>
      </trkpt>
      <trkpt lat="48.36047" lon="-4.26546">
        <ele>12.102967955576</ele>
        <time>2022-09-18T15:17:57.566Z</time>
      </trkpt>
      <trkpt lat="48.36044" lon="-4.26526">
        <ele>11.512310383911</ele>
        <time>2022-09-18T15:17:59.752Z</time>
      </trkpt>
      <trkpt lat="48.36044" lon="-4.26507">
        <ele>10.898716075644</ele>
        <time>2022-09-18T15:18:01.941Z</time>
      </trkpt>
      <trkpt lat="48.36051" lon="-4.26473">
        <ele>10.249846696277</ele>
        <time>2022-09-18T15:18:04.133Z</time>
      </trkpt>
      <trkpt lat="48.3607" lon="-4.26423">
        <ele>9.4200824218708</ele>
        <time>2022-09-18T15:18:06.331Z</time>
      </trkpt>
      <trkpt lat="48.36088" lon="-4.26365">
        <ele>8.5323838474694</ele>
        <time>2022-09-18T15:18:08.536Z</time>
      </trkpt>
      <trkpt lat="48.36108" lon="-4.26322">
        <ele>7.8915074372867</ele>
        <time>2022-09-18T15:18:10.747Z</time>
      </trkpt>
      <trkpt lat="48.36114" lon="-4.26301">
        <ele>7.4232622545692</ele>
        <time>2022-09-18T15:18:12.960Z</time>
      </trkpt>
      <trkpt lat="48.36154" lon="-4.2613">
        <ele>6.9613782697205</ele>
        <time>2022-09-18T15:18:15.193Z</time>
      </trkpt>
      <trkpt lat="48.36164" lon="-4.26074">
        <ele>6.7292337400573</ele>
        <time>2022-09-18T15:18:17.432Z</time>
      </trkpt>
      <trkpt lat="48.36162" lon="-4.26054">
        <ele>6.7869982999723</ele>
        <time>2022-09-18T15:18:19.673Z</time>
      </trkpt>
      <trkpt lat="48.36148" lon="-4.25998">
        <ele>7.0317898874013</ele>
        <time>2022-09-18T15:18:21.920Z</time>
      </trkpt>
      <trkpt lat="48.36148" lon="-4.25985">
        <ele>7.4021636567517</ele>
        <time>2022-09-18T15:18:24.169Z</time>
      </trkpt>
      <trkpt lat="48.36144" lon="-4.2597">
        <ele>7.9476148832745</ele>
        <time>2022-09-18T15:18:26.419Z</time>
      </trkpt>
      <trkpt lat="48.36143" lon="-4.25953">
        <ele>8.7125283967291</ele>
        <time>2022-09-18T15:18:28.671Z</time>
      </trkpt>
      <trkpt lat="48.36131" lon="-4.25897">
        <ele>9.7697312624468</ele>
        <time>2022-09-18T15:18:30.930Z</time>
      </trkpt>
      <trkpt lat="48.36123" lon="-4.25839">
        <ele>11.021605043858</ele>
        <time>2022-09-18T15:18:33.195Z</time>
      </trkpt>
      <trkpt lat="48.36116" lon="-4.25808">
        <ele>12.384522718112</ele>
        <time>2022-09-18T15:18:35.463Z</time>
      </trkpt>
      <trkpt lat="48.36106" lon="-4.2574">
        <ele>14.084755634819</ele>
        <time>2022-09-18T15:18:37.739Z</time>
      </trkpt>
      <trkpt lat="48.36105" lon="-4.25728">
        <ele>15.68361524598</ele>
        <time>2022-09-18T15:18:40.016Z</time>
      </trkpt>
      <trkpt lat="48.36106" lon="-4.25629">
        <ele>17.567229479269</ele>
        <time>2022-09-18T15:18:42.304Z</time>
      </trkpt>
      <trkpt lat="48.36104" lon="-4.25592">
        <ele>19.409230712273</ele>
        <time>2022-09-18T15:18:44.596Z</time>
      </trkpt>
      <trkpt lat="48.36092" lon="-4.25549">
        <ele>21.506121312958</ele>
        <time>2022-09-18T15:18:46.893Z</time>
      </trkpt>
      <trkpt lat="48.36085" lon="-4.25532">
        <ele>23.57536613146</ele>
        <time>2022-09-18T15:18:49.192Z</time>
      </trkpt>
      <trkpt lat="48.36054" lon="-4.25484">
        <ele>25.764246316622</ele>
        <time>2022-09-18T15:18:51.498Z</time>
      </trkpt>
      <trkpt lat="48.36037" lon="-4.25447">
        <ele>27.866132776711</ele>
        <time>2022-09-18T15:18:53.809Z</time>
      </trkpt>
      <trkpt lat="48.36027" lon="-4.25414">
        <ele>30.035148253134</ele>
        <time>2022-09-18T15:18:56.124Z</time>
      </trkpt>
      <trkpt lat="48.3602" lon="-4.25379">
        <ele>32.195638076613</ele>
        <time>2022-09-18T15:18:58.442Z</time>
      </trkpt>
      <trkpt lat="48.36016" lon="-4.25349">
        <ele>34.376327778544</ele>
        <time>2022-09-18T15:19:00.764Z</time>
      </trkpt>
      <trkpt lat="48.36015" lon="-4.25303">
        <ele>36.493247961217</ele>
        <time>2022-09-18T15:19:03.091Z</time>
      </trkpt>
      <trkpt lat="48.36024" lon="-4.25217">
        <ele>38.589758131022</ele>
        <time>2022-09-18T15:19:05.427Z</time>
      </trkpt>
      <trkpt lat="48.36032" lon="-4.2511">
        <ele>41.260653280677</ele>
        <time>2022-09-18T15:19:07.774Z</time>
      </trkpt>
      <trkpt lat="48.3604" lon="-4.25052">
        <ele>43.259302032898</ele>
        <time>2022-09-18T15:19:10.128Z</time>
      </trkpt>
      <trkpt lat="48.3605" lon="-4.25013">
        <ele>44.837152632422</ele>
        <time>2022-09-18T15:19:12.486Z</time>
      </trkpt>
      <trkpt lat="48.36063" lon="-4.2498">
        <ele>46.321181401063</ele>
        <time>2022-09-18T15:19:14.848Z</time>
      </trkpt>
      <trkpt lat="48.36076" lon="-4.2493">
        <ele>47.538595157917</ele>
        <time>2022-09-18T15:19:17.216Z</time>
      </trkpt>
      <trkpt lat="48.36077" lon="-4.24905">
        <ele>48.520106625444</ele>
        <time>2022-09-18T15:19:19.587Z</time>
      </trkpt>
      <trkpt lat="48.36075" lon="-4.24835">
        <ele>49.350738529647</ele>
        <time>2022-09-18T15:19:21.965Z</time>
      </trkpt>
      <trkpt lat="48.36069" lon="-4.24816">
        <ele>50.011747229402</ele>
        <time>2022-09-18T15:19:24.345Z</time>
      </trkpt>
      <trkpt lat="48.36029" lon="-4.24749">
        <ele>50.699847702932</ele>
        <time>2022-09-18T15:19:26.735Z</time>
      </trkpt>
      <trkpt lat="48.36013" lon="-4.24719">
        <ele>51.283158462528</ele>
        <time>2022-09-18T15:19:29.129Z</time>
      </trkpt>
      <trkpt lat="48.35995" lon="-4.24679">
        <ele>51.621842701292</ele>
        <time>2022-09-18T15:19:31.528Z</time>
      </trkpt>
      <trkpt lat="48.35971" lon="-4.2461">
        <ele>51.785667472045</ele>
        <time>2022-09-18T15:19:33.936Z</time>
      </trkpt>
      <trkpt lat="48.35962" lon="-4.24577">
        <ele>51.954390283409</ele>
        <time>2022-09-18T15:19:36.347Z</time>
      </trkpt>
      <trkpt lat="48.35948" lon="-4.24513">
        <ele>52.210205391384</ele>
        <time>2022-09-18T15:19:38.766Z</time>
      </trkpt>
      <trkpt lat="48.35938" lon="-4.24454">
        <ele>52.443126679412</ele>
        <time>2022-09-18T15:19:41.191Z</time>
      </trkpt>
      <trkpt lat="48.35934" lon="-4.24419">
        <ele>52.952809335598</ele>
        <time>2022-09-18T15:19:43.620Z</time>
      </trkpt>
      <trkpt lat="48.35931" lon="-4.24374">
        <ele>53.65841962378</ele>
        <time>2022-09-18T15:19:46.054Z</time>
      </trkpt>
      <trkpt lat="48.3593" lon="-4.24318">
        <ele>54.559948295247</ele>
        <time>2022-09-18T15:19:48.494Z</time>
      </trkpt>
      <trkpt lat="48.35931" lon="-4.24256">
        <ele>55.632736407287</ele>
        <time>2022-09-18T15:19:50.940Z</time>
      </trkpt>
      <trkpt lat="48.35933" lon="-4.24165">
        <ele>56.875904486765</ele>
        <time>2022-09-18T15:19:53.396Z</time>
      </trkpt>
      <trkpt lat="48.35943" lon="-4.24063">
        <ele>58.353508736199</ele>
        <time>2022-09-18T15:19:55.863Z</time>
      </trkpt>
      <trkpt lat="48.35961" lon="-4.23918">
        <ele>60.302110424329</ele>
        <time>2022-09-18T15:19:58.346Z</time>
      </trkpt>
      <trkpt lat="48.35968" lon="-4.23874">
        <ele>62.24555186518</ele>
        <time>2022-09-18T15:20:00.834Z</time>
      </trkpt>
      <trkpt lat="48.35976" lon="-4.23838">
        <ele>64.283452803254</ele>
        <time>2022-09-18T15:20:03.326Z</time>
      </trkpt>
      <trkpt lat="48.35995" lon="-4.23778">
        <ele>66.68862893885</ele>
        <time>2022-09-18T15:20:05.825Z</time>
      </trkpt>
      <trkpt lat="48.36058" lon="-4.23636">
        <ele>69.688197107642</ele>
        <time>2022-09-18T15:20:08.342Z</time>
      </trkpt>
      <trkpt lat="48.36075" lon="-4.23589">
        <ele>72.318536663707</ele>
        <time>2022-09-18T15:20:10.865Z</time>
      </trkpt>
      <trkpt lat="48.3614" lon="-4.23346">
        <ele>75.740353405784</ele>
        <time>2022-09-18T15:20:13.416Z</time>
      </trkpt>
      <trkpt lat="48.36158" lon="-4.23291">
        <ele>78.790831798245</ele>
        <time>2022-09-18T15:20:15.973Z</time>
      </trkpt>
      <trkpt lat="48.36183" lon="-4.23228">
        <ele>81.623544469577</ele>
        <time>2022-09-18T15:20:18.538Z</time>
      </trkpt>
      <trkpt lat="48.36216" lon="-4.23163">
        <ele>84.670264861831</ele>
        <time>2022-09-18T15:20:21.112Z</time>
      </trkpt>
      <trkpt lat="48.36263" lon="-4.23079">
        <ele>87.826442245692</ele>
        <time>2022-09-18T15:20:23.697Z</time>
      </trkpt>
      <trkpt lat="48.36318" lon="-4.22974">
        <ele>90.865972310345</ele>
        <time>2022-09-18T15:20:26.297Z</time>
      </trkpt>
      <trkpt lat="48.36333" lon="-4.22949">
        <ele>93.531763618989</ele>
        <time>2022-09-18T15:20:28.900Z</time>
      </trkpt>
      <trkpt lat="48.36347" lon="-4.2292">
        <ele>96.011844959884</ele>
        <time>2022-09-18T15:20:31.507Z</time>
      </trkpt>
      <trkpt lat="48.36383" lon="-4.22866">
        <ele>98.500640324173</ele>
        <time>2022-09-18T15:20:34.122Z</time>
      </trkpt>
      <trkpt lat="48.36405" lon="-4.22839">
        <ele>100.72569169682</ele>
        <time>2022-09-18T15:20:36.742Z</time>
      </trkpt>
      <trkpt lat="48.36421" lon="-4.22823">
        <ele>102.68267974668</ele>
        <time>2022-09-18T15:20:39.365Z</time>
      </trkpt>
      <trkpt lat="48.36466" lon="-4.22784">
        <ele>104.56175295193</ele>
        <time>2022-09-18T15:20:41.996Z</time>
      </trkpt>
      <trkpt lat="48.365" lon="-4.22765">
        <ele>106.22214730506</ele>
        <time>2022-09-18T15:20:44.633Z</time>
      </trkpt>
      <trkpt lat="48.36536" lon="-4.2275">
        <ele>107.56393093079</ele>
        <time>2022-09-18T15:20:47.276Z</time>
      </trkpt>
      <trkpt lat="48.36574" lon="-4.22728">
        <ele>108.69650928313</ele>
        <time>2022-09-18T15:20:49.925Z</time>
      </trkpt>
      <trkpt lat="48.36592" lon="-4.22714">
        <ele>109.66306488501</ele>
        <time>2022-09-18T15:20:52.578Z</time>
      </trkpt>
      <trkpt lat="48.3661" lon="-4.22696">
        <ele>110.37259427832</ele>
        <time>2022-09-18T15:20:55.234Z</time>
      </trkpt>
      <trkpt lat="48.36629" lon="-4.22673">
        <ele>110.83394993539</ele>
        <time>2022-09-18T15:20:57.894Z</time>
      </trkpt>
      <trkpt lat="48.36639" lon="-4.22657">
        <ele>111.21731062239</ele>
        <time>2022-09-18T15:21:00.556Z</time>
      </trkpt>
      <trkpt lat="48.36675" lon="-4.22585">
        <ele>111.44904692794</ele>
        <time>2022-09-18T15:21:03.228Z</time>
      </trkpt>
      <trkpt lat="48.36735" lon="-4.22442">
        <ele>111.80952110842</ele>
        <time>2022-09-18T15:21:05.918Z</time>
      </trkpt>
      <trkpt lat="48.36807" lon="-4.22279">
        <ele>111.94877709617</ele>
        <time>2022-09-18T15:21:08.629Z</time>
      </trkpt>
      <trkpt lat="48.36823" lon="-4.2224">
        <ele>111.85022867128</ele>
        <time>2022-09-18T15:21:11.345Z</time>
      </trkpt>
      <trkpt lat="48.36844" lon="-4.22182">
        <ele>111.67354461626</ele>
        <time>2022-09-18T15:21:14.068Z</time>
      </trkpt>
      <trkpt lat="48.36853" lon="-4.22149">
        <ele>111.46906251252</ele>
        <time>2022-09-18T15:21:16.795Z</time>
      </trkpt>
      <trkpt lat="48.36864" lon="-4.22097">
        <ele>111.17224502363</ele>
        <time>2022-09-18T15:21:19.527Z</time>
      </trkpt>
      <trkpt lat="48.36878" lon="-4.22">
        <ele>110.88943351308</ele>
        <time>2022-09-18T15:21:22.270Z</time>
      </trkpt>
      <trkpt lat="48.36894" lon="-4.21906">
        <ele>110.61370619602</ele>
        <time>2022-09-18T15:21:25.023Z</time>
      </trkpt>
      <trkpt lat="48.36939" lon="-4.21709">
        <ele>109.99714332592</ele>
        <time>2022-09-18T15:21:27.799Z</time>
      </trkpt>
      <trkpt lat="48.36948" lon="-4.21648">
        <ele>109.23991418567</ele>
        <time>2022-09-18T15:21:30.581Z</time>
      </trkpt>
      <trkpt lat="48.36953" lon="-4.21572">
        <ele>108.34476171689</ele>
        <time>2022-09-18T15:21:33.371Z</time>
      </trkpt>
      <trkpt lat="48.36962" lon="-4.2152">
        <ele>107.45249498079</ele>
        <time>2022-09-18T15:21:36.167Z</time>
      </trkpt>
      <trkpt lat="48.36969" lon="-4.2149">
        <ele>106.52428876408</ele>
        <time>2022-09-18T15:21:38.966Z</time>
      </trkpt>
      <trkpt lat="48.36978" lon="-4.21464">
        <ele>105.56377345495</ele>
        <time>2022-09-18T15:21:41.769Z</time>
      </trkpt>
      <trkpt lat="48.36986" lon="-4.21449">
        <ele>104.59802638025</ele>
        <time>2022-09-18T15:21:44.574Z</time>
      </trkpt>
      <trkpt lat="48.37" lon="-4.21431">
        <ele>103.61205169806</ele>
        <time>2022-09-18T15:21:47.382Z</time>
      </trkpt>
      <trkpt lat="48.37007" lon="-4.21415">
        <ele>102.65172575184</ele>
        <time>2022-09-18T15:21:50.192Z</time>
      </trkpt>
      <trkpt lat="48.3702" lon="-4.21364">
        <ele>101.66529357879</ele>
        <time>2022-09-18T15:21:53.007Z</time>
      </trkpt>
      <trkpt lat="48.37022" lon="-4.21346">
        <ele>100.7156081186</ele>
        <time>2022-09-18T15:21:55.824Z</time>
      </trkpt>
      <trkpt lat="48.37021" lon="-4.21273">
        <ele>99.770606843248</ele>
        <time>2022-09-18T15:21:58.649Z</time>
      </trkpt>
      <trkpt lat="48.37053" lon="-4.21137">
        <ele>98.634131077855</ele>
        <time>2022-09-18T15:22:01.490Z</time>
      </trkpt>
      <trkpt lat="48.37066" lon="-4.21067">
        <ele>97.708580834464</ele>
        <time>2022-09-18T15:22:04.338Z</time>
      </trkpt>
      <trkpt lat="48.37067" lon="-4.20898">
        <ele>96.568135978593</ele>
        <time>2022-09-18T15:22:07.204Z</time>
      </trkpt>
      <trkpt lat="48.37069" lon="-4.20876">
        <ele>95.766657511399</ele>
        <time>2022-09-18T15:22:10.073Z</time>
      </trkpt>
      <trkpt lat="48.37093" lon="-4.2078">
        <ele>95.01647301802</ele>
        <time>2022-09-18T15:22:12.953Z</time>
      </trkpt>
      <trkpt lat="48.37107" lon="-4.20735">
        <ele>94.327692429516</ele>
        <time>2022-09-18T15:22:15.838Z</time>
      </trkpt>
      <trkpt lat="48.37143" lon="-4.20635">
        <ele>93.887351800628</ele>
        <time>2022-09-18T15:22:18.735Z</time>
      </trkpt>
      <trkpt lat="48.3715" lon="-4.20609">
        <ele>93.410282968285</ele>
        <time>2022-09-18T15:22:21.635Z</time>
      </trkpt>
      <trkpt lat="48.37161" lon="-4.20563">
        <ele>92.994560216593</ele>
        <time>2022-09-18T15:22:24.540Z</time>
      </trkpt>
      <trkpt lat="48.37193" lon="-4.20404">
        <ele>92.636600078866</ele>
        <time>2022-09-18T15:22:27.463Z</time>
      </trkpt>
      <trkpt lat="48.37207" lon="-4.20321">
        <ele>92.663372064432</ele>
        <time>2022-09-18T15:22:30.395Z</time>
      </trkpt>
      <trkpt lat="48.37215" lon="-4.20286">
        <ele>92.643189588411</ele>
        <time>2022-09-18T15:22:33.331Z</time>
      </trkpt>
      <trkpt lat="48.37227" lon="-4.20245">
        <ele>92.643240488679</ele>
        <time>2022-09-18T15:22:36.272Z</time>
      </trkpt>
      <trkpt lat="48.37252" lon="-4.20178">
        <ele>92.729480631912</ele>
        <time>2022-09-18T15:22:39.221Z</time>
      </trkpt>
      <trkpt lat="48.37283" lon="-4.20077">
        <ele>92.944922633772</ele>
        <time>2022-09-18T15:22:42.182Z</time>
      </trkpt>
      <trkpt lat="48.37327" lon="-4.19998">
        <ele>93.308947156198</ele>
        <time>2022-09-18T15:22:45.154Z</time>
      </trkpt>
      <trkpt lat="48.37352" lon="-4.1996">
        <ele>93.611197829167</ele>
        <time>2022-09-18T15:22:48.132Z</time>
      </trkpt>
      <trkpt lat="48.37393" lon="-4.19909">
        <ele>93.990153912334</ele>
        <time>2022-09-18T15:22:51.118Z</time>
      </trkpt>
      <trkpt lat="48.3741" lon="-4.19881">
        <ele>94.394004060259</ele>
        <time>2022-09-18T15:22:54.108Z</time>
      </trkpt>
      <trkpt lat="48.37452" lon="-4.1978">
        <ele>94.768015950728</ele>
        <time>2022-09-18T15:22:57.111Z</time>
      </trkpt>
      <trkpt lat="48.37471" lon="-4.19742">
        <ele>95.139618113968</ele>
        <time>2022-09-18T15:23:00.119Z</time>
      </trkpt>
      <trkpt lat="48.3755" lon="-4.19605">
        <ele>95.840661665562</ele>
        <time>2022-09-18T15:23:03.146Z</time>
      </trkpt>
      <trkpt lat="48.37585" lon="-4.19537">
        <ele>96.037715200428</ele>
        <time>2022-09-18T15:23:06.182Z</time>
      </trkpt>
      <trkpt lat="48.37607" lon="-4.19483">
        <ele>96.390586034323</ele>
        <time>2022-09-18T15:23:09.225Z</time>
      </trkpt>
      <trkpt lat="48.37619" lon="-4.19439">
        <ele>96.576798419321</ele>
        <time>2022-09-18T15:23:12.273Z</time>
      </trkpt>
      <trkpt lat="48.37638" lon="-4.19357">
        <ele>96.671247763495</ele>
        <time>2022-09-18T15:23:15.331Z</time>
      </trkpt>
      <trkpt lat="48.37754" lon="-4.18826">
        <ele>96.547475623431</ele>
        <time>2022-09-18T15:23:18.448Z</time>
      </trkpt>
      <trkpt lat="48.37797" lon="-4.18646">
        <ele>97.039545734235</ele>
        <time>2022-09-18T15:23:21.586Z</time>
      </trkpt>
      <trkpt lat="48.37805" lon="-4.18607">
        <ele>97.23913058874</ele>
        <time>2022-09-18T15:23:24.728Z</time>
      </trkpt>
      <trkpt lat="48.37823" lon="-4.18508">
        <ele>97.547854761743</ele>
        <time>2022-09-18T15:23:27.881Z</time>
      </trkpt>
      <trkpt lat="48.37827" lon="-4.18445">
        <ele>97.897897631093</ele>
        <time>2022-09-18T15:23:31.041Z</time>
      </trkpt>
      <trkpt lat="48.37828" lon="-4.18372">
        <ele>98.191767581142</ele>
        <time>2022-09-18T15:23:34.208Z</time>
      </trkpt>
      <trkpt lat="48.37834" lon="-4.18314">
        <ele>98.500175690113</ele>
        <time>2022-09-18T15:23:37.382Z</time>
      </trkpt>
      <trkpt lat="48.37861" lon="-4.18157">
        <ele>98.839236807617</ele>
        <time>2022-09-18T15:23:40.573Z</time>
      </trkpt>
      <trkpt lat="48.37878" lon="-4.18078">
        <ele>99.039590350908</ele>
        <time>2022-09-18T15:23:43.773Z</time>
      </trkpt>
      <trkpt lat="48.37885" lon="-4.18035">
        <ele>99.311102757545</ele>
        <time>2022-09-18T15:23:46.978Z</time>
      </trkpt>
      <trkpt lat="48.37897" lon="-4.17982">
        <ele>99.466650402095</ele>
        <time>2022-09-18T15:23:50.189Z</time>
      </trkpt>
      <trkpt lat="48.37905" lon="-4.17935">
        <ele>99.521289815124</ele>
        <time>2022-09-18T15:23:53.405Z</time>
      </trkpt>
      <trkpt lat="48.37917" lon="-4.17892">
        <ele>99.593631820608</ele>
        <time>2022-09-18T15:23:56.626Z</time>
      </trkpt>
      <trkpt lat="48.3793" lon="-4.17859">
        <ele>99.574755638196</ele>
        <time>2022-09-18T15:23:59.851Z</time>
      </trkpt>
      <trkpt lat="48.37977" lon="-4.17755">
        <ele>99.525819217161</ele>
        <time>2022-09-18T15:24:03.089Z</time>
      </trkpt>
      <trkpt lat="48.37996" lon="-4.17725">
        <ele>99.382214758681</ele>
        <time>2022-09-18T15:24:06.332Z</time>
      </trkpt>
      <trkpt lat="48.38026" lon="-4.17692">
        <ele>99.256097889638</ele>
        <time>2022-09-18T15:24:09.581Z</time>
      </trkpt>
      <trkpt lat="48.38045" lon="-4.17663">
        <ele>99.103603887089</ele>
        <time>2022-09-18T15:24:12.834Z</time>
      </trkpt>
      <trkpt lat="48.38118" lon="-4.17522">
        <ele>98.818725778038</ele>
        <time>2022-09-18T15:24:16.106Z</time>
      </trkpt>
      <trkpt lat="48.38139" lon="-4.17463">
        <ele>98.549624256322</ele>
        <time>2022-09-18T15:24:19.385Z</time>
      </trkpt>
      <trkpt lat="48.38173" lon="-4.17355">
        <ele>98.231297586633</ele>
        <time>2022-09-18T15:24:22.677Z</time>
      </trkpt>
      <trkpt lat="48.38195" lon="-4.17278">
        <ele>98.186135695636</ele>
        <time>2022-09-18T15:24:25.978Z</time>
      </trkpt>
      <trkpt lat="48.38224" lon="-4.17196">
        <ele>98.095785735664</ele>
        <time>2022-09-18T15:24:29.289Z</time>
      </trkpt>
      <trkpt lat="48.38241" lon="-4.17163">
        <ele>98.000372589189</ele>
        <time>2022-09-18T15:24:32.604Z</time>
      </trkpt>
      <trkpt lat="48.3826" lon="-4.17132">
        <ele>97.874010831066</ele>
        <time>2022-09-18T15:24:35.924Z</time>
      </trkpt>
      <trkpt lat="48.38317" lon="-4.17058">
        <ele>97.902150980735</ele>
        <time>2022-09-18T15:24:39.256Z</time>
      </trkpt>
      <trkpt lat="48.38359" lon="-4.17008">
        <ele>98.050500914767</ele>
        <time>2022-09-18T15:24:42.596Z</time>
      </trkpt>
      <trkpt lat="48.38373" lon="-4.16988">
        <ele>98.202830403646</ele>
        <time>2022-09-18T15:24:45.939Z</time>
      </trkpt>
      <trkpt lat="48.38381" lon="-4.16973">
        <ele>98.4268819565</ele>
        <time>2022-09-18T15:24:49.284Z</time>
      </trkpt>
      <trkpt lat="48.38393" lon="-4.1695">
        <ele>98.773673656406</ele>
        <time>2022-09-18T15:24:52.632Z</time>
      </trkpt>
      <trkpt lat="48.3841" lon="-4.16909">
        <ele>99.324943096139</ele>
        <time>2022-09-18T15:24:55.986Z</time>
      </trkpt>
      <trkpt lat="48.38449" lon="-4.16802">
        <ele>99.966206654072</ele>
        <time>2022-09-18T15:24:59.353Z</time>
      </trkpt>
      <trkpt lat="48.38473" lon="-4.16748">
        <ele>100.55177247554</ele>
        <time>2022-09-18T15:25:02.727Z</time>
      </trkpt>
      <trkpt lat="48.38509" lon="-4.1666">
        <ele>101.29318843375</ele>
        <time>2022-09-18T15:25:06.112Z</time>
      </trkpt>
      <trkpt lat="48.38529" lon="-4.16623">
        <ele>102.01845956815</ele>
        <time>2022-09-18T15:25:09.502Z</time>
      </trkpt>
      <trkpt lat="48.38559" lon="-4.16582">
        <ele>102.76485166557</ele>
        <time>2022-09-18T15:25:12.898Z</time>
      </trkpt>
      <trkpt lat="48.38581" lon="-4.16546">
        <ele>103.75803939828</ele>
        <time>2022-09-18T15:25:16.299Z</time>
      </trkpt>
      <trkpt lat="48.38672" lon="-4.16353">
        <ele>104.91756970238</ele>
        <time>2022-09-18T15:25:19.726Z</time>
      </trkpt>
      <trkpt lat="48.3874" lon="-4.16227">
        <ele>106.05526366762</ele>
        <time>2022-09-18T15:25:23.170Z</time>
      </trkpt>
      <trkpt lat="48.38781" lon="-4.16155">
        <ele>107.20602753453</ele>
        <time>2022-09-18T15:25:26.624Z</time>
      </trkpt>
      <trkpt lat="48.38796" lon="-4.16124">
        <ele>108.27442136515</ele>
        <time>2022-09-18T15:25:30.082Z</time>
      </trkpt>
      <trkpt lat="48.38808" lon="-4.16084">
        <ele>109.29912879701</ele>
        <time>2022-09-18T15:25:33.545Z</time>
      </trkpt>
      <trkpt lat="48.38825" lon="-4.16011">
        <ele>110.40241894404</ele>
        <time>2022-09-18T15:25:37.016Z</time>
      </trkpt>
      <trkpt lat="48.38827" lon="-4.15994">
        <ele>111.34610707197</ele>
        <time>2022-09-18T15:25:40.489Z</time>
      </trkpt>
      <trkpt lat="48.38827" lon="-4.15958">
        <ele>112.17501667906</ele>
        <time>2022-09-18T15:25:43.966Z</time>
      </trkpt>
      <trkpt lat="48.38822" lon="-4.15906">
        <ele>112.91734159752</ele>
        <time>2022-09-18T15:25:47.448Z</time>
      </trkpt>
      <trkpt lat="48.38805" lon="-4.15807">
        <ele>113.47924139206</ele>
        <time>2022-09-18T15:25:50.941Z</time>
      </trkpt>
      <trkpt lat="48.38796" lon="-4.15779">
        <ele>113.97954433771</ele>
        <time>2022-09-18T15:25:54.438Z</time>
      </trkpt>
      <trkpt lat="48.38702" lon="-4.15531">
        <ele>114.17097260652</ele>
        <time>2022-09-18T15:25:57.965Z</time>
      </trkpt>
      <trkpt lat="48.3867" lon="-4.15452">
        <ele>114.34886513806</ele>
        <time>2022-09-18T15:26:01.502Z</time>
      </trkpt>
      <trkpt lat="48.38643" lon="-4.15379">
        <ele>114.43376906318</ele>
        <time>2022-09-18T15:26:05.048Z</time>
      </trkpt>
      <trkpt lat="48.38613" lon="-4.15306">
        <ele>114.31610051427</ele>
        <time>2022-09-18T15:26:08.603Z</time>
      </trkpt>
      <trkpt lat="48.38413" lon="-4.1479">
        <ele>113.50890561993</ele>
        <time>2022-09-18T15:26:12.222Z</time>
      </trkpt>
      <trkpt lat="48.38388" lon="-4.14722">
        <ele>112.47943920696</ele>
        <time>2022-09-18T15:26:15.849Z</time>
      </trkpt>
      <trkpt lat="48.38377" lon="-4.14683">
        <ele>111.2844054332</ele>
        <time>2022-09-18T15:26:19.480Z</time>
      </trkpt>
      <trkpt lat="48.38368" lon="-4.1464">
        <ele>109.96522076241</ele>
        <time>2022-09-18T15:26:23.116Z</time>
      </trkpt>
      <trkpt lat="48.38362" lon="-4.14592">
        <ele>108.40778931736</ele>
        <time>2022-09-18T15:26:26.757Z</time>
      </trkpt>
      <trkpt lat="48.3836" lon="-4.14552">
        <ele>106.6282718843</ele>
        <time>2022-09-18T15:26:30.403Z</time>
      </trkpt>
      <trkpt lat="48.38368" lon="-4.14448">
        <ele>104.53730068029</ele>
        <time>2022-09-18T15:26:34.060Z</time>
      </trkpt>
      <trkpt lat="48.38375" lon="-4.14415">
        <ele>102.37014834313</ele>
        <time>2022-09-18T15:26:37.721Z</time>
      </trkpt>
      <trkpt lat="48.38388" lon="-4.1437">
        <ele>99.998159047394</ele>
        <time>2022-09-18T15:26:41.387Z</time>
      </trkpt>
      <trkpt lat="48.38405" lon="-4.14324">
        <ele>97.623308785937</ele>
        <time>2022-09-18T15:26:45.058Z</time>
      </trkpt>
      <trkpt lat="48.3842" lon="-4.14289">
        <ele>95.200494047526</ele>
        <time>2022-09-18T15:26:48.734Z</time>
      </trkpt>
      <trkpt lat="48.38504" lon="-4.14062">
        <ele>92.443172080016</ele>
        <time>2022-09-18T15:26:52.437Z</time>
      </trkpt>
      <trkpt lat="48.38524" lon="-4.14018">
        <ele>89.96523688945</ele>
        <time>2022-09-18T15:26:56.146Z</time>
      </trkpt>
      <trkpt lat="48.38558" lon="-4.13973">
        <ele>87.681904500741</ele>
        <time>2022-09-18T15:26:59.862Z</time>
      </trkpt>
      <trkpt lat="48.38686" lon="-4.13825">
        <ele>84.945282062713</ele>
        <time>2022-09-18T15:27:03.604Z</time>
      </trkpt>
      <trkpt lat="48.38735" lon="-4.13766">
        <ele>82.777923943541</ele>
        <time>2022-09-18T15:27:07.356Z</time>
      </trkpt>
      <trkpt lat="48.38769" lon="-4.13729">
        <ele>80.72983883732</ele>
        <time>2022-09-18T15:27:11.115Z</time>
      </trkpt>
      <trkpt lat="48.38778" lon="-4.13721">
        <ele>79.022585781462</ele>
        <time>2022-09-18T15:27:14.876Z</time>
      </trkpt>
      <trkpt lat="48.38798" lon="-4.1371">
        <ele>77.499161843066</ele>
        <time>2022-09-18T15:27:18.640Z</time>
      </trkpt>
      <trkpt lat="48.38839" lon="-4.13694">
        <ele>76.076558864592</ele>
        <time>2022-09-18T15:27:22.411Z</time>
      </trkpt>
      <trkpt lat="48.38869" lon="-4.13669">
        <ele>75.058473528132</ele>
        <time>2022-09-18T15:27:26.187Z</time>
      </trkpt>
      <trkpt lat="48.38906" lon="-4.13629">
        <ele>74.502469507572</ele>
        <time>2022-09-18T15:27:29.971Z</time>
      </trkpt>
      <trkpt lat="48.38918" lon="-4.13605">
        <ele>74.168947682781</ele>
        <time>2022-09-18T15:27:33.758Z</time>
      </trkpt>
      <trkpt lat="48.38946" lon="-4.13537">
        <ele>74.2398528977</ele>
        <time>2022-09-18T15:27:37.553Z</time>
      </trkpt>
      <trkpt lat="48.38952" lon="-4.13519">
        <ele>74.250704195028</ele>
        <time>2022-09-18T15:27:41.351Z</time>
      </trkpt>
      <trkpt lat="48.38955" lon="-4.135">
        <ele>74.349353054169</ele>
        <time>2022-09-18T15:27:45.151Z</time>
      </trkpt>
      <trkpt lat="48.38961" lon="-4.13482">
        <ele>74.71691765287</ele>
        <time>2022-09-18T15:27:48.953Z</time>
      </trkpt>
      <trkpt lat="48.38974" lon="-4.13427">
        <ele>75.24012677885</ele>
        <time>2022-09-18T15:27:52.761Z</time>
      </trkpt>
      <trkpt lat="48.39001" lon="-4.13365">
        <ele>76.288350017036</ele>
        <time>2022-09-18T15:27:56.577Z</time>
      </trkpt>
      <trkpt lat="48.39011" lon="-4.13352">
        <ele>77.227481239256</ele>
        <time>2022-09-18T15:28:00.395Z</time>
      </trkpt>
      <trkpt lat="48.39014" lon="-4.13343">
        <ele>78.236539658702</ele>
        <time>2022-09-18T15:28:04.214Z</time>
      </trkpt>
      <trkpt lat="48.39021" lon="-4.13334">
        <ele>79.36587999531</ele>
        <time>2022-09-18T15:28:08.035Z</time>
      </trkpt>
      <trkpt lat="48.39043" lon="-4.13316">
        <ele>80.586585594465</ele>
        <time>2022-09-18T15:28:11.860Z</time>
      </trkpt>
      <trkpt lat="48.39067" lon="-4.13302">
        <ele>81.878397461321</ele>
        <time>2022-09-18T15:28:15.689Z</time>
      </trkpt>
      <trkpt lat="48.39126" lon="-4.13282">
        <ele>83.45005826851</ele>
        <time>2022-09-18T15:28:19.527Z</time>
      </trkpt>
      <trkpt lat="48.39149" lon="-4.13272">
        <ele>84.871985605641</ele>
        <time>2022-09-18T15:28:23.369Z</time>
      </trkpt>
      <trkpt lat="48.39173" lon="-4.13267">
        <ele>86.301539972212</ele>
        <time>2022-09-18T15:28:27.215Z</time>
      </trkpt>
      <trkpt lat="48.39184" lon="-4.13261">
        <ele>87.647949184915</ele>
        <time>2022-09-18T15:28:31.063Z</time>
      </trkpt>
      <trkpt lat="48.39207" lon="-4.13252">
        <ele>89.027238119181</ele>
        <time>2022-09-18T15:28:34.915Z</time>
      </trkpt>
      <trkpt lat="48.39222" lon="-4.13248">
        <ele>90.37052954136</ele>
        <time>2022-09-18T15:28:38.769Z</time>
      </trkpt>
      <trkpt lat="48.3924" lon="-4.1324">
        <ele>91.699769514869</ele>
        <time>2022-09-18T15:28:42.626Z</time>
      </trkpt>
      <trkpt lat="48.39254" lon="-4.13236">
        <ele>92.925198894448</ele>
        <time>2022-09-18T15:28:46.486Z</time>
      </trkpt>
      <trkpt lat="48.39295" lon="-4.1322">
        <ele>94.101302019097</ele>
        <time>2022-09-18T15:28:50.352Z</time>
      </trkpt>
      <trkpt lat="48.39317" lon="-4.13198">
        <ele>94.974031958131</ele>
        <time>2022-09-18T15:28:54.223Z</time>
      </trkpt>
      <trkpt lat="48.39328" lon="-4.13182">
        <ele>95.777117944655</ele>
        <time>2022-09-18T15:28:58.096Z</time>
      </trkpt>
      <trkpt lat="48.39338" lon="-4.13163">
        <ele>96.525877000779</ele>
        <time>2022-09-18T15:29:01.972Z</time>
      </trkpt>
      <trkpt lat="48.39356" lon="-4.13139">
        <ele>97.19425804469</ele>
        <time>2022-09-18T15:29:05.851Z</time>
      </trkpt>
      <trkpt lat="48.39363" lon="-4.13137">
        <ele>97.813270972806</ele>
        <time>2022-09-18T15:29:09.732Z</time>
      </trkpt>
      <trkpt lat="48.39382" lon="-4.1315">
        <ele>98.436382746271</ele>
        <time>2022-09-18T15:29:13.616Z</time>
      </trkpt>
      <trkpt lat="48.39391" lon="-4.13153">
        <ele>98.945239037147</ele>
        <time>2022-09-18T15:29:17.501Z</time>
      </trkpt>
      <trkpt lat="48.39397" lon="-4.13151">
        <ele>99.394772446662</ele>
        <time>2022-09-18T15:29:21.387Z</time>
      </trkpt>
      <trkpt lat="48.39405" lon="-4.13097">
        <ele>99.744117893133</ele>
        <time>2022-09-18T15:29:25.279Z</time>
      </trkpt>
      <trkpt lat="48.39412" lon="-4.13069">
        <ele>100.07218760343</ele>
        <time>2022-09-18T15:29:29.175Z</time>
      </trkpt>
      <trkpt lat="48.39417" lon="-4.13054">
        <ele>100.41873082372</ele>
        <time>2022-09-18T15:29:33.072Z</time>
      </trkpt>
      <trkpt lat="48.39438" lon="-4.13005">
        <ele>100.79268075596</ele>
        <time>2022-09-18T15:29:36.976Z</time>
      </trkpt>
      <trkpt lat="48.39454" lon="-4.12952">
        <ele>101.1248123327</ele>
        <time>2022-09-18T15:29:40.886Z</time>
      </trkpt>
      <trkpt lat="48.39484" lon="-4.12744">
        <ele>101.34726227512</ele>
        <time>2022-09-18T15:29:44.818Z</time>
      </trkpt>
      <trkpt lat="48.39511" lon="-4.126">
        <ele>101.94311435044</ele>
        <time>2022-09-18T15:29:48.766Z</time>
      </trkpt>
      <trkpt lat="48.39515" lon="-4.12586">
        <ele>102.58197552141</ele>
        <time>2022-09-18T15:29:52.716Z</time>
      </trkpt>
      <trkpt lat="48.39529" lon="-4.12513">
        <ele>103.52343198512</ele>
        <time>2022-09-18T15:29:56.674Z</time>
      </trkpt>
      <trkpt lat="48.39534" lon="-4.12477">
        <ele>104.43304633058</ele>
        <time>2022-09-18T15:30:00.636Z</time>
      </trkpt>
      <trkpt lat="48.39534" lon="-4.12418">
        <ele>105.47117292445</ele>
        <time>2022-09-18T15:30:04.604Z</time>
      </trkpt>
      <trkpt lat="48.39532" lon="-4.12374">
        <ele>106.3305827912</ele>
        <time>2022-09-18T15:30:08.577Z</time>
      </trkpt>
      <trkpt lat="48.39535" lon="-4.12331">
        <ele>107.19038361993</ele>
        <time>2022-09-18T15:30:12.555Z</time>
      </trkpt>
      <trkpt lat="48.39535" lon="-4.1227">
        <ele>108.07293877581</ele>
        <time>2022-09-18T15:30:16.539Z</time>
      </trkpt>
      <trkpt lat="48.39527" lon="-4.12186">
        <ele>108.83365954204</ele>
        <time>2022-09-18T15:30:20.532Z</time>
      </trkpt>
      <trkpt lat="48.39522" lon="-4.12153">
        <ele>109.37552922991</ele>
        <time>2022-09-18T15:30:24.529Z</time>
      </trkpt>
      <trkpt lat="48.39519" lon="-4.12102">
        <ele>109.68933946296</ele>
        <time>2022-09-18T15:30:28.531Z</time>
      </trkpt>
      <trkpt lat="48.39502" lon="-4.11924">
        <ele>109.78711791292</ele>
        <time>2022-09-18T15:30:32.552Z</time>
      </trkpt>
      <trkpt lat="48.39502" lon="-4.11885">
        <ele>110.04505468455</ele>
        <time>2022-09-18T15:30:36.578Z</time>
      </trkpt>
      <trkpt lat="48.39504" lon="-4.11859">
        <ele>110.31962470003</ele>
        <time>2022-09-18T15:30:40.606Z</time>
      </trkpt>
      <trkpt lat="48.39519" lon="-4.11733">
        <ele>110.73100763299</ele>
        <time>2022-09-18T15:30:44.648Z</time>
      </trkpt>
      <trkpt lat="48.39522" lon="-4.11718">
        <ele>111.1196621463</ele>
        <time>2022-09-18T15:30:48.692Z</time>
      </trkpt>
      <trkpt lat="48.39531" lon="-4.11689">
        <ele>111.48503893765</ele>
        <time>2022-09-18T15:30:52.739Z</time>
      </trkpt>
      <trkpt lat="48.39574" lon="-4.11588">
        <ele>111.71358021771</ele>
        <time>2022-09-18T15:30:56.799Z</time>
      </trkpt>
      <trkpt lat="48.39584" lon="-4.11558">
        <ele>111.96271989679</ele>
        <time>2022-09-18T15:31:00.862Z</time>
      </trkpt>
      <trkpt lat="48.39607" lon="-4.11502">
        <ele>112.35932408224</ele>
        <time>2022-09-18T15:31:04.932Z</time>
      </trkpt>
      <trkpt lat="48.39622" lon="-4.11459">
        <ele>112.63417740559</ele>
        <time>2022-09-18T15:31:09.008Z</time>
      </trkpt>
      <trkpt lat="48.3964" lon="-4.11414">
        <ele>112.85227319656</ele>
        <time>2022-09-18T15:31:13.089Z</time>
      </trkpt>
      <trkpt lat="48.39674" lon="-4.11339">
        <ele>113.21356976382</ele>
        <time>2022-09-18T15:31:17.180Z</time>
      </trkpt>
      <trkpt lat="48.39703" lon="-4.11285">
        <ele>113.3142038829</ele>
        <time>2022-09-18T15:31:21.278Z</time>
      </trkpt>
      <trkpt lat="48.39718" lon="-4.11253">
        <ele>113.34931270185</ele>
        <time>2022-09-18T15:31:25.380Z</time>
      </trkpt>
      <trkpt lat="48.39732" lon="-4.1122">
        <ele>113.36595964046</ele>
        <time>2022-09-18T15:31:29.487Z</time>
      </trkpt>
      <trkpt lat="48.39741" lon="-4.11192">
        <ele>113.41163383856</ele>
        <time>2022-09-18T15:31:33.597Z</time>
      </trkpt>
      <trkpt lat="48.3975" lon="-4.11153">
        <ele>113.51303795962</ele>
        <time>2022-09-18T15:31:37.711Z</time>
      </trkpt>
      <trkpt lat="48.39759" lon="-4.11081">
        <ele>113.49543648374</ele>
        <time>2022-09-18T15:31:41.833Z</time>
      </trkpt>
      <trkpt lat="48.3976" lon="-4.11007">
        <ele>113.42066524018</ele>
        <time>2022-09-18T15:31:45.963Z</time>
      </trkpt>
      <trkpt lat="48.39766" lon="-4.10935">
        <ele>113.47761801944</ele>
        <time>2022-09-18T15:31:50.101Z</time>
      </trkpt>
      <trkpt lat="48.39803" lon="-4.10735">
        <ele>113.68837230715</ele>
        <time>2022-09-18T15:31:54.261Z</time>
      </trkpt>
      <trkpt lat="48.39827" lon="-4.10581">
        <ele>114.13309085372</ele>
        <time>2022-09-18T15:31:58.438Z</time>
      </trkpt>
      <trkpt lat="48.39835" lon="-4.10538">
        <ele>114.3025941103</ele>
        <time>2022-09-18T15:32:02.620Z</time>
      </trkpt>
      <trkpt lat="48.39856" lon="-4.10398">
        <ele>114.44013630358</ele>
        <time>2022-09-18T15:32:06.817Z</time>
      </trkpt>
      <trkpt lat="48.3987" lon="-4.10328">
        <ele>114.37188324025</ele>
        <time>2022-09-18T15:32:11.022Z</time>
      </trkpt>
      <trkpt lat="48.39877" lon="-4.10302">
        <ele>114.46141650167</ele>
        <time>2022-09-18T15:32:15.230Z</time>
      </trkpt>
      <trkpt lat="48.39903" lon="-4.10236">
        <ele>114.32399045429</ele>
        <time>2022-09-18T15:32:19.446Z</time>
      </trkpt>
      <trkpt lat="48.39918" lon="-4.10186">
        <ele>114.30364452219</ele>
        <time>2022-09-18T15:32:23.668Z</time>
      </trkpt>
      <trkpt lat="48.39926" lon="-4.10137">
        <ele>114.32815420594</ele>
        <time>2022-09-18T15:32:27.895Z</time>
      </trkpt>
      <trkpt lat="48.39935" lon="-4.10039">
        <ele>114.94432337331</ele>
        <time>2022-09-18T15:32:32.133Z</time>
      </trkpt>
      <trkpt lat="48.39936" lon="-4.10018">
        <ele>115.4940065081</ele>
        <time>2022-09-18T15:32:36.373Z</time>
      </trkpt>
      <trkpt lat="48.39935" lon="-4.09989">
        <ele>116.13204205412</ele>
        <time>2022-09-18T15:32:40.616Z</time>
      </trkpt>
      <trkpt lat="48.39922" lon="-4.09869">
        <ele>116.88345882136</ele>
        <time>2022-09-18T15:32:44.872Z</time>
      </trkpt>
      <trkpt lat="48.39919" lon="-4.09822">
        <ele>117.51212442237</ele>
        <time>2022-09-18T15:32:49.133Z</time>
      </trkpt>
      <trkpt lat="48.39907" lon="-4.09737">
        <ele>118.52922757205</ele>
        <time>2022-09-18T15:32:53.403Z</time>
      </trkpt>
      <trkpt lat="48.399" lon="-4.09703">
        <ele>119.1474311877</ele>
        <time>2022-09-18T15:32:57.677Z</time>
      </trkpt>
      <trkpt lat="48.39896" lon="-4.09668">
        <ele>119.84721788733</ele>
        <time>2022-09-18T15:33:01.955Z</time>
      </trkpt>
      <trkpt lat="48.39896" lon="-4.09639">
        <ele>120.58303523702</ele>
        <time>2022-09-18T15:33:06.236Z</time>
      </trkpt>
      <trkpt lat="48.39903" lon="-4.09586">
        <ele>121.39674559154</ele>
        <time>2022-09-18T15:33:10.523Z</time>
      </trkpt>
      <trkpt lat="48.39909" lon="-4.0956">
        <ele>122.10061618006</ele>
        <time>2022-09-18T15:33:14.813Z</time>
      </trkpt>
      <trkpt lat="48.39927" lon="-4.09506">
        <ele>122.74155255171</ele>
        <time>2022-09-18T15:33:19.109Z</time>
      </trkpt>
      <trkpt lat="48.39938" lon="-4.09481">
        <ele>123.34554294326</ele>
        <time>2022-09-18T15:33:23.408Z</time>
      </trkpt>
      <trkpt lat="48.39951" lon="-4.09457">
        <ele>123.89220881525</ele>
        <time>2022-09-18T15:33:27.711Z</time>
      </trkpt>
      <trkpt lat="48.39971" lon="-4.09429">
        <ele>124.37758763246</ele>
        <time>2022-09-18T15:33:32.018Z</time>
      </trkpt>
      <trkpt lat="48.40014" lon="-4.0939">
        <ele>124.86538535025</ele>
        <time>2022-09-18T15:33:36.333Z</time>
      </trkpt>
      <trkpt lat="48.40033" lon="-4.09368">
        <ele>125.26240980768</ele>
        <time>2022-09-18T15:33:40.652Z</time>
      </trkpt>
      <trkpt lat="48.40051" lon="-4.0934">
        <ele>125.60334991772</ele>
        <time>2022-09-18T15:33:44.975Z</time>
      </trkpt>
      <trkpt lat="48.40067" lon="-4.09304">
        <ele>125.85943360074</ele>
        <time>2022-09-18T15:33:49.303Z</time>
      </trkpt>
      <trkpt lat="48.40076" lon="-4.09282">
        <ele>126.0422917297</ele>
        <time>2022-09-18T15:33:53.633Z</time>
      </trkpt>
      <trkpt lat="48.40097" lon="-4.09212">
        <ele>126.31223233644</ele>
        <time>2022-09-18T15:33:57.971Z</time>
      </trkpt>
      <trkpt lat="48.40115" lon="-4.09131">
        <ele>126.4478568441</ele>
        <time>2022-09-18T15:34:02.319Z</time>
      </trkpt>
      <trkpt lat="48.40138" lon="-4.09038">
        <ele>126.30079786201</ele>
        <time>2022-09-18T15:34:06.677Z</time>
      </trkpt>
      <trkpt lat="48.40146" lon="-4.09011">
        <ele>126.1376806883</ele>
        <time>2022-09-18T15:34:11.038Z</time>
      </trkpt>
      <trkpt lat="48.40155" lon="-4.08972">
        <ele>125.89933090727</ele>
        <time>2022-09-18T15:34:15.404Z</time>
      </trkpt>
      <trkpt lat="48.40161" lon="-4.08961">
        <ele>125.60264398034</ele>
        <time>2022-09-18T15:34:19.771Z</time>
      </trkpt>
      <trkpt lat="48.4017" lon="-4.08961">
        <ele>125.19885882733</ele>
        <time>2022-09-18T15:34:24.140Z</time>
      </trkpt>
      <trkpt lat="48.40175" lon="-4.08965">
        <ele>124.76734509206</ele>
        <time>2022-09-18T15:34:28.510Z</time>
      </trkpt>
      <trkpt lat="48.40184" lon="-4.08978">
        <ele>124.28778508183</ele>
        <time>2022-09-18T15:34:32.882Z</time>
      </trkpt>
      <trkpt lat="48.40215" lon="-4.09037">
        <ele>123.64541960627</ele>
        <time>2022-09-18T15:34:37.262Z</time>
      </trkpt>
      <trkpt lat="48.40231" lon="-4.09058">
        <ele>123.12658081181</ele>
        <time>2022-09-18T15:34:41.645Z</time>
      </trkpt>
      <trkpt lat="48.40254" lon="-4.0908">
        <ele>122.74230213997</ele>
        <time>2022-09-18T15:34:46.032Z</time>
      </trkpt>
      <trkpt lat="48.40293" lon="-4.09112">
        <ele>122.26114350337</ele>
        <time>2022-09-18T15:34:50.426Z</time>
      </trkpt>
      <trkpt lat="48.40315" lon="-4.09147">
        <ele>121.8129741503</ele>
        <time>2022-09-18T15:34:54.826Z</time>
      </trkpt>
      <trkpt lat="48.40335" lon="-4.09189">
        <ele>121.35541546768</ele>
        <time>2022-09-18T15:34:59.231Z</time>
      </trkpt>
      <trkpt lat="48.40341" lon="-4.09196">
        <ele>121.03465503351</ele>
        <time>2022-09-18T15:35:03.637Z</time>
      </trkpt>
      <trkpt lat="48.40374" lon="-4.09222">
        <ele>120.70965453551</ele>
        <time>2022-09-18T15:35:08.049Z</time>
      </trkpt>
      <trkpt lat="48.4047" lon="-4.09285">
        <ele>120.53814347852</ele>
        <time>2022-09-18T15:35:12.478Z</time>
      </trkpt>
      <trkpt lat="48.40498" lon="-4.09308">
        <ele>120.45947337337</ele>
        <time>2022-09-18T15:35:16.912Z</time>
      </trkpt>
      <trkpt lat="48.40541" lon="-4.09352">
        <ele>120.27888731284</ele>
        <time>2022-09-18T15:35:21.355Z</time>
      </trkpt>
      <trkpt lat="48.40553" lon="-4.09362">
        <ele>120.20038679149</ele>
        <time>2022-09-18T15:35:25.800Z</time>
      </trkpt>
      <trkpt lat="48.40585" lon="-4.09385">
        <ele>120.15601617736</ele>
        <time>2022-09-18T15:35:30.250Z</time>
      </trkpt>
      <trkpt lat="48.40615" lon="-4.09403">
        <ele>120.18302380236</ele>
        <time>2022-09-18T15:35:34.706Z</time>
      </trkpt>
      <trkpt lat="48.4064" lon="-4.09421">
        <ele>120.12525355449</ele>
        <time>2022-09-18T15:35:39.166Z</time>
      </trkpt>
      <trkpt lat="48.40664" lon="-4.09444">
        <ele>120.06110349334</ele>
        <time>2022-09-18T15:35:43.631Z</time>
      </trkpt>
      <trkpt lat="48.40673" lon="-4.0945">
        <ele>119.88515077901</ele>
        <time>2022-09-18T15:35:48.097Z</time>
      </trkpt>
      <trkpt lat="48.40683" lon="-4.09454">
        <ele>119.62579108855</ele>
        <time>2022-09-18T15:35:52.565Z</time>
      </trkpt>
      <trkpt lat="48.40687" lon="-4.09454">
        <ele>119.23060470839</ele>
        <time>2022-09-18T15:35:57.033Z</time>
      </trkpt>
      <trkpt lat="48.40692" lon="-4.09451">
        <ele>118.7165447331</ele>
        <time>2022-09-18T15:36:01.502Z</time>
      </trkpt>
      <trkpt lat="48.40695" lon="-4.09447">
        <ele>118.0493326994</ele>
        <time>2022-09-18T15:36:05.972Z</time>
      </trkpt>
      <trkpt lat="48.40697" lon="-4.0944">
        <ele>117.23316840731</ele>
        <time>2022-09-18T15:36:10.443Z</time>
      </trkpt>
      <trkpt lat="48.40694" lon="-4.09403">
        <ele>116.18125066264</ele>
        <time>2022-09-18T15:36:14.918Z</time>
      </trkpt>
      <trkpt lat="48.40694" lon="-4.09371">
        <ele>115.03993379548</ele>
        <time>2022-09-18T15:36:19.396Z</time>
      </trkpt>
      <trkpt lat="48.40696" lon="-4.09349">
        <ele>113.7129867705</ele>
        <time>2022-09-18T15:36:23.877Z</time>
      </trkpt>
      <trkpt lat="48.40706" lon="-4.09303">
        <ele>112.14316936588</ele>
        <time>2022-09-18T15:36:28.363Z</time>
      </trkpt>
      <trkpt lat="48.40722" lon="-4.09253">
        <ele>110.36531778492</ele>
        <time>2022-09-18T15:36:32.855Z</time>
      </trkpt>
      <trkpt lat="48.40728" lon="-4.09226">
        <ele>108.62429575629</ele>
        <time>2022-09-18T15:36:37.350Z</time>
      </trkpt>
      <trkpt lat="48.4073" lon="-4.09208">
        <ele>106.8573242029</ele>
        <time>2022-09-18T15:36:41.847Z</time>
      </trkpt>
      <trkpt lat="48.4073" lon="-4.09139">
        <ele>104.9271664614</ele>
        <time>2022-09-18T15:36:46.351Z</time>
      </trkpt>
      <trkpt lat="48.40732" lon="-4.09102">
        <ele>103.01673255838</ele>
        <time>2022-09-18T15:36:50.859Z</time>
      </trkpt>
      <trkpt lat="48.40738" lon="-4.09041">
        <ele>101.14045888956</ele>
        <time>2022-09-18T15:36:55.373Z</time>
      </trkpt>
      <trkpt lat="48.40757" lon="-4.08911">
        <ele>98.517827926908</ele>
        <time>2022-09-18T15:36:59.902Z</time>
      </trkpt>
      <trkpt lat="48.40765" lon="-4.08842">
        <ele>94.805746258614</ele>
        <time>2022-09-18T15:37:04.438Z</time>
      </trkpt>
      <trkpt lat="48.4077" lon="-4.0882">
        <ele>93.254867576325</ele>
        <time>2022-09-18T15:37:08.977Z</time>
      </trkpt>
      <trkpt lat="48.40777" lon="-4.08799">
        <ele>91.884463594892</ele>
        <time>2022-09-18T15:37:13.518Z</time>
      </trkpt>
      <trkpt lat="48.40793" lon="-4.08764">
        <ele>90.709095967533</ele>
        <time>2022-09-18T15:37:18.064Z</time>
      </trkpt>
      <trkpt lat="48.40818" lon="-4.08721">
        <ele>89.836803752752</ele>
        <time>2022-09-18T15:37:22.616Z</time>
      </trkpt>
      <trkpt lat="48.40843" lon="-4.08673">
        <ele>89.15035751626</ele>
        <time>2022-09-18T15:37:27.174Z</time>
      </trkpt>
      <trkpt lat="48.40854" lon="-4.08647">
        <ele>88.568013922</ele>
        <time>2022-09-18T15:37:31.735Z</time>
      </trkpt>
      <trkpt lat="48.40862" lon="-4.08619">
        <ele>88.115024760712</ele>
        <time>2022-09-18T15:37:36.300Z</time>
      </trkpt>
      <trkpt lat="48.4086" lon="-4.08607">
        <ele>87.839349801487</ele>
        <time>2022-09-18T15:37:40.866Z</time>
      </trkpt>
      <trkpt lat="48.40854" lon="-4.08597">
        <ele>87.711786616939</ele>
        <time>2022-09-18T15:37:45.433Z</time>
      </trkpt>
      <trkpt lat="48.40821" lon="-4.08569">
        <ele>87.769396554375</ele>
        <time>2022-09-18T15:37:50.007Z</time>
      </trkpt>
      <trkpt lat="48.40784" lon="-4.08545">
        <ele>87.888283176885</ele>
        <time>2022-09-18T15:37:54.587Z</time>
      </trkpt>
      <trkpt lat="48.40771" lon="-4.08534">
        <ele>88.060015052915</ele>
        <time>2022-09-18T15:37:59.169Z</time>
      </trkpt>
      <trkpt lat="48.40766" lon="-4.08525">
        <ele>88.280079363544</ele>
        <time>2022-09-18T15:38:03.753Z</time>
      </trkpt>
      <trkpt lat="48.4077" lon="-4.08512">
        <ele>88.563532711687</ele>
        <time>2022-09-18T15:38:08.338Z</time>
      </trkpt>
      <trkpt lat="48.40779" lon="-4.08493">
        <ele>88.873302739911</ele>
        <time>2022-09-18T15:38:12.926Z</time>
      </trkpt>
      <trkpt lat="48.40797" lon="-4.08434">
        <ele>89.252058984138</ele>
        <time>2022-09-18T15:38:17.521Z</time>
      </trkpt>
      <trkpt lat="48.40811" lon="-4.08357">
        <ele>89.617048608122</ele>
        <time>2022-09-18T15:38:22.124Z</time>
      </trkpt>
      <trkpt lat="48.40813" lon="-4.08341">
        <ele>89.811813317314</ele>
        <time>2022-09-18T15:38:26.729Z</time>
      </trkpt>
      <trkpt lat="48.40813" lon="-4.08316">
        <ele>89.996900288701</ele>
        <time>2022-09-18T15:38:31.337Z</time>
      </trkpt>
      <trkpt lat="48.40817" lon="-4.08311">
        <ele>89.988927818183</ele>
        <time>2022-09-18T15:38:35.945Z</time>
      </trkpt>
      <trkpt lat="48.40859" lon="-4.0832">
        <ele>89.667734963264</ele>
        <time>2022-09-18T15:38:40.560Z</time>
      </trkpt>
      <trkpt lat="48.40882" lon="-4.08328">
        <ele>89.365161723726</ele>
        <time>2022-09-18T15:38:45.179Z</time>
      </trkpt>
      <trkpt lat="48.40915" lon="-4.08345">
        <ele>89.049320387618</ele>
        <time>2022-09-18T15:38:49.803Z</time>
      </trkpt>
      <trkpt lat="48.40949" lon="-4.0837">
        <ele>88.534029872958</ele>
        <time>2022-09-18T15:38:54.434Z</time>
      </trkpt>
      <trkpt lat="48.40983" lon="-4.08406">
        <ele>87.973824933923</ele>
        <time>2022-09-18T15:38:59.071Z</time>
      </trkpt>
      <trkpt lat="48.41057" lon="-4.08519">
        <ele>87.350513882337</ele>
        <time>2022-09-18T15:39:03.725Z</time>
      </trkpt>
      <trkpt lat="48.4108" lon="-4.08547">
        <ele>86.67758829089</ele>
        <time>2022-09-18T15:39:08.384Z</time>
      </trkpt>
      <trkpt lat="48.41094" lon="-4.08557">
        <ele>86.198102082481</ele>
        <time>2022-09-18T15:39:13.045Z</time>
      </trkpt>
      <trkpt lat="48.41115" lon="-4.08569">
        <ele>85.726737638937</ele>
        <time>2022-09-18T15:39:17.710Z</time>
      </trkpt>
      <trkpt lat="48.41118" lon="-4.08564">
        <ele>85.234767330253</ele>
        <time>2022-09-18T15:39:22.376Z</time>
      </trkpt>
      <trkpt lat="48.41122" lon="-4.08561">
        <ele>84.769076309172</ele>
        <time>2022-09-18T15:39:27.042Z</time>
      </trkpt>
      <trkpt lat="48.41127" lon="-4.08563">
        <ele>84.341059215968</ele>
        <time>2022-09-18T15:39:31.709Z</time>
      </trkpt>
      <trkpt lat="48.41128" lon="-4.08571">
        <ele>83.961583798386</ele>
        <time>2022-09-18T15:39:36.377Z</time>
      </trkpt>
      <trkpt lat="48.41122" lon="-4.0859">
        <ele>83.632072912079</ele>
        <time>2022-09-18T15:39:41.047Z</time>
      </trkpt>
      <trkpt lat="48.41121" lon="-4.08613">
        <ele>83.359864027565</ele>
        <time>2022-09-18T15:39:45.720Z</time>
      </trkpt>
      <trkpt lat="48.41158" lon="-4.08733">
        <ele>83.030606606253</ele>
        <time>2022-09-18T15:39:50.407Z</time>
      </trkpt>
      <trkpt lat="48.412" lon="-4.08906">
        <ele>82.850891140845</ele>
        <time>2022-09-18T15:39:55.113Z</time>
      </trkpt>
      <trkpt lat="48.41221" lon="-4.08971">
        <ele>82.929687694983</ele>
        <time>2022-09-18T15:39:59.827Z</time>
      </trkpt>
      <trkpt lat="48.41262" lon="-4.09083">
        <ele>83.038664880885</ele>
        <time>2022-09-18T15:40:04.555Z</time>
      </trkpt>
      <trkpt lat="48.41281" lon="-4.0913">
        <ele>83.274531657928</ele>
        <time>2022-09-18T15:40:09.289Z</time>
      </trkpt>
      <trkpt lat="48.41419" lon="-4.09455">
        <ele>84.012486388008</ele>
        <time>2022-09-18T15:40:14.064Z</time>
      </trkpt>
      <trkpt lat="48.41439" lon="-4.09508">
        <ele>84.43799690511</ele>
        <time>2022-09-18T15:40:18.845Z</time>
      </trkpt>
      <trkpt lat="48.41463" lon="-4.09584">
        <ele>84.917572349795</ele>
        <time>2022-09-18T15:40:23.635Z</time>
      </trkpt>
      <trkpt lat="48.41536" lon="-4.09844">
        <ele>85.260023168841</ele>
        <time>2022-09-18T15:40:28.455Z</time>
      </trkpt>
      <trkpt lat="48.41556" lon="-4.09893">
        <ele>85.941768661111</ele>
        <time>2022-09-18T15:40:33.281Z</time>
      </trkpt>
      <trkpt lat="48.4158" lon="-4.09937">
        <ele>86.773807850969</ele>
        <time>2022-09-18T15:40:38.114Z</time>
      </trkpt>
      <trkpt lat="48.4162" lon="-4.09988">
        <ele>87.847093151618</ele>
        <time>2022-09-18T15:40:42.955Z</time>
      </trkpt>
      <trkpt lat="48.41638" lon="-4.10006">
        <ele>88.78460127506</ele>
        <time>2022-09-18T15:40:47.799Z</time>
      </trkpt>
      <trkpt lat="48.41664" lon="-4.10026">
        <ele>89.750173900047</ele>
        <time>2022-09-18T15:40:52.648Z</time>
      </trkpt>
      <trkpt lat="48.41734" lon="-4.10064">
        <ele>90.737288292638</ele>
        <time>2022-09-18T15:40:57.509Z</time>
      </trkpt>
      <trkpt lat="48.41792" lon="-4.10087">
        <ele>91.867101005206</ele>
        <time>2022-09-18T15:41:02.380Z</time>
      </trkpt>
      <trkpt lat="48.41827" lon="-4.10103">
        <ele>93.17844125149</ele>
        <time>2022-09-18T15:41:07.256Z</time>
      </trkpt>
      <trkpt lat="48.41971" lon="-4.10194">
        <ele>94.15798325138</ele>
        <time>2022-09-18T15:41:12.157Z</time>
      </trkpt>
      <trkpt lat="48.41991" lon="-4.10208">
        <ele>95.175162194173</ele>
        <time>2022-09-18T15:41:17.062Z</time>
      </trkpt>
      <trkpt lat="48.42045" lon="-4.10255">
        <ele>96.315484520503</ele>
        <time>2022-09-18T15:41:21.977Z</time>
      </trkpt>
      <trkpt lat="48.4208" lon="-4.10294">
        <ele>97.418434097796</ele>
        <time>2022-09-18T15:41:26.899Z</time>
      </trkpt>
      <trkpt lat="48.42112" lon="-4.10336">
        <ele>98.358208822765</ele>
        <time>2022-09-18T15:41:31.828Z</time>
      </trkpt>
      <trkpt lat="48.42156" lon="-4.10405">
        <ele>99.198995885797</ele>
        <time>2022-09-18T15:41:36.767Z</time>
      </trkpt>
      <trkpt lat="48.4219" lon="-4.10465">
        <ele>100.01913336135</ele>
        <time>2022-09-18T15:41:41.714Z</time>
      </trkpt>
      <trkpt lat="48.42251" lon="-4.10579">
        <ele>100.71013038598</ele>
        <time>2022-09-18T15:41:46.677Z</time>
      </trkpt>
      <trkpt lat="48.4227" lon="-4.1061">
        <ele>101.4186684052</ele>
        <time>2022-09-18T15:41:51.644Z</time>
      </trkpt>
      <trkpt lat="48.42276" lon="-4.10623">
        <ele>102.12195216389</ele>
        <time>2022-09-18T15:41:56.613Z</time>
      </trkpt>
      <trkpt lat="48.42311" lon="-4.10684">
        <ele>102.81577696709</ele>
        <time>2022-09-18T15:42:01.591Z</time>
      </trkpt>
      <trkpt lat="48.42356" lon="-4.10759">
        <ele>103.49606108112</ele>
        <time>2022-09-18T15:42:06.579Z</time>
      </trkpt>
      <trkpt lat="48.42419" lon="-4.10859">
        <ele>104.21086194338</ele>
        <time>2022-09-18T15:42:11.582Z</time>
      </trkpt>
      <trkpt lat="48.42455" lon="-4.10911">
        <ele>104.46283628971</ele>
        <time>2022-09-18T15:42:16.593Z</time>
      </trkpt>
      <trkpt lat="48.42477" lon="-4.1094">
        <ele>104.43833389066</ele>
        <time>2022-09-18T15:42:21.609Z</time>
      </trkpt>
      <trkpt lat="48.4251" lon="-4.10989">
        <ele>104.32777856051</ele>
        <time>2022-09-18T15:42:26.632Z</time>
      </trkpt>
      <trkpt lat="48.42546" lon="-4.11053">
        <ele>103.99571914662</ele>
        <time>2022-09-18T15:42:31.664Z</time>
      </trkpt>
      <trkpt lat="48.42575" lon="-4.11122">
        <ele>103.27577004428</ele>
        <time>2022-09-18T15:42:36.705Z</time>
      </trkpt>
      <trkpt lat="48.426" lon="-4.11204">
        <ele>102.50245028289</ele>
        <time>2022-09-18T15:42:41.755Z</time>
      </trkpt>
      <trkpt lat="48.42615" lon="-4.1126">
        <ele>101.84159736393</ele>
        <time>2022-09-18T15:42:46.812Z</time>
      </trkpt>
      <trkpt lat="48.42676" lon="-4.11506">
        <ele>100.93708258353</ele>
        <time>2022-09-18T15:42:51.897Z</time>
      </trkpt>
      <trkpt lat="48.42682" lon="-4.11544">
        <ele>99.960983954497</ele>
        <time>2022-09-18T15:42:56.986Z</time>
      </trkpt>
      <trkpt lat="48.42692" lon="-4.11648">
        <ele>98.730107403182</ele>
        <time>2022-09-18T15:43:02.086Z</time>
      </trkpt>
      <trkpt lat="48.42697" lon="-4.11711">
        <ele>97.649658131227</ele>
        <time>2022-09-18T15:43:07.193Z</time>
      </trkpt>
      <trkpt lat="48.42697" lon="-4.11816">
        <ele>96.47160449616</ele>
        <time>2022-09-18T15:43:12.311Z</time>
      </trkpt>
      <trkpt lat="48.42692" lon="-4.11986">
        <ele>95.420563399727</ele>
        <time>2022-09-18T15:43:17.447Z</time>
      </trkpt>
      <trkpt lat="48.42689" lon="-4.1207">
        <ele>94.312363414056</ele>
        <time>2022-09-18T15:43:22.592Z</time>
      </trkpt>
      <trkpt lat="48.42673" lon="-4.12211">
        <ele>92.933715860891</ele>
        <time>2022-09-18T15:43:27.753Z</time>
      </trkpt>
      <trkpt lat="48.4267" lon="-4.12271">
        <ele>91.897861872352</ele>
        <time>2022-09-18T15:43:32.920Z</time>
      </trkpt>
      <trkpt lat="48.42671" lon="-4.12302">
        <ele>91.023301465126</ele>
        <time>2022-09-18T15:43:38.090Z</time>
      </trkpt>
      <trkpt lat="48.42676" lon="-4.12347">
        <ele>90.229389917358</ele>
        <time>2022-09-18T15:43:43.265Z</time>
      </trkpt>
      <trkpt lat="48.42683" lon="-4.1239">
        <ele>89.543603701217</ele>
        <time>2022-09-18T15:43:48.445Z</time>
      </trkpt>
      <trkpt lat="48.42692" lon="-4.12462">
        <ele>88.915018692506</ele>
        <time>2022-09-18T15:43:53.633Z</time>
      </trkpt>
      <trkpt lat="48.42698" lon="-4.12605">
        <ele>88.473136067022</ele>
        <time>2022-09-18T15:43:58.836Z</time>
      </trkpt>
      <trkpt lat="48.42704" lon="-4.12672">
        <ele>88.603245459025</ele>
        <time>2022-09-18T15:44:04.046Z</time>
      </trkpt>
      <trkpt lat="48.42708" lon="-4.12697">
        <ele>88.929188341451</ele>
        <time>2022-09-18T15:44:09.259Z</time>
      </trkpt>
      <trkpt lat="48.42723" lon="-4.12755">
        <ele>89.63523769672</ele>
        <time>2022-09-18T15:44:14.478Z</time>
      </trkpt>
      <trkpt lat="48.42733" lon="-4.12787">
        <ele>90.35369823539</ele>
        <time>2022-09-18T15:44:19.701Z</time>
      </trkpt>
      <trkpt lat="48.42778" lon="-4.129">
        <ele>91.290629371354</ele>
        <time>2022-09-18T15:44:24.938Z</time>
      </trkpt>
      <trkpt lat="48.42827" lon="-4.13033">
        <ele>92.253593603104</ele>
        <time>2022-09-18T15:44:30.191Z</time>
      </trkpt>
      <trkpt lat="48.42841" lon="-4.13078">
        <ele>93.830077203529</ele>
        <time>2022-09-18T15:44:35.450Z</time>
      </trkpt>
      <trkpt lat="48.42898" lon="-4.13235">
        <ele>95.973804603817</ele>
        <time>2022-09-18T15:44:40.728Z</time>
      </trkpt>
      <trkpt lat="48.42936" lon="-4.13352">
        <ele>98.120549530897</ele>
        <time>2022-09-18T15:44:46.020Z</time>
      </trkpt>
      <trkpt lat="48.42958" lon="-4.13425">
        <ele>100.17245207012</ele>
        <time>2022-09-18T15:44:51.320Z</time>
      </trkpt>
      <trkpt lat="48.42988" lon="-4.13509">
        <ele>102.26645039199</ele>
        <time>2022-09-18T15:44:56.630Z</time>
      </trkpt>
      <trkpt lat="48.43007" lon="-4.13554">
        <ele>104.41015652574</ele>
        <time>2022-09-18T15:45:01.946Z</time>
      </trkpt>
      <trkpt lat="48.43018" lon="-4.13576">
        <ele>106.6612863057</ele>
        <time>2022-09-18T15:45:07.265Z</time>
      </trkpt>
      <trkpt lat="48.43031" lon="-4.13609">
        <ele>108.93916891149</ele>
        <time>2022-09-18T15:45:12.588Z</time>
      </trkpt>
      <trkpt lat="48.43075" lon="-4.13703">
        <ele>111.64236087247</ele>
        <time>2022-09-18T15:45:17.923Z</time>
      </trkpt>
      <trkpt lat="48.43093" lon="-4.13749">
        <ele>114.06447875538</ele>
        <time>2022-09-18T15:45:23.264Z</time>
      </trkpt>
      <trkpt lat="48.43107" lon="-4.13793">
        <ele>116.51046060192</ele>
        <time>2022-09-18T15:45:28.610Z</time>
      </trkpt>
      <trkpt lat="48.4312" lon="-4.13844">
        <ele>119.01941492586</ele>
        <time>2022-09-18T15:45:33.962Z</time>
      </trkpt>
      <trkpt lat="48.43131" lon="-4.13917">
        <ele>121.49738268786</ele>
        <time>2022-09-18T15:45:39.322Z</time>
      </trkpt>
      <trkpt lat="48.43138" lon="-4.13993">
        <ele>124.07034426699</ele>
        <time>2022-09-18T15:45:44.690Z</time>
      </trkpt>
      <trkpt lat="48.4314" lon="-4.14034">
        <ele>126.45631436723</ele>
        <time>2022-09-18T15:45:50.063Z</time>
      </trkpt>
      <trkpt lat="48.43148" lon="-4.14109">
        <ele>128.78017707859</ele>
        <time>2022-09-18T15:45:55.444Z</time>
      </trkpt>
      <trkpt lat="48.43154" lon="-4.14196">
        <ele>131.26215800994</ele>
        <time>2022-09-18T15:46:00.834Z</time>
      </trkpt>
      <trkpt lat="48.4316" lon="-4.14244">
        <ele>133.53791180443</ele>
        <time>2022-09-18T15:46:06.229Z</time>
      </trkpt>
      <trkpt lat="48.43168" lon="-4.14337">
        <ele>135.69213376632</ele>
        <time>2022-09-18T15:46:11.634Z</time>
      </trkpt>
      <trkpt lat="48.43199" lon="-4.1461">
        <ele>138.23633764199</ele>
        <time>2022-09-18T15:46:17.069Z</time>
      </trkpt>
      <trkpt lat="48.43223" lon="-4.14795">
        <ele>140.00844660889</ele>
        <time>2022-09-18T15:46:22.524Z</time>
      </trkpt>
      <trkpt lat="48.43261" lon="-4.14977">
        <ele>142.00730529634</ele>
        <time>2022-09-18T15:46:27.999Z</time>
      </trkpt>
      <trkpt lat="48.43284" lon="-4.15077">
        <ele>143.62602724566</ele>
        <time>2022-09-18T15:46:33.485Z</time>
      </trkpt>
      <trkpt lat="48.43304" lon="-4.1515">
        <ele>145.1250117599</ele>
        <time>2022-09-18T15:46:38.980Z</time>
      </trkpt>
      <trkpt lat="48.43379" lon="-4.15366">
        <ele>146.30936171067</ele>
        <time>2022-09-18T15:46:44.501Z</time>
      </trkpt>
      <trkpt lat="48.43423" lon="-4.155">
        <ele>147.48190719879</ele>
        <time>2022-09-18T15:46:50.038Z</time>
      </trkpt>
      <trkpt lat="48.43465" lon="-4.15637">
        <ele>148.57419692495</ele>
        <time>2022-09-18T15:46:55.591Z</time>
      </trkpt>
      <trkpt lat="48.43485" lon="-4.15709">
        <ele>149.65187000342</ele>
        <time>2022-09-18T15:47:01.152Z</time>
      </trkpt>
      <trkpt lat="48.43537" lon="-4.15882">
        <ele>150.70281637472</ele>
        <time>2022-09-18T15:47:06.733Z</time>
      </trkpt>
      <trkpt lat="48.43613" lon="-4.16128">
        <ele>151.56586901128</ele>
        <time>2022-09-18T15:47:12.343Z</time>
      </trkpt>
      <trkpt lat="48.43627" lon="-4.16169">
        <ele>152.37402958434</ele>
        <time>2022-09-18T15:47:17.958Z</time>
      </trkpt>
      <trkpt lat="48.43658" lon="-4.16279">
        <ele>153.12626137047</ele>
        <time>2022-09-18T15:47:23.586Z</time>
      </trkpt>
      <trkpt lat="48.43676" lon="-4.16337">
        <ele>153.71191148735</ele>
        <time>2022-09-18T15:47:29.221Z</time>
      </trkpt>
      <trkpt lat="48.43683" lon="-4.16374">
        <ele>154.24515249662</ele>
        <time>2022-09-18T15:47:34.860Z</time>
      </trkpt>
      <trkpt lat="48.43686" lon="-4.16383">
        <ele>154.78161355094</ele>
        <time>2022-09-18T15:47:40.500Z</time>
      </trkpt>
      <trkpt lat="48.43691" lon="-4.16412">
        <ele>155.27635965998</ele>
        <time>2022-09-18T15:47:46.143Z</time>
      </trkpt>
      <trkpt lat="48.43705" lon="-4.1653">
        <ele>155.4961784558</ele>
        <time>2022-09-18T15:47:51.799Z</time>
      </trkpt>
      <trkpt lat="48.43713" lon="-4.16631">
        <ele>155.92152200816</ele>
        <time>2022-09-18T15:47:57.466Z</time>
      </trkpt>
      <trkpt lat="48.4372" lon="-4.16702">
        <ele>156.304308463</ele>
        <time>2022-09-18T15:48:03.140Z</time>
      </trkpt>
      <trkpt lat="48.43732" lon="-4.16796">
        <ele>156.93011690536</ele>
        <time>2022-09-18T15:48:08.824Z</time>
      </trkpt>
      <trkpt lat="48.43745" lon="-4.16936">
        <ele>157.73826743165</ele>
        <time>2022-09-18T15:48:14.524Z</time>
      </trkpt>
      <trkpt lat="48.43763" lon="-4.1703">
        <ele>158.41192369369</ele>
        <time>2022-09-18T15:48:20.234Z</time>
      </trkpt>
      <trkpt lat="48.43799" lon="-4.1717">
        <ele>159.31957023115</ele>
        <time>2022-09-18T15:48:25.960Z</time>
      </trkpt>
      <trkpt lat="48.43827" lon="-4.17267">
        <ele>160.03653865744</ele>
        <time>2022-09-18T15:48:31.697Z</time>
      </trkpt>
      <trkpt lat="48.43835" lon="-4.17301">
        <ele>160.76646673261</ele>
        <time>2022-09-18T15:48:37.438Z</time>
      </trkpt>
      <trkpt lat="48.43847" lon="-4.17358">
        <ele>161.63714029925</ele>
        <time>2022-09-18T15:48:43.185Z</time>
      </trkpt>
      <trkpt lat="48.43855" lon="-4.17407">
        <ele>162.30289734144</ele>
        <time>2022-09-18T15:48:48.938Z</time>
      </trkpt>
      <trkpt lat="48.43862" lon="-4.17471">
        <ele>163.00513072813</ele>
        <time>2022-09-18T15:48:54.698Z</time>
      </trkpt>
      <trkpt lat="48.43867" lon="-4.17552">
        <ele>163.52735024838</ele>
        <time>2022-09-18T15:49:00.466Z</time>
      </trkpt>
      <trkpt lat="48.43867" lon="-4.17843">
        <ele>163.92901920423</ele>
        <time>2022-09-18T15:49:06.265Z</time>
      </trkpt>
      <trkpt lat="48.4387" lon="-4.18055">
        <ele>164.17754379963</ele>
        <time>2022-09-18T15:49:12.087Z</time>
      </trkpt>
      <trkpt lat="48.43879" lon="-4.18122">
        <ele>164.05605325656</ele>
        <time>2022-09-18T15:49:17.916Z</time>
      </trkpt>
      <trkpt lat="48.43887" lon="-4.18151">
        <ele>163.9571496638</ele>
        <time>2022-09-18T15:49:23.749Z</time>
      </trkpt>
      <trkpt lat="48.43891" lon="-4.18159">
        <ele>163.73059816637</ele>
        <time>2022-09-18T15:49:29.583Z</time>
      </trkpt>
      <trkpt lat="48.43902" lon="-4.18174">
        <ele>163.34910163975</ele>
        <time>2022-09-18T15:49:35.419Z</time>
      </trkpt>
      <trkpt lat="48.43905" lon="-4.18183">
        <ele>162.75778817849</ele>
        <time>2022-09-18T15:49:41.256Z</time>
      </trkpt>
      <trkpt lat="48.43919" lon="-4.18209">
        <ele>162.00951067836</ele>
        <time>2022-09-18T15:49:47.097Z</time>
      </trkpt>
      <trkpt lat="48.43937" lon="-4.1823">
        <ele>161.00286970807</ele>
        <time>2022-09-18T15:49:52.941Z</time>
      </trkpt>
      <trkpt lat="48.43958" lon="-4.1825">
        <ele>159.84360507975</ele>
        <time>2022-09-18T15:49:58.789Z</time>
      </trkpt>
      <trkpt lat="48.43972" lon="-4.18259">
        <ele>158.56645796755</ele>
        <time>2022-09-18T15:50:04.640Z</time>
      </trkpt>
      <trkpt lat="48.43999" lon="-4.1827">
        <ele>157.03348713627</ele>
        <time>2022-09-18T15:50:10.495Z</time>
      </trkpt>
      <trkpt lat="48.44053" lon="-4.18283">
        <ele>155.20795443872</ele>
        <time>2022-09-18T15:50:16.359Z</time>
      </trkpt>
      <trkpt lat="48.44152" lon="-4.18304">
        <ele>153.33057120454</ele>
        <time>2022-09-18T15:50:22.239Z</time>
      </trkpt>
      <trkpt lat="48.44172" lon="-4.18307">
        <ele>151.5728364773</ele>
        <time>2022-09-18T15:50:28.122Z</time>
      </trkpt>
      <trkpt lat="48.44301" lon="-4.18336">
        <ele>149.42047203939</ele>
        <time>2022-09-18T15:50:34.026Z</time>
      </trkpt>
      <trkpt lat="48.44459" lon="-4.18372">
        <ele>147.12291554971</ele>
        <time>2022-09-18T15:50:39.956Z</time>
      </trkpt>
      <trkpt lat="48.44488" lon="-4.1838">
        <ele>145.0042836323</ele>
        <time>2022-09-18T15:50:45.890Z</time>
      </trkpt>
      <trkpt lat="48.44524" lon="-4.18386">
        <ele>142.8720539607</ele>
        <time>2022-09-18T15:50:51.830Z</time>
      </trkpt>
      <trkpt lat="48.44567" lon="-4.18386">
        <ele>140.76594755387</ele>
        <time>2022-09-18T15:50:57.777Z</time>
      </trkpt>
      <trkpt lat="48.44587" lon="-4.18383">
        <ele>138.71044354732</ele>
        <time>2022-09-18T15:51:03.727Z</time>
      </trkpt>
      <trkpt lat="48.44605" lon="-4.18377">
        <ele>136.58799182085</ele>
        <time>2022-09-18T15:51:09.680Z</time>
      </trkpt>
      <trkpt lat="48.44621" lon="-4.18369">
        <ele>134.42039048421</ele>
        <time>2022-09-18T15:51:15.636Z</time>
      </trkpt>
      <trkpt lat="48.44638" lon="-4.18359">
        <ele>132.21444489993</ele>
        <time>2022-09-18T15:51:21.595Z</time>
      </trkpt>
      <trkpt lat="48.44685" lon="-4.18323">
        <ele>129.9504617704</ele>
        <time>2022-09-18T15:51:27.562Z</time>
      </trkpt>
      <trkpt lat="48.44756" lon="-4.18264">
        <ele>127.54808222304</ele>
        <time>2022-09-18T15:51:33.542Z</time>
      </trkpt>
      <trkpt lat="48.44799" lon="-4.18236">
        <ele>125.24191815528</ele>
        <time>2022-09-18T15:51:39.530Z</time>
      </trkpt>
      <trkpt lat="48.44828" lon="-4.18228">
        <ele>122.92973079328</ele>
        <time>2022-09-18T15:51:45.523Z</time>
      </trkpt>
      <trkpt lat="48.44859" lon="-4.18227">
        <ele>120.59624423612</ele>
        <time>2022-09-18T15:51:51.521Z</time>
      </trkpt>
      <trkpt lat="48.44888" lon="-4.18233">
        <ele>118.23865810806</ele>
        <time>2022-09-18T15:51:57.523Z</time>
      </trkpt>
      <trkpt lat="48.44898" lon="-4.18236">
        <ele>115.90573848781</ele>
        <time>2022-09-18T15:52:03.527Z</time>
      </trkpt>
      <trkpt lat="48.44926" lon="-4.18253">
        <ele>113.47368329086</ele>
        <time>2022-09-18T15:52:09.536Z</time>
      </trkpt>
      <trkpt lat="48.45111" lon="-4.18378">
        <ele>110.54221124912</ele>
        <time>2022-09-18T15:52:15.577Z</time>
      </trkpt>
      <trkpt lat="48.45139" lon="-4.18395">
        <ele>105.72146915042</ele>
        <time>2022-09-18T15:52:21.623Z</time>
      </trkpt>
      <trkpt lat="48.45233" lon="-4.1846">
        <ele>103.02658045972</ele>
        <time>2022-09-18T15:52:27.686Z</time>
      </trkpt>
      <trkpt lat="48.45377" lon="-4.18553">
        <ele>100.38310528408</ele>
        <time>2022-09-18T15:52:33.774Z</time>
      </trkpt>
      <trkpt lat="48.45385" lon="-4.1856">
        <ele>98.038743539507</ele>
        <time>2022-09-18T15:52:39.863Z</time>
      </trkpt>
      <trkpt lat="48.45409" lon="-4.18587">
        <ele>95.696601946944</ele>
        <time>2022-09-18T15:52:45.957Z</time>
      </trkpt>
      <trkpt lat="48.45423" lon="-4.18609">
        <ele>93.47014849369</ele>
        <time>2022-09-18T15:52:52.054Z</time>
      </trkpt>
      <trkpt lat="48.45542" lon="-4.18816">
        <ele>90.842131027633</ele>
        <time>2022-09-18T15:52:58.180Z</time>
      </trkpt>
      <trkpt lat="48.45577" lon="-4.18873">
        <ele>88.652421910278</ele>
        <time>2022-09-18T15:53:04.315Z</time>
      </trkpt>
      <trkpt lat="48.45655" lon="-4.1898">
        <ele>86.632506086323</ele>
        <time>2022-09-18T15:53:10.467Z</time>
      </trkpt>
      <trkpt lat="48.45739" lon="-4.19086">
        <ele>84.509804229334</ele>
        <time>2022-09-18T15:53:16.636Z</time>
      </trkpt>
      <trkpt lat="48.45807" lon="-4.19178">
        <ele>82.605396258078</ele>
        <time>2022-09-18T15:53:22.820Z</time>
      </trkpt>
      <trkpt lat="48.45827" lon="-4.19215">
        <ele>80.938728236095</ele>
        <time>2022-09-18T15:53:29.009Z</time>
      </trkpt>
      <trkpt lat="48.45846" lon="-4.1928">
        <ele>79.609756918206</ele>
        <time>2022-09-18T15:53:35.205Z</time>
      </trkpt>
      <trkpt lat="48.45852" lon="-4.19292">
        <ele>78.570386732476</ele>
        <time>2022-09-18T15:53:41.403Z</time>
      </trkpt>
      <trkpt lat="48.45866" lon="-4.19309">
        <ele>77.771687246531</ele>
        <time>2022-09-18T15:53:47.604Z</time>
      </trkpt>
      <trkpt lat="48.45889" lon="-4.19323">
        <ele>77.113905455726</ele>
        <time>2022-09-18T15:53:53.809Z</time>
      </trkpt>
      <trkpt lat="48.45897" lon="-4.19325">
        <ele>76.342906717156</ele>
        <time>2022-09-18T15:54:00.015Z</time>
      </trkpt>
      <trkpt lat="48.45962" lon="-4.19334">
        <ele>75.623424984374</ele>
        <time>2022-09-18T15:54:06.232Z</time>
      </trkpt>
      <trkpt lat="48.45999" lon="-4.19337">
        <ele>74.900820747994</ele>
        <time>2022-09-18T15:54:12.454Z</time>
      </trkpt>
      <trkpt lat="48.46039" lon="-4.19347">
        <ele>74.203170878246</ele>
        <time>2022-09-18T15:54:18.683Z</time>
      </trkpt>
      <trkpt lat="48.46089" lon="-4.19371">
        <ele>73.652828052467</ele>
        <time>2022-09-18T15:54:24.920Z</time>
      </trkpt>
      <trkpt lat="48.46135" lon="-4.19397">
        <ele>73.144666991549</ele>
        <time>2022-09-18T15:54:31.165Z</time>
      </trkpt>
      <trkpt lat="48.46191" lon="-4.19416">
        <ele>72.691778718914</ele>
        <time>2022-09-18T15:54:37.419Z</time>
      </trkpt>
      <trkpt lat="48.46226" lon="-4.19433">
        <ele>72.473840288253</ele>
        <time>2022-09-18T15:54:43.679Z</time>
      </trkpt>
      <trkpt lat="48.46239" lon="-4.19442">
        <ele>72.392045414342</ele>
        <time>2022-09-18T15:54:49.942Z</time>
      </trkpt>
      <trkpt lat="48.46276" lon="-4.19479">
        <ele>72.505878530243</ele>
        <time>2022-09-18T15:54:56.212Z</time>
      </trkpt>
      <trkpt lat="48.4639" lon="-4.19617">
        <ele>72.705532580017</ele>
        <time>2022-09-18T15:55:02.505Z</time>
      </trkpt>
      <trkpt lat="48.46393" lon="-4.19624">
        <ele>72.872589508374</ele>
        <time>2022-09-18T15:55:08.799Z</time>
      </trkpt>
      <trkpt lat="48.46407" lon="-4.19644">
        <ele>73.040361544163</ele>
        <time>2022-09-18T15:55:15.096Z</time>
      </trkpt>
      <trkpt lat="48.46425" lon="-4.19678">
        <ele>73.202389335537</ele>
        <time>2022-09-18T15:55:21.398Z</time>
      </trkpt>
      <trkpt lat="48.46447" lon="-4.19737">
        <ele>73.299702197071</ele>
        <time>2022-09-18T15:55:27.707Z</time>
      </trkpt>
      <trkpt lat="48.46458" lon="-4.19792">
        <ele>73.645440882707</ele>
        <time>2022-09-18T15:55:34.022Z</time>
      </trkpt>
      <trkpt lat="48.46462" lon="-4.19848">
        <ele>73.868030459576</ele>
        <time>2022-09-18T15:55:40.343Z</time>
      </trkpt>
      <trkpt lat="48.46472" lon="-4.19892">
        <ele>73.905398617348</ele>
        <time>2022-09-18T15:55:46.669Z</time>
      </trkpt>
      <trkpt lat="48.46479" lon="-4.19938">
        <ele>74.291566869528</ele>
        <time>2022-09-18T15:55:53.000Z</time>
      </trkpt>
      <trkpt lat="48.46482" lon="-4.19974">
        <ele>74.72793608264</ele>
        <time>2022-09-18T15:55:59.335Z</time>
      </trkpt>
      <trkpt lat="48.46481" lon="-4.19985">
        <ele>75.261887815044</ele>
        <time>2022-09-18T15:56:05.671Z</time>
      </trkpt>
      <trkpt lat="48.46477" lon="-4.20023">
        <ele>75.92986003305</ele>
        <time>2022-09-18T15:56:12.011Z</time>
      </trkpt>
      <trkpt lat="48.46463" lon="-4.20108">
        <ele>76.667911634306</ele>
        <time>2022-09-18T15:56:18.361Z</time>
      </trkpt>
      <trkpt lat="48.46455" lon="-4.20189">
        <ele>77.200161569556</ele>
        <time>2022-09-18T15:56:24.719Z</time>
      </trkpt>
      <trkpt lat="48.46456" lon="-4.20232">
        <ele>77.725830097766</ele>
        <time>2022-09-18T15:56:31.082Z</time>
      </trkpt>
      <trkpt lat="48.46461" lon="-4.20255">
        <ele>77.996189423503</ele>
        <time>2022-09-18T15:56:37.447Z</time>
      </trkpt>
      <trkpt lat="48.46481" lon="-4.20322">
        <ele>78.307659239914</ele>
        <time>2022-09-18T15:56:43.820Z</time>
      </trkpt>
      <trkpt lat="48.46516" lon="-4.2039">
        <ele>79.03716402239</ele>
        <time>2022-09-18T15:56:50.202Z</time>
      </trkpt>
      <trkpt lat="48.46545" lon="-4.20437">
        <ele>79.136822977939</ele>
        <time>2022-09-18T15:56:56.591Z</time>
      </trkpt>
      <trkpt lat="48.46562" lon="-4.20471">
        <ele>79.327187181109</ele>
        <time>2022-09-18T15:57:02.985Z</time>
      </trkpt>
      <trkpt lat="48.46573" lon="-4.20487">
        <ele>79.417944997111</ele>
        <time>2022-09-18T15:57:09.381Z</time>
      </trkpt>
      <trkpt lat="48.46596" lon="-4.20539">
        <ele>79.526422910153</ele>
        <time>2022-09-18T15:57:15.784Z</time>
      </trkpt>
      <trkpt lat="48.46613" lon="-4.20587">
        <ele>79.393052400331</ele>
        <time>2022-09-18T15:57:22.193Z</time>
      </trkpt>
      <trkpt lat="48.46617" lon="-4.20594">
        <ele>79.152781447504</ele>
        <time>2022-09-18T15:57:28.603Z</time>
      </trkpt>
      <trkpt lat="48.46621" lon="-4.20613">
        <ele>78.910924056488</ele>
        <time>2022-09-18T15:57:35.015Z</time>
      </trkpt>
      <trkpt lat="48.4663" lon="-4.20639">
        <ele>78.495639082733</ele>
        <time>2022-09-18T15:57:41.430Z</time>
      </trkpt>
      <trkpt lat="48.46631" lon="-4.20649">
        <ele>77.996174038728</ele>
        <time>2022-09-18T15:57:47.846Z</time>
      </trkpt>
      <trkpt lat="48.46637" lon="-4.20671">
        <ele>77.338109104439</ele>
        <time>2022-09-18T15:57:54.264Z</time>
      </trkpt>
      <trkpt lat="48.46656" lon="-4.20779">
        <ele>76.119951723444</ele>
        <time>2022-09-18T15:58:00.694Z</time>
      </trkpt>
      <trkpt lat="48.46689" lon="-4.20863">
        <ele>74.865055403906</ele>
        <time>2022-09-18T15:58:07.135Z</time>
      </trkpt>
      <trkpt lat="48.46706" lon="-4.20914">
        <ele>73.78268552467</ele>
        <time>2022-09-18T15:58:13.582Z</time>
      </trkpt>
      <trkpt lat="48.46711" lon="-4.2095">
        <ele>72.664168731108</ele>
        <time>2022-09-18T15:58:20.033Z</time>
      </trkpt>
      <trkpt lat="48.46707" lon="-4.21">
        <ele>71.372155344612</ele>
        <time>2022-09-18T15:58:26.489Z</time>
      </trkpt>
      <trkpt lat="48.46696" lon="-4.21034">
        <ele>70.076111070402</ele>
        <time>2022-09-18T15:58:32.949Z</time>
      </trkpt>
      <trkpt lat="48.46676" lon="-4.21076">
        <ele>68.792863023599</ele>
        <time>2022-09-18T15:58:39.415Z</time>
      </trkpt>
      <trkpt lat="48.46586" lon="-4.21249">
        <ele>67.551646092239</ele>
        <time>2022-09-18T15:58:45.904Z</time>
      </trkpt>
      <trkpt lat="48.46571" lon="-4.2128">
        <ele>66.282185205872</ele>
        <time>2022-09-18T15:58:52.397Z</time>
      </trkpt>
      <trkpt lat="48.46548" lon="-4.21334">
        <ele>64.861242468104</ele>
        <time>2022-09-18T15:58:58.897Z</time>
      </trkpt>
      <trkpt lat="48.46523" lon="-4.21406">
        <ele>63.322236877433</ele>
        <time>2022-09-18T15:59:05.406Z</time>
      </trkpt>
      <trkpt lat="48.46447" lon="-4.21684">
        <ele>61.927188937031</ele>
        <time>2022-09-18T15:59:11.947Z</time>
      </trkpt>
      <trkpt lat="48.46437" lon="-4.21707">
        <ele>60.502845054652</ele>
        <time>2022-09-18T15:59:18.491Z</time>
      </trkpt>
      <trkpt lat="48.46421" lon="-4.21737">
        <ele>59.104934493275</ele>
        <time>2022-09-18T15:59:25.039Z</time>
      </trkpt>
      <trkpt lat="48.46402" lon="-4.21762">
        <ele>57.58529362646</ele>
        <time>2022-09-18T15:59:31.591Z</time>
      </trkpt>
      <trkpt lat="48.46324" lon="-4.21846">
        <ele>55.817957559443</ele>
        <time>2022-09-18T15:59:38.158Z</time>
      </trkpt>
      <trkpt lat="48.46292" lon="-4.21887">
        <ele>54.111723684077</ele>
        <time>2022-09-18T15:59:44.732Z</time>
      </trkpt>
      <trkpt lat="48.46268" lon="-4.21923">
        <ele>52.229115792606</ele>
        <time>2022-09-18T15:59:51.311Z</time>
      </trkpt>
      <trkpt lat="48.46206" lon="-4.2205">
        <ele>50.558294444598</ele>
        <time>2022-09-18T15:59:57.907Z</time>
      </trkpt>
      <trkpt lat="48.46119" lon="-4.22234">
        <ele>48.569532224045</ele>
        <time>2022-09-18T16:00:04.527Z</time>
      </trkpt>
      <trkpt lat="48.46014" lon="-4.22448">
        <ele>46.659682578997</ele>
        <time>2022-09-18T16:00:11.175Z</time>
      </trkpt>
      <trkpt lat="48.45967" lon="-4.22549">
        <ele>44.405788031981</ele>
        <time>2022-09-18T16:00:17.836Z</time>
      </trkpt>
      <trkpt lat="48.45941" lon="-4.22611">
        <ele>42.29921713255</ele>
        <time>2022-09-18T16:00:24.505Z</time>
      </trkpt>
      <trkpt lat="48.45926" lon="-4.22664">
        <ele>40.076186099952</ele>
        <time>2022-09-18T16:00:31.180Z</time>
      </trkpt>
      <trkpt lat="48.45889" lon="-4.22848">
        <ele>37.837133433419</ele>
        <time>2022-09-18T16:00:37.876Z</time>
      </trkpt>
      <trkpt lat="48.45871" lon="-4.2293">
        <ele>35.464847857011</ele>
        <time>2022-09-18T16:00:44.581Z</time>
      </trkpt>
      <trkpt lat="48.45852" lon="-4.23029">
        <ele>33.221695941656</ele>
        <time>2022-09-18T16:00:51.297Z</time>
      </trkpt>
      <trkpt lat="48.45824" lon="-4.2319">
        <ele>30.716643867441</ele>
        <time>2022-09-18T16:00:58.031Z</time>
      </trkpt>
      <trkpt lat="48.45805" lon="-4.23257">
        <ele>28.513774535039</ele>
        <time>2022-09-18T16:01:04.773Z</time>
      </trkpt>
      <trkpt lat="48.45781" lon="-4.23317">
        <ele>26.502070609217</ele>
        <time>2022-09-18T16:01:11.522Z</time>
      </trkpt>
      <trkpt lat="48.45761" lon="-4.23357">
        <ele>24.532432440387</ele>
        <time>2022-09-18T16:01:18.276Z</time>
      </trkpt>
      <trkpt lat="48.45733" lon="-4.23405">
        <ele>22.532296067961</ele>
        <time>2022-09-18T16:01:25.037Z</time>
      </trkpt>
      <trkpt lat="48.45663" lon="-4.23515">
        <ele>20.513466037615</ele>
        <time>2022-09-18T16:01:31.814Z</time>
      </trkpt>
      <trkpt lat="48.45561" lon="-4.23689">
        <ele>18.546775225301</ele>
        <time>2022-09-18T16:01:38.616Z</time>
      </trkpt>
      <trkpt lat="48.45501" lon="-4.23788">
        <ele>16.654807322923</ele>
        <time>2022-09-18T16:01:45.432Z</time>
      </trkpt>
      <trkpt lat="48.45472" lon="-4.23843">
        <ele>15.100961314038</ele>
        <time>2022-09-18T16:01:52.256Z</time>
      </trkpt>
      <trkpt lat="48.45347" lon="-4.2404">
        <ele>13.234103298147</ele>
        <time>2022-09-18T16:01:59.109Z</time>
      </trkpt>
      <trkpt lat="48.45278" lon="-4.24159">
        <ele>11.896793100293</ele>
        <time>2022-09-18T16:02:05.979Z</time>
      </trkpt>
      <trkpt lat="48.45269" lon="-4.24182">
        <ele>10.63736944797</ele>
        <time>2022-09-18T16:02:12.851Z</time>
      </trkpt>
      <trkpt lat="48.45265" lon="-4.24198">
        <ele>9.5086396005461</ele>
        <time>2022-09-18T16:02:19.725Z</time>
      </trkpt>
      <trkpt lat="48.45263" lon="-4.24223">
        <ele>8.4601407305598</ele>
        <time>2022-09-18T16:02:26.602Z</time>
      </trkpt>
      <trkpt lat="48.45265" lon="-4.2424">
        <ele>7.5882741438588</ele>
        <time>2022-09-18T16:02:33.481Z</time>
      </trkpt>
      <trkpt lat="48.45274" lon="-4.24277">
        <ele>6.8141401447083</ele>
        <time>2022-09-18T16:02:40.364Z</time>
      </trkpt>
      <trkpt lat="48.45283" lon="-4.24296">
        <ele>6.2075574989349</ele>
        <time>2022-09-18T16:02:47.249Z</time>
      </trkpt>
      <trkpt lat="48.45308" lon="-4.24339">
        <ele>5.5568560349396</ele>
        <time>2022-09-18T16:02:54.141Z</time>
      </trkpt>
      <trkpt lat="48.45359" lon="-4.24412">
        <ele>5.1103379942902</ele>
        <time>2022-09-18T16:03:01.044Z</time>
      </trkpt>
      <trkpt lat="48.45377" lon="-4.24442">
        <ele>4.8590314748836</ele>
        <time>2022-09-18T16:03:07.951Z</time>
      </trkpt>
      <trkpt lat="48.454" lon="-4.24465">
        <ele>4.6804851962311</ele>
        <time>2022-09-18T16:03:14.863Z</time>
      </trkpt>
      <trkpt lat="48.45402" lon="-4.24468">
        <ele>4.5635646982616</ele>
        <time>2022-09-18T16:03:21.775Z</time>
      </trkpt>
      <trkpt lat="48.45404" lon="-4.24478">
        <ele>4.5335444119391</ele>
        <time>2022-09-18T16:03:28.688Z</time>
      </trkpt>
      <trkpt lat="48.454" lon="-4.24486">
        <ele>4.5580902384768</ele>
        <time>2022-09-18T16:03:35.602Z</time>
      </trkpt>
      <trkpt lat="48.45384" lon="-4.24501">
        <ele>4.6206915770134</ele>
        <time>2022-09-18T16:03:42.519Z</time>
      </trkpt>
      <trkpt lat="48.45355" lon="-4.24538">
        <ele>4.6577424542159</ele>
        <time>2022-09-18T16:03:49.442Z</time>
      </trkpt>
      <trkpt lat="48.4534" lon="-4.24554">
        <ele>4.7986047746805</ele>
        <time>2022-09-18T16:03:56.368Z</time>
      </trkpt>
      <trkpt lat="48.4529" lon="-4.24625">
        <ele>4.9204992571486</ele>
        <time>2022-09-18T16:04:03.305Z</time>
      </trkpt>
      <trkpt lat="48.45248" lon="-4.24678">
        <ele>5.1111575902065</ele>
        <time>2022-09-18T16:04:10.251Z</time>
      </trkpt>
      <trkpt lat="48.45213" lon="-4.24727">
        <ele>5.3308240454368</ele>
        <time>2022-09-18T16:04:17.205Z</time>
      </trkpt>
      <trkpt lat="48.45152" lon="-4.24803">
        <ele>5.3936093614224</ele>
        <time>2022-09-18T16:04:24.171Z</time>
      </trkpt>
      <trkpt lat="48.45136" lon="-4.24826">
        <ele>5.6090419896952</ele>
        <time>2022-09-18T16:04:31.141Z</time>
      </trkpt>
      <trkpt lat="48.45122" lon="-4.24841">
        <ele>5.8673709852957</ele>
        <time>2022-09-18T16:04:38.114Z</time>
      </trkpt>
      <trkpt lat="48.45101" lon="-4.24869">
        <ele>6.1444055097346</ele>
        <time>2022-09-18T16:04:45.091Z</time>
      </trkpt>
      <trkpt lat="48.45039" lon="-4.24941">
        <ele>6.2253062405687</ele>
        <time>2022-09-18T16:04:52.081Z</time>
      </trkpt>
      <trkpt lat="48.45033" lon="-4.24952">
        <ele>6.3086887243822</ele>
        <time>2022-09-18T16:04:59.072Z</time>
      </trkpt>
      <trkpt lat="48.45027" lon="-4.24968">
        <ele>6.3796690824317</ele>
        <time>2022-09-18T16:05:06.065Z</time>
      </trkpt>
      <trkpt lat="48.45014" lon="-4.25009">
        <ele>6.5350700805585</ele>
        <time>2022-09-18T16:05:13.063Z</time>
      </trkpt>
      <trkpt lat="48.45007" lon="-4.25037">
        <ele>6.6733114655545</ele>
        <time>2022-09-18T16:05:20.064Z</time>
      </trkpt>
      <trkpt lat="48.44982" lon="-4.25107">
        <ele>6.7393093086893</ele>
        <time>2022-09-18T16:05:27.074Z</time>
      </trkpt>
      <trkpt lat="48.44976" lon="-4.25132">
        <ele>6.820883904698</ele>
        <time>2022-09-18T16:05:34.087Z</time>
      </trkpt>
      <trkpt lat="48.44969" lon="-4.25148">
        <ele>6.9194640488134</ele>
        <time>2022-09-18T16:05:41.102Z</time>
      </trkpt>
      <trkpt lat="48.4496" lon="-4.25182">
        <ele>7.0192653372292</ele>
        <time>2022-09-18T16:05:48.120Z</time>
      </trkpt>
      <trkpt lat="48.44955" lon="-4.25216">
        <ele>7.0405991826981</ele>
        <time>2022-09-18T16:05:55.142Z</time>
      </trkpt>
      <trkpt lat="48.44952" lon="-4.2526">
        <ele>7.0135744805061</ele>
        <time>2022-09-18T16:06:02.169Z</time>
      </trkpt>
      <trkpt lat="48.44945" lon="-4.25307">
        <ele>6.8279565058936</ele>
        <time>2022-09-18T16:06:09.201Z</time>
      </trkpt>
      <trkpt lat="48.44939" lon="-4.25342">
        <ele>6.6883487765828</ele>
        <time>2022-09-18T16:06:16.237Z</time>
      </trkpt>
      <trkpt lat="48.44934" lon="-4.25359">
        <ele>6.5773661569227</ele>
        <time>2022-09-18T16:06:23.275Z</time>
      </trkpt>
      <trkpt lat="48.44922" lon="-4.25427">
        <ele>6.4328944947919</ele>
        <time>2022-09-18T16:06:30.320Z</time>
      </trkpt>
      <trkpt lat="48.44921" lon="-4.25438">
        <ele>6.2795668695429</ele>
        <time>2022-09-18T16:06:37.367Z</time>
      </trkpt>
      <trkpt lat="48.44926" lon="-4.25446">
        <ele>6.1168717280342</ele>
        <time>2022-09-18T16:06:44.415Z</time>
      </trkpt>
      <trkpt lat="48.44926" lon="-4.25457">
        <ele>5.941315490635</ele>
        <time>2022-09-18T16:06:51.464Z</time>
        <extensions>
          <visugpx:TrkExtension xmlns:visugpx="https://www.visugpx.com/editgpx/">
            <visugpx:node>2</visugpx:node>
            </visugpx:TrkExtension>
        </extensions>
      </trkpt>
    </trkseg>
  </trk>
</gpx>